Darstellungsparameter: Aktuell verwendete Einstellungen:
Skalierung der Graphiken ... ?
xyx+y,   Skalierungsfaktor:      Skalierung: Modus: x, Faktor: 1
Darstellungszeitraum ... ?
Vom - - bis: - -   Zeitraum: 22.12.2019 - 21.06.2020
Min/Max/Avg-Anzeige ... ?
Zeige MMA aktuell
Zeige MMA Monat
Zeige MMA alles
Zeige --A aktuell
Zeige --A Monat
Zeige --A alles
Keine MMA-Anzeige
MMA:
Average (ber die Originaldaten)
MMA-Basis: 22.12.2019 - 21.06.2020
Quicknavigation für Darstellung... ?
Tage:      1T, 2T, 3T, 5T -1T -2T -3T -5T +1T +2T +3T +5T
Wochen: 1W, 2W, 3W -1W -2W -3W +1W +2W +3W
Monate: 1M, 3M, 6M -1M -3M -6M +1M +3M +6M
Jahre:    1J, 3J, 5J, 10J -1J -3J -5J -10J +1J +3J +5J +10J
Nutze für die Darstellung ... ?
Originaldaten oder Mittelwerte auf ...
Stundenbasis Tagesbasis Wochenbasis
Monatsbasis Jahresbasis      Datenbasis: Original-Daten
Darstellen als:
Statistik (Auto) Statistik J:M      Darstellung:
Zur Graphik,    zurück zur Übersicht aller Sensoren.
 
Tabellarische Datenbersicht: ?
 
Sensor: Nr:Datum:Temp:Abs-Feuchte:Windchill:Wind:
Aussen-T/F 1 22-12-2019 00:00:00 7.3 C 6.64 g/m*3 4.44 C 16.1 km/h
2 22-12-2019 00:05:00 7.4 C 6.68 g/m*3 4.78 C 14.5 km/h
3 22-12-2019 00:10:00 7.4 C 6.68 g/m*3 5.93 C 8.1 km/h
4 22-12-2019 00:15:00 7.5 C 6.72 g/m*3 4.48 C 17.7 km/h
5 22-12-2019 00:20:00 7.6 C 6.77 g/m*3 6.16 C 8.1 km/h
6 22-12-2019 00:25:00 7.6 C 6.85 g/m*3 6.6 C 6.4 km/h
7 22-12-2019 00:30:00 7.6 C 6.85 g/m*3 6.16 C 8.1 km/h
8 22-12-2019 00:35:00 7.5 C 6.8 g/m*3 6.48 C 6.4 km/h
9 22-12-2019 00:40:00 7.5 C 6.88 g/m*3 4.48 C 17.7 km/h
10 22-12-2019 00:45:00 7.5 C 6.88 g/m*3 7.5 C 4.8 km/h
11 22-12-2019 00:50:00 7.5 C 6.96 g/m*3 7.5 C 3.2 km/h
12 22-12-2019 00:55:00 7.4 C 6.92 g/m*3 6.37 C 6.4 km/h
13 22-12-2019 01:00:00 7.4 C 7 g/m*3 5.93 C 8.1 km/h
14 22-12-2019 01:05:00 7.3 C 7.03 g/m*3 7.3 C 4.8 km/h
15 22-12-2019 01:10:00 7.2 C 7.06 g/m*3 7.2 C 4.8 km/h
16 22-12-2019 01:15:00 7.1 C 7.02 g/m*3 7.1 C 4.8 km/h
17 22-12-2019 01:20:00 7.1 C 7.1 g/m*3 7.1 C 3.2 km/h
18 22-12-2019 01:25:00 6.9 C 7.01 g/m*3 6.9 C 1.6 km/h
19 22-12-2019 01:30:00 6.9 C 7.01 g/m*3 5.79 C 6.4 km/h
20 22-12-2019 01:35:00 6.9 C 7.08 g/m*3 6.9 C 3.2 km/h
21 22-12-2019 01:40:00 6.8 C 7.04 g/m*3 6.8 C 3.2 km/h
22 22-12-2019 01:45:00 6.8 C 7.04 g/m*3 6.8 C 1.6 km/h
23 22-12-2019 01:50:00 6.7 C 7.07 g/m*3 6.7 C 3.2 km/h
24 22-12-2019 01:55:00 6.7 C 7.07 g/m*3 5.56 C 6.4 km/h
25 22-12-2019 02:00:00 6.7 C 7.07 g/m*3 5.56 C 6.4 km/h
Sensor: Nr:Datum:Temp:Abs-Feuchte:Windchill:Wind:
Aussen-T/F 26 22-12-2019 02:05:00 6.7 C 7.07 g/m*3 5.11 C 8.1 km/h
27 22-12-2019 02:10:00 6.7 C 7.07 g/m*3 6.7 C 1.6 km/h
28 22-12-2019 02:15:00 6.7 C 7.07 g/m*3 6.7 C 4.8 km/h
29 22-12-2019 02:20:00 6.7 C 7.07 g/m*3 6.7 C 1.6 km/h
30 22-12-2019 02:25:00 6.7 C 7.07 g/m*3 6.7 C 4.8 km/h
31 22-12-2019 02:30:00 6.7 C 7.07 g/m*3 5.11 C 8.1 km/h
32 22-12-2019 02:35:00 6.8 C 7.11 g/m*3 5.67 C 6.4 km/h
33 22-12-2019 02:40:00 6.8 C 7.11 g/m*3 5.67 C 6.4 km/h
34 22-12-2019 02:45:00 6.8 C 7.11 g/m*3 5.22 C 8.1 km/h
35 22-12-2019 02:50:00 6.8 C 7.11 g/m*3 5.22 C 8.1 km/h
36 22-12-2019 02:55:00 6.9 C 7.16 g/m*3 6.9 C 3.2 km/h
37 22-12-2019 03:00:00 6.9 C 7.16 g/m*3 6.9 C 3.2 km/h
38 22-12-2019 03:05:00 6.9 C 7.16 g/m*3 6.9 C 4.8 km/h
39 22-12-2019 03:10:00 6.9 C 7.16 g/m*3 6.9 C 4.8 km/h
40 22-12-2019 03:15:00 6.9 C 7.16 g/m*3 6.9 C 1.6 km/h
41 22-12-2019 03:20:00 6.9 C 7.16 g/m*3 6.9 C 3.2 km/h
42 22-12-2019 03:25:00 6.9 C 7.16 g/m*3 4.68 C 11.3 km/h
43 22-12-2019 03:30:00 6.9 C 7.08 g/m*3 4.99 C 9.7 km/h
44 22-12-2019 03:35:00 7 C 7.13 g/m*3 7 C 4.8 km/h
45 22-12-2019 03:40:00 7 C 7.13 g/m*3 7 C 3.2 km/h
46 22-12-2019 03:45:00 7 C 7.13 g/m*3 7 C 1.6 km/h
47 22-12-2019 03:50:00 7 C 7.13 g/m*3 7 C 4.8 km/h
48 22-12-2019 03:55:00 7.1 C 7.18 g/m*3 7.1 C 3.2 km/h
49 22-12-2019 04:00:00 7.1 C 7.18 g/m*3 7.1 C 1.6 km/h
50 22-12-2019 04:05:00 7.1 C 7.18 g/m*3 7.1 C 3.2 km/h
Sensor: Nr:Datum:Temp:Abs-Feuchte:Windchill:Wind:
Aussen-T/F 51 22-12-2019 04:10:00 7.1 C 7.18 g/m*3 7.1 C 3.2 km/h
52 22-12-2019 04:15:00 7 C 7.13 g/m*3 7 C 3.2 km/h
53 22-12-2019 04:20:00 7 C 7.13 g/m*3 5.46 C 8.1 km/h
54 22-12-2019 04:25:00 7 C 7.13 g/m*3 7 C 1.6 km/h
55 22-12-2019 04:30:00 7 C 7.13 g/m*3 7 C 3.2 km/h
56 22-12-2019 04:35:00 7.1 C 7.18 g/m*3 7.1 C 3.2 km/h
57 22-12-2019 04:40:00 7.1 C 7.18 g/m*3 7.1 C 4.8 km/h
58 22-12-2019 04:45:00 7.1 C 7.18 g/m*3 7.1 C 4.8 km/h
59 22-12-2019 04:50:00 7.1 C 7.18 g/m*3 7.1 C 3.2 km/h
60 22-12-2019 04:55:00 7.1 C 7.18 g/m*3 7.1 C 1.6 km/h
61 22-12-2019 05:00:00 7.2 C 7.22 g/m*3 7.2 C 4.8 km/h
62 22-12-2019 05:05:00 7.2 C 7.22 g/m*3 7.2 C 3.2 km/h
63 22-12-2019 05:10:00 7.1 C 7.18 g/m*3 7.1 C 0 km/h
64 22-12-2019 05:15:00 7.1 C 7.1 g/m*3 7.1 C 4.8 km/h
65 22-12-2019 05:20:00 6.9 C 7.01 g/m*3 6.9 C 1.6 km/h
66 22-12-2019 05:25:00 6.7 C 6.91 g/m*3 6.7 C 0 km/h
67 22-12-2019 05:30:00 6.6 C 6.95 g/m*3 6.6 C 1.6 km/h
68 22-12-2019 05:35:00 6.7 C 6.99 g/m*3 6.7 C 3.2 km/h
69 22-12-2019 05:40:00 6.7 C 7.07 g/m*3 6.7 C 3.2 km/h
70 22-12-2019 05:45:00 6.8 C 7.11 g/m*3 5.22 C 8.1 km/h
71 22-12-2019 05:50:00 6.9 C 7.16 g/m*3 5.79 C 6.4 km/h
72 22-12-2019 05:55:00 6.8 C 7.04 g/m*3 6.8 C 0 km/h
73 22-12-2019 06:00:00 6.6 C 6.95 g/m*3 6.6 C 1.6 km/h
74 22-12-2019 06:05:00 6.4 C 6.85 g/m*3 6.4 C 0 km/h
75 22-12-2019 06:10:00 6.4 C 6.93 g/m*3 6.4 C 3.2 km/h
Sensor: Nr:Datum:Temp:Abs-Feuchte:Windchill:Wind:
Aussen-T/F 76 22-12-2019 06:15:00 6.4 C 6.93 g/m*3 6.4 C 1.6 km/h
77 22-12-2019 06:20:00 6.3 C 6.81 g/m*3 6.3 C 1.6 km/h
78 22-12-2019 06:25:00 6.2 C 6.84 g/m*3 6.2 C 4.8 km/h
79 22-12-2019 06:30:00 6.3 C 6.96 g/m*3 6.3 C 4.8 km/h
80 22-12-2019 06:35:00 6.3 C 6.96 g/m*3 5.1 C 6.4 km/h
81 22-12-2019 06:40:00 6.5 C 7.12 g/m*3 4.87 C 8.1 km/h
82 22-12-2019 06:45:00 6.7 C 7.22 g/m*3 6.7 C 3.2 km/h
83 22-12-2019 06:50:00 6.8 C 7.19 g/m*3 6.8 C 1.6 km/h
84 22-12-2019 06:55:00 6.9 C 7.24 g/m*3 6.9 C 3.2 km/h
85 22-12-2019 07:00:00 6.9 C 7.24 g/m*3 6.9 C 0 km/h
86 22-12-2019 07:05:00 6.9 C 7.24 g/m*3 6.9 C 0 km/h
87 22-12-2019 07:10:00 6.9 C 7.24 g/m*3 6.9 C 0 km/h
88 22-12-2019 07:15:00 6.9 C 7.24 g/m*3 6.9 C 1.6 km/h
89 22-12-2019 07:20:00 6.9 C 7.24 g/m*3 6.9 C 0 km/h
90 22-12-2019 07:25:00 6.8 C 7.19 g/m*3 6.8 C 1.6 km/h
91 22-12-2019 07:30:00 6.7 C 7.14 g/m*3 6.7 C 3.2 km/h
92 22-12-2019 07:35:00 6.7 C 7.14 g/m*3 5.11 C 8.1 km/h
93 22-12-2019 07:40:00 6.7 C 7.14 g/m*3 6.7 C 3.2 km/h
94 22-12-2019 07:45:00 6.8 C 7.27 g/m*3 6.8 C 3.2 km/h
95 22-12-2019 07:50:00 6.9 C 7.31 g/m*3 6.9 C 1.6 km/h
96 22-12-2019 07:55:00 6.9 C 7.31 g/m*3 6.9 C 0 km/h
97 22-12-2019 08:00:00 6.9 C 7.31 g/m*3 6.9 C 1.6 km/h
98 22-12-2019 08:05:00 7 C 7.36 g/m*3 7 C 1.6 km/h
99 22-12-2019 08:10:00 7 C 7.36 g/m*3 7 C 0 km/h
100 22-12-2019 08:15:00 7.1 C 7.41 g/m*3 7.1 C 0 km/h
Sensor: Nr:Datum:Temp:Abs-Feuchte:Windchill:Wind:
Aussen-T/F 101 22-12-2019 08:20:00 7 C 7.36 g/m*3 7 C 0 km/h
102 22-12-2019 08:25:00 6.9 C 7.31 g/m*3 6.9 C 0 km/h
103 22-12-2019 08:30:00 6.8 C 7.19 g/m*3 6.8 C 0 km/h
104 22-12-2019 08:35:00 6.8 C 7.27 g/m*3 6.8 C 3.2 km/h
105 22-12-2019 08:40:00 6.9 C 7.31 g/m*3 6.9 C 1.6 km/h
106 22-12-2019 08:45:00 7.1 C 7.41 g/m*3 7.1 C 3.2 km/h
107 22-12-2019 08:50:00 7.1 C 7.41 g/m*3 7.1 C 0 km/h
108 22-12-2019 08:55:00 7.1 C 7.41 g/m*3 7.1 C 1.6 km/h
109 22-12-2019 09:00:00 7.1 C 7.41 g/m*3 7.1 C 3.2 km/h
110 22-12-2019 09:05:00 7 C 7.36 g/m*3 7 C 1.6 km/h
111 22-12-2019 09:10:00 7 C 7.36 g/m*3 7 C 0 km/h
112 22-12-2019 09:15:00 7.1 C 7.41 g/m*3 7.1 C 4.8 km/h
113 22-12-2019 09:20:00 7.2 C 7.46 g/m*3 7.2 C 3.2 km/h
114 22-12-2019 09:25:00 7.2 C 7.46 g/m*3 7.2 C 0 km/h
115 22-12-2019 09:30:00 7.2 C 7.46 g/m*3 7.2 C 0 km/h
116 22-12-2019 09:35:00 7.2 C 7.46 g/m*3 5.69 C 8.1 km/h
117 22-12-2019 09:40:00 7.5 C 7.6 g/m*3 7.5 C 1.6 km/h
118 22-12-2019 09:45:00 7.6 C 7.65 g/m*3 7.6 C 1.6 km/h
119 22-12-2019 09:50:00 7.7 C 7.7 g/m*3 7.7 C 3.2 km/h
120 22-12-2019 09:55:00 7.7 C 7.7 g/m*3 7.7 C 0 km/h
121 22-12-2019 10:00:00 7.8 C 7.75 g/m*3 7.8 C 0 km/h
122 22-12-2019 10:05:00 7.8 C 7.75 g/m*3 7.8 C 4.8 km/h
123 22-12-2019 10:10:00 7.9 C 7.8 g/m*3 7.9 C 1.6 km/h
124 22-12-2019 10:15:00 8.1 C 7.9 g/m*3 8.1 C 3.2 km/h
125 22-12-2019 10:20:00 8.2 C 7.96 g/m*3 8.2 C 4.8 km/h
Sensor: Nr:Datum:Temp:Abs-Feuchte:Windchill:Wind:
Aussen-T/F 126 22-12-2019 10:25:00 8.4 C 7.97 g/m*3 8.4 C 4.8 km/h
127 22-12-2019 10:30:00 8.7 C 8.04 g/m*3 8.7 C 4.8 km/h
128 22-12-2019 10:35:00 8.9 C 8.15 g/m*3 7.69 C 8.1 km/h
129 22-12-2019 10:40:00 9.1 C 8.07 g/m*3 9.1 C 3.2 km/h
130 22-12-2019 10:45:00 9.2 C 8.13 g/m*3 8.45 C 6.4 km/h
131 22-12-2019 10:50:00 9.3 C 8.09 g/m*3 8.56 C 6.4 km/h
132 22-12-2019 10:55:00 9.4 C 8.14 g/m*3 9.4 C 1.6 km/h
133 22-12-2019 11:00:00 9.5 C 8.1 g/m*3 8.09 C 9.7 km/h
134 22-12-2019 11:05:00 9.6 C 8.15 g/m*3 9.6 C 1.6 km/h
135 22-12-2019 11:10:00 9.7 C 8.11 g/m*3 9.7 C 1.6 km/h
136 22-12-2019 11:15:00 9.8 C 8.26 g/m*3 9.8 C 1.6 km/h
137 22-12-2019 11:20:00 9.9 C 8.12 g/m*3 8.56 C 9.7 km/h
138 22-12-2019 11:25:00 10.1 C 8.23 g/m*3 9.1 C 8.1 km/h
139 22-12-2019 11:30:00 10.2 C 8.18 g/m*3 8.43 C 12.9 km/h
140 22-12-2019 11:35:00 10.3 C 8.24 g/m*3 9.72 C 6.4 km/h
141 22-12-2019 11:40:00 10.4 C 8.29 g/m*3 9.16 C 9.7 km/h
142 22-12-2019 11:45:00 10.4 C 8.29 g/m*3 9.83 C 6.4 km/h
143 22-12-2019 11:50:00 10.4 C 8.29 g/m*3 10.4 C 4.8 km/h
144 22-12-2019 11:55:00 10.5 C 8.34 g/m*3 9.02 C 11.3 km/h
145 22-12-2019 12:00:00 10.5 C 8.34 g/m*3 9.57 C 8.1 km/h
146 22-12-2019 12:05:00 10.6 C 8.3 g/m*3 9.69 C 8.1 km/h
147 22-12-2019 12:10:00 10.6 C 8.39 g/m*3 10.6 C 3.2 km/h
148 22-12-2019 12:15:00 10.6 C 8.39 g/m*3 9.69 C 8.1 km/h
149 22-12-2019 12:20:00 10.7 C 8.45 g/m*3 10.18 C 6.4 km/h
150 22-12-2019 12:25:00 10.7 C 8.35 g/m*3 10.18 C 6.4 km/h
Sensor: Nr:Datum:Temp:Abs-Feuchte:Windchill:Wind:
Aussen-T/F 151 22-12-2019 12:30:00 10.7 C 8.35 g/m*3 9.81 C 8.1 km/h
152 22-12-2019 12:35:00 10.7 C 8.35 g/m*3 9.52 C 9.7 km/h
153 22-12-2019 12:40:00 10.8 C 8.5 g/m*3 9.93 C 8.1 km/h
154 22-12-2019 12:45:00 10.8 C 8.5 g/m*3 9.93 C 8.1 km/h
155 22-12-2019 12:50:00 10.9 C 8.55 g/m*3 9.76 C 9.7 km/h
156 22-12-2019 12:55:00 10.9 C 8.55 g/m*3 9.76 C 9.7 km/h
157 22-12-2019 13:00:00 11 C 8.51 g/m*3 9.4 C 12.9 km/h
158 22-12-2019 13:05:00 11.1 C 8.56 g/m*3 11.1 C 9.7 km/h
159 22-12-2019 13:10:00 11.1 C 8.46 g/m*3 11.1 C 11.3 km/h
160 22-12-2019 13:15:00 11 C 8.41 g/m*3 9.4 C 12.9 km/h
161 22-12-2019 13:20:00 10.9 C 8.36 g/m*3 8.73 C 17.7 km/h
162 22-12-2019 13:25:00 10.9 C 8.36 g/m*3 8.9 C 16.1 km/h
163 22-12-2019 13:30:00 10.9 C 8.36 g/m*3 9.08 C 14.5 km/h
164 22-12-2019 13:35:00 10.9 C 8.26 g/m*3 9.28 C 12.9 km/h
165 22-12-2019 13:40:00 10.9 C 8.26 g/m*3 8.9 C 16.1 km/h
166 22-12-2019 13:45:00 10.9 C 8.26 g/m*3 9.28 C 12.9 km/h
167 22-12-2019 13:50:00 10.9 C 8.26 g/m*3 8.9 C 16.1 km/h
168 22-12-2019 13:55:00 10.9 C 8.26 g/m*3 9.76 C 9.7 km/h
169 22-12-2019 14:00:00 11.1 C 8.36 g/m*3 11.1 C 11.3 km/h
170 22-12-2019 14:05:00 11.1 C 8.26 g/m*3 11.1 C 9.7 km/h
171 22-12-2019 14:10:00 11.1 C 8.26 g/m*3 11.1 C 19.3 km/h
172 22-12-2019 14:15:00 11.1 C 8.26 g/m*3 11.1 C 12.9 km/h
173 22-12-2019 14:20:00 11.1 C 8.26 g/m*3 11.1 C 8.1 km/h
174 22-12-2019 14:25:00 11.1 C 8.26 g/m*3 11.1 C 9.7 km/h
175 22-12-2019 14:30:00 11.1 C 8.16 g/m*3 11.1 C 14.5 km/h
Sensor: Nr:Datum:Temp:Abs-Feuchte:Windchill:Wind:
Aussen-T/F 176 22-12-2019 14:35:00 11.1 C 8.26 g/m*3 11.1 C 12.9 km/h
177 22-12-2019 14:40:00 11.1 C 8.26 g/m*3 11.1 C 12.9 km/h
178 22-12-2019 14:45:00 11 C 8.21 g/m*3 8.42 C 22.5 km/h
179 22-12-2019 14:50:00 11 C 8.21 g/m*3 9.88 C 9.7 km/h
180 22-12-2019 14:55:00 10.9 C 8.16 g/m*3 9.51 C 11.3 km/h
181 22-12-2019 15:00:00 10.9 C 8.16 g/m*3 9.08 C 14.5 km/h
182 22-12-2019 15:05:00 10.9 C 8.26 g/m*3 8.58 C 19.3 km/h
183 22-12-2019 15:10:00 10.8 C 8.3 g/m*3 8.45 C 19.3 km/h
184 22-12-2019 15:15:00 10.7 C 8.25 g/m*3 7.79 C 25.7 km/h
185 22-12-2019 15:20:00 10.6 C 8.2 g/m*3 7.66 C 25.7 km/h
186 22-12-2019 15:25:00 10.5 C 8.24 g/m*3 8.8 C 12.9 km/h
187 22-12-2019 15:30:00 10.4 C 8.19 g/m*3 8.28 C 16.1 km/h
188 22-12-2019 15:35:00 10.3 C 8.14 g/m*3 7.98 C 17.7 km/h
189 22-12-2019 15:40:00 10.2 C 8.09 g/m*3 7.02 C 27.4 km/h
190 22-12-2019 15:45:00 10.1 C 7.94 g/m*3 7.57 C 19.3 km/h
191 22-12-2019 15:50:00 10 C 7.89 g/m*3 8.42 C 11.3 km/h
192 22-12-2019 15:55:00 9.9 C 7.75 g/m*3 8.06 C 12.9 km/h
193 22-12-2019 16:00:00 9.8 C 7.7 g/m*3 7.54 C 16.1 km/h
194 22-12-2019 16:05:00 9.8 C 7.7 g/m*3 6.76 C 24.1 km/h
195 22-12-2019 16:10:00 9.7 C 7.65 g/m*3 7.41 C 16.1 km/h
196 22-12-2019 16:15:00 9.7 C 7.65 g/m*3 7.41 C 16.1 km/h
197 22-12-2019 16:20:00 9.6 C 7.6 g/m*3 6.79 C 20.9 km/h
198 22-12-2019 16:25:00 9.4 C 7.6 g/m*3 7.04 C 16.1 km/h
199 22-12-2019 16:30:00 9.3 C 7.55 g/m*3 7.33 C 12.9 km/h
200 22-12-2019 16:35:00 9.2 C 7.5 g/m*3 6.44 C 19.3 km/h
Sensor: Nr:Datum:Temp:Abs-Feuchte:Windchill:Wind:
Aussen-T/F 201 22-12-2019 16:40:00 9 C 7.49 g/m*3 6.75 C 14.5 km/h
202 22-12-2019 16:45:00 8.9 C 7.45 g/m*3 6.62 C 14.5 km/h
203 22-12-2019 16:50:00 8.9 C 7.53 g/m*3 8.9 C 4.8 km/h
204 22-12-2019 16:55:00 8.8 C 7.57 g/m*3 6.72 C 12.9 km/h
205 22-12-2019 17:00:00 8.7 C 7.61 g/m*3 6.85 C 11.3 km/h
206 22-12-2019 17:05:00 8.6 C 7.56 g/m*3 6.05 C 16.1 km/h
207 22-12-2019 17:10:00 8.4 C 7.55 g/m*3 5.43 C 19.3 km/h
208 22-12-2019 17:15:00 8.3 C 7.5 g/m*3 6.12 C 12.9 km/h
209 22-12-2019 17:20:00 8.2 C 7.54 g/m*3 6.25 C 11.3 km/h
210 22-12-2019 17:25:00 8.1 C 7.41 g/m*3 4.89 C 20.9 km/h
211 22-12-2019 17:30:00 8.1 C 7.41 g/m*3 5.05 C 19.3 km/h
212 22-12-2019 17:35:00 8 C 7.28 g/m*3 6.3 C 9.7 km/h
213 22-12-2019 17:40:00 7.9 C 7.23 g/m*3 4.98 C 17.7 km/h
214 22-12-2019 17:45:00 7.9 C 7.23 g/m*3 5.18 C 16.1 km/h
215 22-12-2019 17:50:00 7.9 C 7.23 g/m*3 5.39 C 14.5 km/h
216 22-12-2019 17:55:00 7.9 C 7.23 g/m*3 6.52 C 8.1 km/h
217 22-12-2019 18:00:00 7.9 C 7.23 g/m*3 5.89 C 11.3 km/h
218 22-12-2019 18:05:00 7.8 C 7.26 g/m*3 5.77 C 11.3 km/h
219 22-12-2019 18:10:00 7.8 C 7.26 g/m*3 6.83 C 6.4 km/h
220 22-12-2019 18:15:00 7.8 C 7.35 g/m*3 5.51 C 12.9 km/h
221 22-12-2019 18:20:00 7.8 C 7.35 g/m*3 6.06 C 9.7 km/h
222 22-12-2019 18:25:00 7.8 C 7.35 g/m*3 6.4 C 8.1 km/h
223 22-12-2019 18:30:00 7.8 C 7.35 g/m*3 5.77 C 11.3 km/h
224 22-12-2019 18:35:00 7.8 C 7.26 g/m*3 5.51 C 12.9 km/h
225 22-12-2019 18:40:00 7.8 C 7.26 g/m*3 5.77 C 11.3 km/h
Sensor: Nr:Datum:Temp:Abs-Feuchte:Windchill:Wind:
Aussen-T/F 226 22-12-2019 18:45:00 7.8 C 7.26 g/m*3 4.86 C 17.7 km/h
227 22-12-2019 18:50:00 7.9 C 7.31 g/m*3 5.89 C 11.3 km/h
228 22-12-2019 18:55:00 7.9 C 7.31 g/m*3 5.63 C 12.9 km/h
229 22-12-2019 19:00:00 7.9 C 7.39 g/m*3 6.52 C 8.1 km/h
230 22-12-2019 19:05:00 7.9 C 7.39 g/m*3 5.39 C 14.5 km/h
231 22-12-2019 19:10:00 7.8 C 7.35 g/m*3 6.06 C 9.7 km/h
232 22-12-2019 19:15:00 7.8 C 7.43 g/m*3 6.06 C 9.7 km/h
233 22-12-2019 19:20:00 7.8 C 7.43 g/m*3 6.4 C 8.1 km/h
234 22-12-2019 19:25:00 7.8 C 7.43 g/m*3 6.06 C 9.7 km/h
235 22-12-2019 19:30:00 7.8 C 7.43 g/m*3 6.06 C 9.7 km/h
236 22-12-2019 19:35:00 7.8 C 7.43 g/m*3 6.4 C 8.1 km/h
237 22-12-2019 19:40:00 7.8 C 7.43 g/m*3 5.51 C 12.9 km/h
238 22-12-2019 19:45:00 7.9 C 7.39 g/m*3 4.8 C 19.3 km/h
239 22-12-2019 19:50:00 8.1 C 7.41 g/m*3 5.64 C 14.5 km/h
240 22-12-2019 19:55:00 8.2 C 7.37 g/m*3 5.99 C 12.9 km/h
241 22-12-2019 20:00:00 8.2 C 7.29 g/m*3 5.55 C 16.1 km/h
242 22-12-2019 20:05:00 8.3 C 7.33 g/m*3 6.66 C 9.7 km/h
243 22-12-2019 20:10:00 8.3 C 7.25 g/m*3 6.37 C 11.3 km/h
244 22-12-2019 20:15:00 8.4 C 7.21 g/m*3 5.43 C 19.3 km/h
245 22-12-2019 20:20:00 8.4 C 7.13 g/m*3 5.43 C 19.3 km/h
246 22-12-2019 20:25:00 8.5 C 7.09 g/m*3 5.56 C 19.3 km/h
247 22-12-2019 20:30:00 8.6 C 7.13 g/m*3 6.48 C 12.9 km/h
248 22-12-2019 20:35:00 8.5 C 7.17 g/m*3 6.13 C 14.5 km/h
249 22-12-2019 20:40:00 8.4 C 7.13 g/m*3 6.49 C 11.3 km/h
250 22-12-2019 20:45:00 8.4 C 7.13 g/m*3 6.49 C 11.3 km/h
Sensor: Nr:Datum:Temp:Abs-Feuchte:Windchill:Wind:
Aussen-T/F 251 22-12-2019 20:50:00 8.4 C 7.13 g/m*3 7.11 C 8.1 km/h
252 22-12-2019 20:55:00 8.4 C 7.13 g/m*3 6.49 C 11.3 km/h
253 22-12-2019 21:00:00 8.3 C 7.08 g/m*3 5.48 C 17.7 km/h
254 22-12-2019 21:05:00 8.4 C 7.13 g/m*3 6.24 C 12.9 km/h
255 22-12-2019 21:10:00 8.4 C 7.13 g/m*3 6.01 C 14.5 km/h
256 22-12-2019 21:15:00 8.4 C 7.13 g/m*3 6.78 C 9.7 km/h
257 22-12-2019 21:20:00 8.4 C 7.21 g/m*3 6.49 C 11.3 km/h
258 22-12-2019 21:25:00 8.3 C 7.16 g/m*3 6.37 C 11.3 km/h
259 22-12-2019 21:30:00 8.3 C 7.16 g/m*3 6.12 C 12.9 km/h
260 22-12-2019 21:35:00 8.4 C 7.21 g/m*3 6.49 C 11.3 km/h
261 22-12-2019 21:40:00 8.3 C 7.16 g/m*3 6.66 C 9.7 km/h
262 22-12-2019 21:45:00 8.3 C 7.16 g/m*3 6.12 C 12.9 km/h
263 22-12-2019 21:50:00 8.3 C 7.16 g/m*3 6.66 C 9.7 km/h
264 22-12-2019 21:55:00 8.3 C 7.16 g/m*3 6.66 C 9.7 km/h
265 22-12-2019 22:00:00 8.3 C 7.16 g/m*3 6.66 C 9.7 km/h
266 22-12-2019 22:05:00 8.2 C 7.12 g/m*3 5.99 C 12.9 km/h
267 22-12-2019 22:10:00 8.2 C 7.12 g/m*3 6.25 C 11.3 km/h
268 22-12-2019 22:15:00 8.2 C 7.2 g/m*3 6.25 C 11.3 km/h
269 22-12-2019 22:20:00 8.1 C 7.16 g/m*3 7.17 C 6.4 km/h
270 22-12-2019 22:25:00 7.9 C 7.06 g/m*3 6.52 C 8.1 km/h
271 22-12-2019 22:30:00 7.8 C 7.02 g/m*3 7.8 C 4.8 km/h
272 22-12-2019 22:35:00 7.7 C 7.05 g/m*3 7.7 C 4.8 km/h
273 22-12-2019 22:40:00 7.6 C 7.01 g/m*3 7.6 C 4.8 km/h
274 22-12-2019 22:45:00 7.5 C 6.96 g/m*3 5.7 C 9.7 km/h
275 22-12-2019 22:50:00 7.4 C 7 g/m*3 7.4 C 4.8 km/h
Sensor: Nr:Datum:Temp:Abs-Feuchte:Windchill:Wind:
Aussen-T/F 276 22-12-2019 22:55:00 7.3 C 6.95 g/m*3 7.3 C 1.6 km/h
277 22-12-2019 23:00:00 7.2 C 6.91 g/m*3 7.2 C 1.6 km/h
278 22-12-2019 23:05:00 7.1 C 6.94 g/m*3 7.1 C 3.2 km/h
279 22-12-2019 23:10:00 7.1 C 6.94 g/m*3 7.1 C 4.8 km/h
280 22-12-2019 23:15:00 7 C 6.97 g/m*3 7 C 1.6 km/h
281 22-12-2019 23:20:00 7 C 6.97 g/m*3 7 C 1.6 km/h
282 22-12-2019 23:25:00 7 C 6.97 g/m*3 7 C 0 km/h
283 22-12-2019 23:30:00 7 C 6.97 g/m*3 7 C 0 km/h
284 22-12-2019 23:35:00 7.1 C 7.1 g/m*3 7.1 C 0 km/h
285 22-12-2019 23:40:00 7.1 C 7.1 g/m*3 7.1 C 1.6 km/h
286 22-12-2019 23:45:00 7.1 C 7.1 g/m*3 7.1 C 1.6 km/h
287 22-12-2019 23:50:00 7.2 C 7.14 g/m*3 7.2 C 0 km/h
288 22-12-2019 23:55:00 7.2 C 7.14 g/m*3 7.2 C 0 km/h
289 23-12-2019 00:00:00 7.2 C 7.14 g/m*3 7.2 C 0 km/h
290 23-12-2019 00:05:00 7.2 C 7.14 g/m*3 7.2 C 0 km/h
291 23-12-2019 00:10:00 7.2 C 7.14 g/m*3 7.2 C 1.6 km/h
292 23-12-2019 00:15:00 7.2 C 7.14 g/m*3 7.2 C 3.2 km/h
293 23-12-2019 00:20:00 7.1 C 7.1 g/m*3 7.1 C 3.2 km/h
294 23-12-2019 00:25:00 7.1 C 7.1 g/m*3 7.1 C 0 km/h
295 23-12-2019 00:30:00 7.1 C 7.1 g/m*3 7.1 C 0 km/h
296 23-12-2019 00:35:00 7 C 7.05 g/m*3 7 C 0 km/h
297 23-12-2019 00:40:00 7.1 C 7.1 g/m*3 7.1 C 3.2 km/h
298 23-12-2019 00:45:00 7.1 C 7.1 g/m*3 6.02 C 6.4 km/h
299 23-12-2019 00:50:00 7.2 C 7.14 g/m*3 7.2 C 4.8 km/h
300 23-12-2019 00:55:00 7.2 C 7.14 g/m*3 7.2 C 4.8 km/h
Sensor: Nr:Datum:Temp:Abs-Feuchte:Windchill:Wind:
Aussen-T/F 301 23-12-2019 01:00:00 7.2 C 7.06 g/m*3 7.2 C 4.8 km/h
302 23-12-2019 01:05:00 7.2 C 7.06 g/m*3 7.2 C 3.2 km/h
303 23-12-2019 01:10:00 7.2 C 7.06 g/m*3 7.2 C 3.2 km/h
304 23-12-2019 01:15:00 7.2 C 7.06 g/m*3 6.13 C 6.4 km/h
305 23-12-2019 01:20:00 7.2 C 7.06 g/m*3 7.2 C 4.8 km/h
306 23-12-2019 01:25:00 7.2 C 7.06 g/m*3 7.2 C 3.2 km/h
307 23-12-2019 01:30:00 7.3 C 7.11 g/m*3 7.3 C 3.2 km/h
308 23-12-2019 01:35:00 7.3 C 7.11 g/m*3 7.3 C 4.8 km/h
309 23-12-2019 01:40:00 7.4 C 7.16 g/m*3 5.58 C 9.7 km/h
310 23-12-2019 01:45:00 7.5 C 7.12 g/m*3 5.7 C 9.7 km/h
311 23-12-2019 01:50:00 7.6 C 7.17 g/m*3 5.53 C 11.3 km/h
312 23-12-2019 01:55:00 7.6 C 7.17 g/m*3 6.16 C 8.1 km/h
313 23-12-2019 02:00:00 7.6 C 7.09 g/m*3 6.16 C 8.1 km/h
314 23-12-2019 02:05:00 7.6 C 7.09 g/m*3 7.6 C 3.2 km/h
315 23-12-2019 02:10:00 7.4 C 7 g/m*3 6.37 C 6.4 km/h
316 23-12-2019 02:15:00 7.3 C 6.95 g/m*3 7.3 C 3.2 km/h
317 23-12-2019 02:20:00 7.2 C 6.99 g/m*3 5.69 C 8.1 km/h
318 23-12-2019 02:25:00 7.2 C 6.99 g/m*3 5.69 C 8.1 km/h
319 23-12-2019 02:30:00 7.2 C 6.99 g/m*3 5.69 C 8.1 km/h
320 23-12-2019 02:35:00 7.2 C 6.99 g/m*3 6.13 C 6.4 km/h
321 23-12-2019 02:40:00 7.2 C 7.06 g/m*3 4.77 C 12.9 km/h
322 23-12-2019 02:45:00 7.4 C 7.16 g/m*3 4.78 C 14.5 km/h
323 23-12-2019 02:50:00 7.5 C 7.2 g/m*3 6.05 C 8.1 km/h
324 23-12-2019 02:55:00 7.5 C 7.12 g/m*3 6.48 C 6.4 km/h
325 23-12-2019 03:00:00 7.4 C 7.08 g/m*3 7.4 C 4.8 km/h
Sensor: Nr:Datum:Temp:Abs-Feuchte:Windchill:Wind:
Aussen-T/F 326 23-12-2019 03:05:00 7.3 C 7.11 g/m*3 5.81 C 8.1 km/h
327 23-12-2019 03:10:00 7.2 C 7.06 g/m*3 6.13 C 6.4 km/h
328 23-12-2019 03:15:00 7.1 C 7.02 g/m*3 5.58 C 8.1 km/h
329 23-12-2019 03:20:00 7 C 6.97 g/m*3 4.53 C 12.9 km/h
330 23-12-2019 03:25:00 7 C 6.97 g/m*3 5.46 C 8.1 km/h
331 23-12-2019 03:30:00 7 C 6.97 g/m*3 5.11 C 9.7 km/h
332 23-12-2019 03:35:00 7.1 C 7.02 g/m*3 4.65 C 12.9 km/h
333 23-12-2019 03:40:00 7.1 C 7.02 g/m*3 4.92 C 11.3 km/h
334 23-12-2019 03:45:00 7.2 C 7.06 g/m*3 6.13 C 6.4 km/h
335 23-12-2019 03:50:00 7.2 C 7.06 g/m*3 7.2 C 4.8 km/h
336 23-12-2019 03:55:00 7.2 C 7.06 g/m*3 7.2 C 4.8 km/h
337 23-12-2019 04:00:00 7.2 C 7.06 g/m*3 5.35 C 9.7 km/h
338 23-12-2019 04:05:00 7.2 C 7.06 g/m*3 7.2 C 4.8 km/h
339 23-12-2019 04:10:00 7.3 C 7.11 g/m*3 5.47 C 9.7 km/h
340 23-12-2019 04:15:00 7.3 C 7.11 g/m*3 7.3 C 4.8 km/h
341 23-12-2019 04:20:00 7.3 C 7.11 g/m*3 7.3 C 1.6 km/h
342 23-12-2019 04:25:00 7.4 C 7.24 g/m*3 5.93 C 8.1 km/h
343 23-12-2019 04:30:00 7.4 C 7.16 g/m*3 6.37 C 6.4 km/h
344 23-12-2019 04:35:00 7.3 C 7.11 g/m*3 6.25 C 6.4 km/h
345 23-12-2019 04:40:00 7.3 C 7.11 g/m*3 7.3 C 1.6 km/h
346 23-12-2019 04:45:00 7.2 C 7.06 g/m*3 7.2 C 4.8 km/h
347 23-12-2019 04:50:00 7.1 C 7.02 g/m*3 7.1 C 1.6 km/h
348 23-12-2019 04:55:00 7.1 C 7.1 g/m*3 7.1 C 4.8 km/h
349 23-12-2019 05:00:00 7 C 7.05 g/m*3 7 C 4.8 km/h
350 23-12-2019 05:05:00 7 C 7.05 g/m*3 7 C 4.8 km/h
Sensor: Nr:Datum:Temp:Abs-Feuchte:Windchill:Wind:
Aussen-T/F 351 23-12-2019 05:10:00 7.1 C 7.18 g/m*3 5.58 C 8.1 km/h
352 23-12-2019 05:15:00 7.2 C 7.22 g/m*3 7.2 C 4.8 km/h
353 23-12-2019 05:20:00 7.3 C 7.27 g/m*3 5.81 C 8.1 km/h
354 23-12-2019 05:25:00 7.3 C 7.27 g/m*3 5.81 C 8.1 km/h
355 23-12-2019 05:30:00 7.4 C 7.24 g/m*3 5.28 C 11.3 km/h
356 23-12-2019 05:35:00 7.4 C 7.24 g/m*3 6.37 C 6.4 km/h
357 23-12-2019 05:40:00 7.4 C 7.24 g/m*3 7.4 C 4.8 km/h
358 23-12-2019 05:45:00 7.3 C 7.19 g/m*3 7.3 C 4.8 km/h
359 23-12-2019 05:50:00 7.2 C 7.14 g/m*3 7.2 C 3.2 km/h
360 23-12-2019 05:55:00 7.2 C 7.14 g/m*3 7.2 C 3.2 km/h
361 23-12-2019 06:00:00 7.1 C 7.1 g/m*3 7.1 C 1.6 km/h
362 23-12-2019 06:05:00 7 C 7.05 g/m*3 7 C 1.6 km/h
363 23-12-2019 06:10:00 7 C 7.13 g/m*3 7 C 3.2 km/h
364 23-12-2019 06:15:00 7 C 7.13 g/m*3 7 C 3.2 km/h
365 23-12-2019 06:20:00 7.1 C 7.18 g/m*3 5.58 C 8.1 km/h
366 23-12-2019 06:25:00 7.2 C 7.22 g/m*3 7.2 C 4.8 km/h
367 23-12-2019 06:30:00 7.2 C 7.22 g/m*3 6.13 C 6.4 km/h
368 23-12-2019 06:35:00 7.3 C 7.27 g/m*3 5.81 C 8.1 km/h
369 23-12-2019 06:40:00 7.4 C 7.32 g/m*3 7.4 C 4.8 km/h
370 23-12-2019 06:45:00 7.4 C 7.32 g/m*3 5.93 C 8.1 km/h
371 23-12-2019 06:50:00 7.4 C 7.24 g/m*3 6.37 C 6.4 km/h
372 23-12-2019 06:55:00 7.5 C 7.36 g/m*3 6.48 C 6.4 km/h
373 23-12-2019 07:00:00 7.5 C 7.36 g/m*3 6.48 C 6.4 km/h
374 23-12-2019 07:05:00 7.5 C 7.36 g/m*3 7.5 C 4.8 km/h
375 23-12-2019 07:10:00 7.5 C 7.36 g/m*3 7.5 C 3.2 km/h
Sensor: Nr:Datum:Temp:Abs-Feuchte:Windchill:Wind:
Aussen-T/F 376 23-12-2019 07:15:00 7.5 C 7.36 g/m*3 7.5 C 3.2 km/h
377 23-12-2019 07:20:00 7.5 C 7.36 g/m*3 6.48 C 6.4 km/h
378 23-12-2019 07:25:00 7.5 C 7.36 g/m*3 5.7 C 9.7 km/h
379 23-12-2019 07:30:00 7.5 C 7.36 g/m*3 7.5 C 3.2 km/h
380 23-12-2019 07:35:00 7.6 C 7.41 g/m*3 6.16 C 8.1 km/h
381 23-12-2019 07:40:00 7.6 C 7.33 g/m*3 6.16 C 8.1 km/h
382 23-12-2019 07:45:00 7.7 C 7.38 g/m*3 6.28 C 8.1 km/h
383 23-12-2019 07:50:00 7.7 C 7.38 g/m*3 7.7 C 4.8 km/h
384 23-12-2019 07:55:00 7.7 C 7.3 g/m*3 5.94 C 9.7 km/h
385 23-12-2019 08:00:00 7.8 C 7.35 g/m*3 6.83 C 6.4 km/h
386 23-12-2019 08:05:00 7.8 C 7.35 g/m*3 6.06 C 9.7 km/h
387 23-12-2019 08:10:00 7.8 C 7.35 g/m*3 6.4 C 8.1 km/h
388 23-12-2019 08:15:00 7.8 C 7.35 g/m*3 6.83 C 6.4 km/h
389 23-12-2019 08:20:00 7.8 C 7.35 g/m*3 5.77 C 11.3 km/h
390 23-12-2019 08:25:00 7.9 C 7.39 g/m*3 6.94 C 6.4 km/h
391 23-12-2019 08:30:00 7.9 C 7.39 g/m*3 7.9 C 4.8 km/h
392 23-12-2019 08:35:00 7.9 C 7.39 g/m*3 7.9 C 4.8 km/h
393 23-12-2019 08:40:00 7.9 C 7.31 g/m*3 6.94 C 6.4 km/h
394 23-12-2019 08:45:00 7.9 C 7.31 g/m*3 6.94 C 6.4 km/h
395 23-12-2019 08:50:00 7.9 C 7.31 g/m*3 6.18 C 9.7 km/h
396 23-12-2019 08:55:00 7.9 C 7.31 g/m*3 5.39 C 14.5 km/h
397 23-12-2019 09:00:00 7.9 C 7.31 g/m*3 6.94 C 6.4 km/h
398 23-12-2019 09:05:00 8 C 7.36 g/m*3 7.06 C 6.4 km/h
399 23-12-2019 09:10:00 8.1 C 7.41 g/m*3 6.42 C 9.7 km/h
400 23-12-2019 09:15:00 8.1 C 7.32 g/m*3 6.13 C 11.3 km/h
Sensor: Nr:Datum:Temp:Abs-Feuchte:Windchill:Wind:
Aussen-T/F 401 23-12-2019 09:20:00 8.2 C 7.37 g/m*3 5.99 C 12.9 km/h
402 23-12-2019 09:25:00 8.2 C 7.37 g/m*3 6.25 C 11.3 km/h
403 23-12-2019 09:30:00 8.2 C 7.37 g/m*3 5.76 C 14.5 km/h
404 23-12-2019 09:35:00 8.2 C 7.37 g/m*3 5.99 C 12.9 km/h
405 23-12-2019 09:40:00 8.2 C 7.37 g/m*3 6.25 C 11.3 km/h
406 23-12-2019 09:45:00 8.2 C 7.37 g/m*3 6.25 C 11.3 km/h
407 23-12-2019 09:50:00 8.3 C 7.42 g/m*3 6.37 C 11.3 km/h
408 23-12-2019 09:55:00 8.3 C 7.42 g/m*3 6.99 C 8.1 km/h
409 23-12-2019 10:00:00 8.3 C 7.42 g/m*3 6.99 C 8.1 km/h
410 23-12-2019 10:05:00 8.2 C 7.45 g/m*3 6.54 C 9.7 km/h
411 23-12-2019 10:10:00 8.1 C 7.49 g/m*3 5.87 C 12.9 km/h
412 23-12-2019 10:15:00 8.1 C 7.57 g/m*3 8.1 C 3.2 km/h
413 23-12-2019 10:20:00 8 C 7.52 g/m*3 8 C 4.8 km/h
414 23-12-2019 10:25:00 7.9 C 7.56 g/m*3 7.9 C 4.8 km/h
415 23-12-2019 10:30:00 7.8 C 7.51 g/m*3 6.83 C 6.4 km/h
416 23-12-2019 10:35:00 7.7 C 7.46 g/m*3 7.7 C 4.8 km/h
417 23-12-2019 10:40:00 7.6 C 7.41 g/m*3 6.16 C 8.1 km/h
418 23-12-2019 10:45:00 7.6 C 7.41 g/m*3 6.6 C 6.4 km/h
419 23-12-2019 10:50:00 7.7 C 7.46 g/m*3 6.28 C 8.1 km/h
420 23-12-2019 10:55:00 7.7 C 7.46 g/m*3 5.38 C 12.9 km/h
421 23-12-2019 11:00:00 7.9 C 7.56 g/m*3 6.94 C 6.4 km/h
422 23-12-2019 11:05:00 8 C 7.61 g/m*3 7.06 C 6.4 km/h
423 23-12-2019 11:10:00 8.1 C 7.57 g/m*3 7.17 C 6.4 km/h
424 23-12-2019 11:15:00 8.2 C 7.62 g/m*3 6.87 C 8.1 km/h
425 23-12-2019 11:20:00 8.3 C 7.59 g/m*3 6.37 C 11.3 km/h
Sensor: Nr:Datum:Temp:Abs-Feuchte:Windchill:Wind:
Aussen-T/F 426 23-12-2019 11:25:00 8.4 C 7.55 g/m*3 7.11 C 8.1 km/h
427 23-12-2019 11:30:00 8.5 C 7.51 g/m*3 6.9 C 9.7 km/h
428 23-12-2019 11:35:00 8.6 C 7.56 g/m*3 8.6 C 4.8 km/h
429 23-12-2019 11:40:00 8.7 C 7.61 g/m*3 7.13 C 9.7 km/h
430 23-12-2019 11:45:00 8.7 C 7.52 g/m*3 6.6 C 12.9 km/h
431 23-12-2019 11:50:00 8.8 C 7.57 g/m*3 7.25 C 9.7 km/h
432 23-12-2019 11:55:00 8.9 C 7.53 g/m*3 7.37 C 9.7 km/h
433 23-12-2019 12:00:00 9.1 C 7.54 g/m*3 7.61 C 9.7 km/h
434 23-12-2019 12:05:00 9.2 C 7.59 g/m*3 7.73 C 9.7 km/h
435 23-12-2019 12:10:00 9.2 C 7.59 g/m*3 7.21 C 12.9 km/h
436 23-12-2019 12:15:00 9.3 C 7.64 g/m*3 8.16 C 8.1 km/h
437 23-12-2019 12:20:00 9.3 C 7.55 g/m*3 7.85 C 9.7 km/h
438 23-12-2019 12:25:00 9.3 C 7.55 g/m*3 8.16 C 8.1 km/h
439 23-12-2019 12:30:00 9.3 C 7.55 g/m*3 7.85 C 9.7 km/h
440 23-12-2019 12:35:00 9.3 C 7.55 g/m*3 7.85 C 9.7 km/h
441 23-12-2019 12:40:00 9.3 C 7.64 g/m*3 9.3 C 4.8 km/h
442 23-12-2019 12:45:00 9.4 C 7.6 g/m*3 8.28 C 8.1 km/h
443 23-12-2019 12:50:00 9.4 C 7.69 g/m*3 8.68 C 6.4 km/h
444 23-12-2019 12:55:00 9.3 C 7.73 g/m*3 8.56 C 6.4 km/h
445 23-12-2019 13:00:00 9.3 C 7.73 g/m*3 8.56 C 6.4 km/h
446 23-12-2019 13:05:00 9.2 C 7.68 g/m*3 8.45 C 6.4 km/h
447 23-12-2019 13:10:00 9.2 C 7.68 g/m*3 7.73 C 9.7 km/h
448 23-12-2019 13:15:00 9.2 C 7.68 g/m*3 8.05 C 8.1 km/h
449 23-12-2019 13:20:00 9.2 C 7.77 g/m*3 8.05 C 8.1 km/h
450 23-12-2019 13:25:00 9.1 C 7.72 g/m*3 7.93 C 8.1 km/h
Sensor: Nr:Datum:Temp:Abs-Feuchte:Windchill:Wind:
Aussen-T/F 451 23-12-2019 13:30:00 9.1 C 7.81 g/m*3 8.33 C 6.4 km/h
452 23-12-2019 13:35:00 9 C 7.76 g/m*3 8.21 C 6.4 km/h
453 23-12-2019 13:40:00 9 C 7.76 g/m*3 8.21 C 6.4 km/h
454 23-12-2019 13:45:00 9 C 7.76 g/m*3 8.21 C 6.4 km/h
455 23-12-2019 13:50:00 9.1 C 7.9 g/m*3 8.33 C 6.4 km/h
456 23-12-2019 13:55:00 9.1 C 7.9 g/m*3 8.33 C 6.4 km/h
457 23-12-2019 14:00:00 9.2 C 7.86 g/m*3 7.73 C 9.7 km/h
458 23-12-2019 14:05:00 9.2 C 7.77 g/m*3 8.45 C 6.4 km/h
459 23-12-2019 14:10:00 9.2 C 7.68 g/m*3 8.05 C 8.1 km/h
460 23-12-2019 14:15:00 9.3 C 7.73 g/m*3 8.56 C 6.4 km/h
461 23-12-2019 14:20:00 9.3 C 7.73 g/m*3 8.56 C 6.4 km/h
462 23-12-2019 14:25:00 9.4 C 7.69 g/m*3 7.7 C 11.3 km/h
463 23-12-2019 14:30:00 9.4 C 7.6 g/m*3 7.46 C 12.9 km/h
464 23-12-2019 14:35:00 9.4 C 7.6 g/m*3 8.28 C 8.1 km/h
465 23-12-2019 14:40:00 9.4 C 7.6 g/m*3 7.7 C 11.3 km/h
466 23-12-2019 14:45:00 9.4 C 7.6 g/m*3 7.7 C 11.3 km/h
467 23-12-2019 14:50:00 9.4 C 7.6 g/m*3 7.46 C 12.9 km/h
468 23-12-2019 14:55:00 9.4 C 7.6 g/m*3 8.28 C 8.1 km/h
469 23-12-2019 15:00:00 9.4 C 7.69 g/m*3 9.4 C 4.8 km/h
470 23-12-2019 15:05:00 9.3 C 7.64 g/m*3 7.58 C 11.3 km/h
471 23-12-2019 15:10:00 9.3 C 7.64 g/m*3 6.92 C 16.1 km/h
472 23-12-2019 15:15:00 9.3 C 7.64 g/m*3 6.92 C 16.1 km/h
473 23-12-2019 15:20:00 9.3 C 7.55 g/m*3 7.33 C 12.9 km/h
474 23-12-2019 15:25:00 9.3 C 7.55 g/m*3 8.16 C 8.1 km/h
475 23-12-2019 15:30:00 9.3 C 7.55 g/m*3 8.56 C 6.4 km/h
Sensor: Nr:Datum:Temp:Abs-Feuchte:Windchill:Wind:
Aussen-T/F 476 23-12-2019 15:35:00 9.3 C 7.55 g/m*3 8.16 C 8.1 km/h
477 23-12-2019 15:40:00 9.3 C 7.55 g/m*3 7.85 C 9.7 km/h
478 23-12-2019 15:45:00 9.3 C 7.55 g/m*3 7.58 C 11.3 km/h
479 23-12-2019 15:50:00 9.3 C 7.55 g/m*3 7.85 C 9.7 km/h
480 23-12-2019 15:55:00 9.3 C 7.55 g/m*3 7.85 C 9.7 km/h
481 23-12-2019 16:00:00 9.2 C 7.5 g/m*3 7.73 C 9.7 km/h
482 23-12-2019 16:05:00 9.2 C 7.59 g/m*3 7.73 C 9.7 km/h
483 23-12-2019 16:10:00 9.2 C 7.5 g/m*3 7.46 C 11.3 km/h
484 23-12-2019 16:15:00 9.1 C 7.54 g/m*3 7.93 C 8.1 km/h
485 23-12-2019 16:20:00 9.1 C 7.54 g/m*3 7.61 C 9.7 km/h
486 23-12-2019 16:25:00 9 C 7.49 g/m*3 7.81 C 8.1 km/h
487 23-12-2019 16:30:00 8.9 C 7.36 g/m*3 8.1 C 6.4 km/h
488 23-12-2019 16:35:00 8.9 C 7.36 g/m*3 6.85 C 12.9 km/h
489 23-12-2019 16:40:00 8.9 C 7.36 g/m*3 7.37 C 9.7 km/h
490 23-12-2019 16:45:00 8.8 C 7.31 g/m*3 7.98 C 6.4 km/h
491 23-12-2019 16:50:00 8.8 C 7.31 g/m*3 6.5 C 14.5 km/h
492 23-12-2019 16:55:00 8.8 C 7.31 g/m*3 6.72 C 12.9 km/h
493 23-12-2019 17:00:00 8.7 C 7.26 g/m*3 7.87 C 6.4 km/h
494 23-12-2019 17:05:00 8.7 C 7.26 g/m*3 7.13 C 9.7 km/h
495 23-12-2019 17:10:00 8.7 C 7.26 g/m*3 7.13 C 9.7 km/h
496 23-12-2019 17:15:00 8.7 C 7.18 g/m*3 7.87 C 6.4 km/h
497 23-12-2019 17:20:00 8.6 C 7.22 g/m*3 7.75 C 6.4 km/h
498 23-12-2019 17:25:00 8.6 C 7.22 g/m*3 7.01 C 9.7 km/h
499 23-12-2019 17:30:00 8.5 C 7.17 g/m*3 7.22 C 8.1 km/h
500 23-12-2019 17:35:00 8.4 C 7.13 g/m*3 8.4 C 4.8 km/h
Sensor: Nr:Datum:Temp:Abs-Feuchte:Windchill:Wind:
Aussen-T/F 501 23-12-2019 17:40:00 8.3 C 7.08 g/m*3 7.41 C 6.4 km/h
502 23-12-2019 17:45:00 8.3 C 7.08 g/m*3 7.41 C 6.4 km/h
503 23-12-2019 17:50:00 8.2 C 7.03 g/m*3 6.25 C 11.3 km/h
504 23-12-2019 17:55:00 8.2 C 7.12 g/m*3 7.29 C 6.4 km/h
505 23-12-2019 18:00:00 8.2 C 7.12 g/m*3 8.2 C 4.8 km/h
506 23-12-2019 18:05:00 8.2 C 7.03 g/m*3 6.87 C 8.1 km/h
507 23-12-2019 18:10:00 8.2 C 7.03 g/m*3 6.87 C 8.1 km/h
508 23-12-2019 18:15:00 8.2 C 7.03 g/m*3 6.87 C 8.1 km/h
509 23-12-2019 18:20:00 8.2 C 7.03 g/m*3 6.87 C 8.1 km/h
510 23-12-2019 18:25:00 8.2 C 7.03 g/m*3 6.87 C 8.1 km/h
511 23-12-2019 18:30:00 8.2 C 7.03 g/m*3 6.87 C 8.1 km/h
512 23-12-2019 18:35:00 8.2 C 7.03 g/m*3 6.87 C 8.1 km/h
513 23-12-2019 18:40:00 8.2 C 7.12 g/m*3 6.54 C 9.7 km/h
514 23-12-2019 18:45:00 8.2 C 7.12 g/m*3 8.2 C 3.2 km/h
515 23-12-2019 18:50:00 8.1 C 7.16 g/m*3 8.1 C 3.2 km/h
516 23-12-2019 18:55:00 8.1 C 7.16 g/m*3 7.17 C 6.4 km/h
517 23-12-2019 19:00:00 8.1 C 7.24 g/m*3 8.1 C 4.8 km/h
518 23-12-2019 19:05:00 8 C 7.19 g/m*3 8 C 3.2 km/h
519 23-12-2019 19:10:00 7.9 C 7.15 g/m*3 6.94 C 6.4 km/h
520 23-12-2019 19:15:00 7.7 C 7.05 g/m*3 7.7 C 3.2 km/h
521 23-12-2019 19:20:00 7.5 C 6.96 g/m*3 6.48 C 6.4 km/h
522 23-12-2019 19:25:00 7.3 C 6.95 g/m*3 7.3 C 3.2 km/h
523 23-12-2019 19:30:00 7.3 C 6.95 g/m*3 5.47 C 9.7 km/h
524 23-12-2019 19:35:00 7.4 C 7 g/m*3 5.28 C 11.3 km/h
525 23-12-2019 19:40:00 7.5 C 6.96 g/m*3 6.48 C 6.4 km/h
Sensor: Nr:Datum:Temp:Abs-Feuchte:Windchill:Wind:
Aussen-T/F 526 23-12-2019 19:45:00 7.5 C 6.96 g/m*3 7.5 C 3.2 km/h
527 23-12-2019 19:50:00 7.4 C 7 g/m*3 5.58 C 9.7 km/h
528 23-12-2019 19:55:00 7.3 C 6.95 g/m*3 7.3 C 3.2 km/h
529 23-12-2019 20:00:00 7.3 C 7.03 g/m*3 6.25 C 6.4 km/h
530 23-12-2019 20:05:00 7.3 C 7.03 g/m*3 7.3 C 3.2 km/h
531 23-12-2019 20:10:00 7.2 C 6.99 g/m*3 7.2 C 0 km/h
532 23-12-2019 20:15:00 7.2 C 6.99 g/m*3 7.2 C 1.6 km/h
533 23-12-2019 20:20:00 7.2 C 7.06 g/m*3 7.2 C 4.8 km/h
534 23-12-2019 20:25:00 7.2 C 7.06 g/m*3 7.2 C 3.2 km/h
535 23-12-2019 20:30:00 7.2 C 7.06 g/m*3 7.2 C 3.2 km/h
536 23-12-2019 20:35:00 7.2 C 7.06 g/m*3 7.2 C 1.6 km/h
537 23-12-2019 20:40:00 7.2 C 7.06 g/m*3 7.2 C 1.6 km/h
538 23-12-2019 20:45:00 7.2 C 7.06 g/m*3 7.2 C 0 km/h
539 23-12-2019 20:50:00 7.2 C 7.06 g/m*3 7.2 C 4.8 km/h
540 23-12-2019 20:55:00 7.2 C 7.06 g/m*3 7.2 C 4.8 km/h
541 23-12-2019 21:00:00 7.2 C 7.06 g/m*3 7.2 C 1.6 km/h
542 23-12-2019 21:05:00 7.2 C 7.14 g/m*3 7.2 C 4.8 km/h
543 23-12-2019 21:10:00 7.3 C 7.11 g/m*3 7.3 C 4.8 km/h
544 23-12-2019 21:15:00 7.3 C 7.11 g/m*3 5.81 C 8.1 km/h
545 23-12-2019 21:20:00 7.4 C 7.16 g/m*3 6.37 C 6.4 km/h
546 23-12-2019 21:25:00 7.4 C 7.16 g/m*3 5.58 C 9.7 km/h
547 23-12-2019 21:30:00 7.4 C 7.16 g/m*3 6.37 C 6.4 km/h
548 23-12-2019 21:35:00 7.4 C 7.16 g/m*3 5.28 C 11.3 km/h
549 23-12-2019 21:40:00 7.3 C 7.11 g/m*3 5.81 C 8.1 km/h
550 23-12-2019 21:45:00 7.3 C 7.11 g/m*3 7.3 C 4.8 km/h
Sensor: Nr:Datum:Temp:Abs-Feuchte:Windchill:Wind:
Aussen-T/F 551 23-12-2019 21:50:00 7.3 C 7.11 g/m*3 7.3 C 4.8 km/h
552 23-12-2019 21:55:00 7.2 C 7.06 g/m*3 7.2 C 3.2 km/h
553 23-12-2019 22:00:00 7.2 C 7.06 g/m*3 6.13 C 6.4 km/h
554 23-12-2019 22:05:00 7.1 C 7.02 g/m*3 7.1 C 1.6 km/h
555 23-12-2019 22:10:00 7 C 6.97 g/m*3 7 C 3.2 km/h
556 23-12-2019 22:15:00 6.9 C 6.93 g/m*3 6.9 C 1.6 km/h
557 23-12-2019 22:20:00 6.7 C 6.84 g/m*3 6.7 C 3.2 km/h
558 23-12-2019 22:25:00 6.6 C 6.87 g/m*3 6.6 C 4.8 km/h
559 23-12-2019 22:30:00 6.6 C 6.87 g/m*3 6.6 C 3.2 km/h
560 23-12-2019 22:35:00 6.5 C 6.82 g/m*3 6.5 C 3.2 km/h
561 23-12-2019 22:40:00 6.4 C 6.78 g/m*3 6.4 C 3.2 km/h
562 23-12-2019 22:45:00 6.3 C 6.74 g/m*3 6.3 C 3.2 km/h
563 23-12-2019 22:50:00 6.2 C 6.69 g/m*3 6.2 C 4.8 km/h
564 23-12-2019 22:55:00 6.2 C 6.69 g/m*3 4.15 C 9.7 km/h
565 23-12-2019 23:00:00 6.1 C 6.65 g/m*3 6.1 C 1.6 km/h
566 23-12-2019 23:05:00 6.1 C 6.65 g/m*3 6.1 C 4.8 km/h
567 23-12-2019 23:10:00 6 C 6.6 g/m*3 6 C 4.8 km/h
568 23-12-2019 23:15:00 5.9 C 6.56 g/m*3 5.9 C 4.8 km/h
569 23-12-2019 23:20:00 5.9 C 6.56 g/m*3 4.63 C 6.4 km/h
570 23-12-2019 23:25:00 5.9 C 6.56 g/m*3 5.9 C 4.8 km/h
571 23-12-2019 23:30:00 5.9 C 6.56 g/m*3 3.8 C 9.7 km/h
572 23-12-2019 23:35:00 5.9 C 6.56 g/m*3 5.9 C 3.2 km/h
573 23-12-2019 23:40:00 5.8 C 6.45 g/m*3 5.8 C 3.2 km/h
574 23-12-2019 23:45:00 5.8 C 6.52 g/m*3 5.8 C 3.2 km/h
575 23-12-2019 23:50:00 5.7 C 6.48 g/m*3 5.7 C 4.8 km/h
Sensor: Nr:Datum:Temp:Abs-Feuchte:Windchill:Wind:
Aussen-T/F 576 23-12-2019 23:55:00 5.6 C 6.43 g/m*3 5.6 C 3.2 km/h
577 24-12-2019 00:00:00 5.6 C 6.5 g/m*3 5.6 C 4.8 km/h
578 24-12-2019 00:05:00 5.7 C 6.62 g/m*3 5.7 C 4.8 km/h
579 24-12-2019 00:10:00 5.8 C 6.66 g/m*3 5.8 C 4.8 km/h
580 24-12-2019 00:15:00 5.9 C 6.71 g/m*3 5.9 C 4.8 km/h
581 24-12-2019 00:20:00 6 C 6.75 g/m*3 6 C 3.2 km/h
582 24-12-2019 00:25:00 6.1 C 6.79 g/m*3 6.1 C 1.6 km/h
583 24-12-2019 00:30:00 6.1 C 6.79 g/m*3 6.1 C 1.6 km/h
584 24-12-2019 00:35:00 6.2 C 6.84 g/m*3 4.98 C 6.4 km/h
585 24-12-2019 00:40:00 6.2 C 6.84 g/m*3 6.2 C 3.2 km/h
586 24-12-2019 00:45:00 6.3 C 6.88 g/m*3 6.3 C 3.2 km/h
587 24-12-2019 00:50:00 6.3 C 6.88 g/m*3 6.3 C 1.6 km/h
588 24-12-2019 00:55:00 6.3 C 6.88 g/m*3 6.3 C 3.2 km/h
589 24-12-2019 01:00:00 6.3 C 6.88 g/m*3 6.3 C 1.6 km/h
590 24-12-2019 01:05:00 6.3 C 6.81 g/m*3 6.3 C 0 km/h
591 24-12-2019 01:10:00 6.3 C 6.81 g/m*3 6.3 C 3.2 km/h
592 24-12-2019 01:15:00 6.2 C 6.77 g/m*3 6.2 C 4.8 km/h
593 24-12-2019 01:20:00 6.2 C 6.77 g/m*3 6.2 C 4.8 km/h
594 24-12-2019 01:25:00 6.2 C 6.77 g/m*3 4.52 C 8.1 km/h
595 24-12-2019 01:30:00 6.3 C 6.88 g/m*3 4.64 C 8.1 km/h
596 24-12-2019 01:35:00 6.4 C 6.85 g/m*3 6.4 C 4.8 km/h
597 24-12-2019 01:40:00 6.5 C 6.9 g/m*3 6.5 C 1.6 km/h
598 24-12-2019 01:45:00 6.4 C 6.85 g/m*3 6.4 C 1.6 km/h
599 24-12-2019 01:50:00 6.4 C 6.78 g/m*3 6.4 C 1.6 km/h
600 24-12-2019 01:55:00 6.4 C 6.85 g/m*3 6.4 C 0 km/h
Sensor: Nr:Datum:Temp:Abs-Feuchte:Windchill:Wind:
Aussen-T/F 601 24-12-2019 02:00:00 6.4 C 6.85 g/m*3 6.4 C 0 km/h
602 24-12-2019 02:05:00 6.4 C 6.85 g/m*3 6.4 C 0 km/h
603 24-12-2019 02:10:00 6.4 C 6.85 g/m*3 6.4 C 0 km/h
604 24-12-2019 02:15:00 6.4 C 6.85 g/m*3 6.4 C 0 km/h
605 24-12-2019 02:20:00 6.4 C 6.85 g/m*3 6.4 C 0 km/h
606 24-12-2019 02:25:00 6.4 C 6.85 g/m*3 6.4 C 0 km/h
607 24-12-2019 02:30:00 6.4 C 6.85 g/m*3 6.4 C 0 km/h
608 24-12-2019 02:35:00 6.3 C 6.81 g/m*3 6.3 C 0 km/h
609 24-12-2019 02:40:00 6.3 C 6.88 g/m*3 6.3 C 0 km/h
610 24-12-2019 02:45:00 6.3 C 6.81 g/m*3 6.3 C 1.6 km/h
611 24-12-2019 02:50:00 6.4 C 6.93 g/m*3 6.4 C 4.8 km/h
612 24-12-2019 02:55:00 6.6 C 7.02 g/m*3 4.63 C 9.7 km/h
613 24-12-2019 03:00:00 6.7 C 6.99 g/m*3 3.92 C 14.5 km/h
614 24-12-2019 03:05:00 6.8 C 6.96 g/m*3 5.67 C 6.4 km/h
615 24-12-2019 03:10:00 6.9 C 6.93 g/m*3 6.9 C 1.6 km/h
616 24-12-2019 03:15:00 6.8 C 6.88 g/m*3 6.8 C 4.8 km/h
617 24-12-2019 03:20:00 6.7 C 6.84 g/m*3 6.7 C 3.2 km/h
618 24-12-2019 03:25:00 6.6 C 6.79 g/m*3 6.6 C 3.2 km/h
619 24-12-2019 03:30:00 6.4 C 6.71 g/m*3 5.21 C 6.4 km/h
620 24-12-2019 03:35:00 6.4 C 6.71 g/m*3 6.4 C 4.8 km/h
621 24-12-2019 03:40:00 6.5 C 6.82 g/m*3 4.51 C 9.7 km/h
622 24-12-2019 03:45:00 6.4 C 6.71 g/m*3 6.4 C 3.2 km/h
623 24-12-2019 03:50:00 6.3 C 6.66 g/m*3 6.3 C 1.6 km/h
624 24-12-2019 03:55:00 6.2 C 6.62 g/m*3 6.2 C 1.6 km/h
625 24-12-2019 04:00:00 6 C 6.53 g/m*3 6 C 3.2 km/h
Sensor: Nr:Datum:Temp:Abs-Feuchte:Windchill:Wind:
Aussen-T/F 626 24-12-2019 04:05:00 5.9 C 6.56 g/m*3 5.9 C 3.2 km/h
627 24-12-2019 04:10:00 5.9 C 6.63 g/m*3 5.9 C 1.6 km/h
628 24-12-2019 04:15:00 5.9 C 6.63 g/m*3 5.9 C 0 km/h
629 24-12-2019 04:20:00 5.9 C 6.63 g/m*3 5.9 C 0 km/h
630 24-12-2019 04:25:00 6 C 6.68 g/m*3 6 C 1.6 km/h
631 24-12-2019 04:30:00 6 C 6.75 g/m*3 6 C 0 km/h
632 24-12-2019 04:35:00 5.9 C 6.63 g/m*3 5.9 C 0 km/h
633 24-12-2019 04:40:00 5.9 C 6.63 g/m*3 5.9 C 4.8 km/h
634 24-12-2019 04:45:00 5.8 C 6.59 g/m*3 5.8 C 1.6 km/h
635 24-12-2019 04:50:00 5.8 C 6.66 g/m*3 5.8 C 1.6 km/h
636 24-12-2019 04:55:00 5.9 C 6.71 g/m*3 5.9 C 3.2 km/h
637 24-12-2019 05:00:00 5.9 C 6.71 g/m*3 5.9 C 3.2 km/h
638 24-12-2019 05:05:00 5.9 C 6.71 g/m*3 5.9 C 3.2 km/h
639 24-12-2019 05:10:00 6 C 6.75 g/m*3 6 C 0 km/h
640 24-12-2019 05:15:00 5.9 C 6.71 g/m*3 5.9 C 1.6 km/h
641 24-12-2019 05:20:00 5.9 C 6.71 g/m*3 5.9 C 3.2 km/h
642 24-12-2019 05:25:00 5.8 C 6.66 g/m*3 5.8 C 0 km/h
643 24-12-2019 05:30:00 5.7 C 6.62 g/m*3 5.7 C 4.8 km/h
644 24-12-2019 05:35:00 5.8 C 6.66 g/m*3 5.8 C 3.2 km/h
645 24-12-2019 05:40:00 5.7 C 6.62 g/m*3 5.7 C 1.6 km/h
646 24-12-2019 05:45:00 5.6 C 6.57 g/m*3 5.6 C 1.6 km/h
647 24-12-2019 05:50:00 5.5 C 6.46 g/m*3 5.5 C 1.6 km/h
648 24-12-2019 05:55:00 5.5 C 6.53 g/m*3 5.5 C 3.2 km/h
649 24-12-2019 06:00:00 5.4 C 6.49 g/m*3 5.4 C 3.2 km/h
650 24-12-2019 06:05:00 5.4 C 6.49 g/m*3 5.4 C 0 km/h
Sensor: Nr:Datum:Temp:Abs-Feuchte:Windchill:Wind:
Aussen-T/F 651 24-12-2019 06:10:00 5.3 C 6.45 g/m*3 5.3 C 0 km/h
652 24-12-2019 06:15:00 5.3 C 6.45 g/m*3 5.3 C 0 km/h
653 24-12-2019 06:20:00 5.3 C 6.45 g/m*3 5.3 C 0 km/h
654 24-12-2019 06:25:00 5.3 C 6.52 g/m*3 5.3 C 0 km/h
655 24-12-2019 06:30:00 5.3 C 6.52 g/m*3 5.3 C 0 km/h
656 24-12-2019 06:35:00 5.3 C 6.52 g/m*3 5.3 C 0 km/h
657 24-12-2019 06:40:00 5.2 C 6.47 g/m*3 5.2 C 0 km/h
658 24-12-2019 06:45:00 5.2 C 6.47 g/m*3 5.2 C 0 km/h
659 24-12-2019 06:50:00 5.2 C 6.47 g/m*3 5.2 C 3.2 km/h
660 24-12-2019 06:55:00 5.2 C 6.47 g/m*3 5.2 C 1.6 km/h
661 24-12-2019 07:00:00 5.2 C 6.47 g/m*3 5.2 C 0 km/h
662 24-12-2019 07:05:00 5.2 C 6.47 g/m*3 5.2 C 0 km/h
663 24-12-2019 07:10:00 5.3 C 6.52 g/m*3 5.3 C 0 km/h
664 24-12-2019 07:15:00 5.3 C 6.52 g/m*3 5.3 C 0 km/h
665 24-12-2019 07:20:00 5.4 C 6.63 g/m*3 5.4 C 0 km/h
666 24-12-2019 07:25:00 5.6 C 6.72 g/m*3 5.6 C 0 km/h
667 24-12-2019 07:30:00 5.7 C 6.69 g/m*3 5.7 C 0 km/h
668 24-12-2019 07:35:00 5.8 C 6.73 g/m*3 5.8 C 0 km/h
669 24-12-2019 07:40:00 5.9 C 6.78 g/m*3 5.9 C 0 km/h
670 24-12-2019 07:45:00 5.9 C 6.78 g/m*3 5.9 C 4.8 km/h
671 24-12-2019 07:50:00 6 C 6.75 g/m*3 6 C 0 km/h
672 24-12-2019 07:55:00 6.1 C 6.79 g/m*3 6.1 C 3.2 km/h
673 24-12-2019 08:00:00 6.2 C 6.84 g/m*3 6.2 C 0 km/h
674 24-12-2019 08:05:00 6.3 C 6.88 g/m*3 6.3 C 0 km/h
675 24-12-2019 08:10:00 6.3 C 6.81 g/m*3 6.3 C 1.6 km/h
Sensor: Nr:Datum:Temp:Abs-Feuchte:Windchill:Wind:
Aussen-T/F 676 24-12-2019 08:15:00 6.3 C 6.81 g/m*3 6.3 C 0 km/h
677 24-12-2019 08:20:00 6.4 C 6.78 g/m*3 6.4 C 1.6 km/h
678 24-12-2019 08:25:00 6.5 C 6.82 g/m*3 6.5 C 3.2 km/h
679 24-12-2019 08:30:00 6.6 C 6.87 g/m*3 6.6 C 0 km/h
680 24-12-2019 08:35:00 6.7 C 6.91 g/m*3 6.7 C 1.6 km/h
681 24-12-2019 08:40:00 6.7 C 6.91 g/m*3 6.7 C 0 km/h
682 24-12-2019 08:45:00 6.8 C 6.88 g/m*3 6.8 C 0 km/h
683 24-12-2019 08:50:00 6.8 C 6.88 g/m*3 6.8 C 4.8 km/h
684 24-12-2019 08:55:00 6.8 C 6.88 g/m*3 6.8 C 1.6 km/h
685 24-12-2019 09:00:00 6.9 C 6.85 g/m*3 6.9 C 0 km/h
686 24-12-2019 09:05:00 7 C 6.9 g/m*3 7 C 3.2 km/h
687 24-12-2019 09:10:00 7.1 C 6.94 g/m*3 7.1 C 4.8 km/h
688 24-12-2019 09:15:00 7.2 C 6.99 g/m*3 7.2 C 4.8 km/h
689 24-12-2019 09:20:00 7.2 C 6.99 g/m*3 7.2 C 3.2 km/h
690 24-12-2019 09:25:00 7.3 C 6.95 g/m*3 5.81 C 8.1 km/h
691 24-12-2019 09:30:00 7.3 C 6.95 g/m*3 7.3 C 3.2 km/h
692 24-12-2019 09:35:00 7.4 C 7 g/m*3 6.37 C 6.4 km/h
693 24-12-2019 09:40:00 7.4 C 7 g/m*3 7.4 C 1.6 km/h
694 24-12-2019 09:45:00 7.4 C 7 g/m*3 7.4 C 4.8 km/h
695 24-12-2019 09:50:00 7.4 C 7 g/m*3 5.93 C 8.1 km/h
696 24-12-2019 09:55:00 7.4 C 7 g/m*3 5.93 C 8.1 km/h
697 24-12-2019 10:00:00 7.4 C 7.08 g/m*3 5.93 C 8.1 km/h
698 24-12-2019 10:05:00 7.4 C 7.08 g/m*3 7.4 C 3.2 km/h
699 24-12-2019 10:10:00 7.3 C 7.11 g/m*3 7.3 C 1.6 km/h
700 24-12-2019 10:15:00 7.3 C 7.03 g/m*3 7.3 C 4.8 km/h
Sensor: Nr:Datum:Temp:Abs-Feuchte:Windchill:Wind:
Aussen-T/F 701 24-12-2019 10:20:00 7.3 C 7.11 g/m*3 7.3 C 3.2 km/h
702 24-12-2019 10:25:00 7.3 C 7.19 g/m*3 7.3 C 4.8 km/h
703 24-12-2019 10:30:00 7.3 C 7.19 g/m*3 7.3 C 0 km/h
704 24-12-2019 10:35:00 7.3 C 7.27 g/m*3 7.3 C 0 km/h
705 24-12-2019 10:40:00 7.3 C 7.27 g/m*3 7.3 C 0 km/h
706 24-12-2019 10:45:00 7.4 C 7.4 g/m*3 7.4 C 1.6 km/h
707 24-12-2019 10:50:00 7.4 C 7.4 g/m*3 7.4 C 4.8 km/h
708 24-12-2019 10:55:00 7.4 C 7.4 g/m*3 7.4 C 0 km/h
709 24-12-2019 11:00:00 7.4 C 7.32 g/m*3 7.4 C 1.6 km/h
710 24-12-2019 11:05:00 7.4 C 7.4 g/m*3 7.4 C 4.8 km/h
711 24-12-2019 11:10:00 7.5 C 7.44 g/m*3 7.5 C 1.6 km/h
712 24-12-2019 11:15:00 7.6 C 7.49 g/m*3 6.6 C 6.4 km/h
713 24-12-2019 11:20:00 7.7 C 7.54 g/m*3 6.71 C 6.4 km/h
714 24-12-2019 11:25:00 7.8 C 7.59 g/m*3 7.8 C 1.6 km/h
715 24-12-2019 11:30:00 7.8 C 7.59 g/m*3 6.83 C 6.4 km/h
716 24-12-2019 11:35:00 8 C 7.61 g/m*3 7.06 C 6.4 km/h
717 24-12-2019 11:40:00 8.2 C 7.7 g/m*3 7.29 C 6.4 km/h
718 24-12-2019 11:45:00 8.3 C 7.75 g/m*3 6.99 C 8.1 km/h
719 24-12-2019 11:50:00 8.3 C 7.67 g/m*3 5.68 C 16.1 km/h
720 24-12-2019 11:55:00 8.3 C 7.67 g/m*3 6.12 C 12.9 km/h
721 24-12-2019 12:00:00 8.4 C 7.72 g/m*3 5.61 C 17.7 km/h
722 24-12-2019 12:05:00 8.3 C 7.67 g/m*3 5.48 C 17.7 km/h
723 24-12-2019 12:10:00 8.3 C 7.59 g/m*3 5.48 C 17.7 km/h
724 24-12-2019 12:15:00 8.2 C 7.54 g/m*3 5.99 C 12.9 km/h
725 24-12-2019 12:20:00 8.3 C 7.59 g/m*3 5.89 C 14.5 km/h
Sensor: Nr:Datum:Temp:Abs-Feuchte:Windchill:Wind:
Aussen-T/F 726 24-12-2019 12:25:00 8.3 C 7.5 g/m*3 6.12 C 12.9 km/h
727 24-12-2019 12:30:00 8.4 C 7.55 g/m*3 5.8 C 16.1 km/h
728 24-12-2019 12:35:00 8.6 C 7.56 g/m*3 6.73 C 11.3 km/h
729 24-12-2019 12:40:00 8.7 C 7.61 g/m*3 6.38 C 14.5 km/h
730 24-12-2019 12:45:00 8.7 C 7.61 g/m*3 7.13 C 9.7 km/h
731 24-12-2019 12:50:00 8.8 C 7.66 g/m*3 5.93 C 19.3 km/h
732 24-12-2019 12:55:00 9 C 7.67 g/m*3 6.97 C 12.9 km/h
733 24-12-2019 13:00:00 9.2 C 7.77 g/m*3 8.05 C 8.1 km/h
734 24-12-2019 13:05:00 9.3 C 7.82 g/m*3 7.85 C 9.7 km/h
735 24-12-2019 13:10:00 9.4 C 7.78 g/m*3 7.46 C 12.9 km/h
736 24-12-2019 13:15:00 9.4 C 7.78 g/m*3 8.68 C 6.4 km/h
737 24-12-2019 13:20:00 9.5 C 7.83 g/m*3 7.82 C 11.3 km/h
738 24-12-2019 13:25:00 9.5 C 7.83 g/m*3 7.58 C 12.9 km/h
739 24-12-2019 13:30:00 9.6 C 7.88 g/m*3 7.7 C 12.9 km/h
740 24-12-2019 13:35:00 9.6 C 7.88 g/m*3 8.21 C 9.7 km/h
741 24-12-2019 13:40:00 9.6 C 7.88 g/m*3 7.94 C 11.3 km/h
742 24-12-2019 13:45:00 9.6 C 7.88 g/m*3 8.21 C 9.7 km/h
743 24-12-2019 13:50:00 9.6 C 7.88 g/m*3 7.94 C 11.3 km/h
744 24-12-2019 13:55:00 9.7 C 7.93 g/m*3 7.82 C 12.9 km/h
745 24-12-2019 14:00:00 9.7 C 7.84 g/m*3 7.41 C 16.1 km/h
746 24-12-2019 14:05:00 9.7 C 7.84 g/m*3 7.23 C 17.7 km/h
747 24-12-2019 14:10:00 9.8 C 7.89 g/m*3 7.73 C 14.5 km/h
748 24-12-2019 14:15:00 9.8 C 7.89 g/m*3 7.19 C 19.3 km/h
749 24-12-2019 14:20:00 9.8 C 7.89 g/m*3 7.94 C 12.9 km/h
750 24-12-2019 14:25:00 9.9 C 7.94 g/m*3 8.56 C 9.7 km/h
Sensor: Nr:Datum:Temp:Abs-Feuchte:Windchill:Wind:
Aussen-T/F 751 24-12-2019 14:30:00 9.9 C 7.94 g/m*3 8.3 C 11.3 km/h
752 24-12-2019 14:35:00 9.9 C 7.84 g/m*3 8.3 C 11.3 km/h
753 24-12-2019 14:40:00 10 C 7.99 g/m*3 8.42 C 11.3 km/h
754 24-12-2019 14:45:00 10 C 8.08 g/m*3 7.78 C 16.1 km/h
755 24-12-2019 14:50:00 9.9 C 8.03 g/m*3 8.06 C 12.9 km/h
756 24-12-2019 14:55:00 9.9 C 8.12 g/m*3 8.56 C 9.7 km/h
757 24-12-2019 15:00:00 9.8 C 7.98 g/m*3 7.94 C 12.9 km/h
758 24-12-2019 15:05:00 9.8 C 8.07 g/m*3 8.45 C 9.7 km/h
759 24-12-2019 15:10:00 9.8 C 7.98 g/m*3 8.45 C 9.7 km/h
760 24-12-2019 15:15:00 9.8 C 7.89 g/m*3 7.94 C 12.9 km/h
761 24-12-2019 15:20:00 9.9 C 7.84 g/m*3 8.87 C 8.1 km/h
762 24-12-2019 15:25:00 9.9 C 7.84 g/m*3 8.87 C 8.1 km/h
763 24-12-2019 15:30:00 10 C 7.8 g/m*3 8.99 C 8.1 km/h
764 24-12-2019 15:35:00 10.1 C 7.75 g/m*3 8.8 C 9.7 km/h
765 24-12-2019 15:40:00 10.2 C 7.8 g/m*3 8.22 C 14.5 km/h
766 24-12-2019 15:45:00 10.3 C 7.76 g/m*3 8.55 C 12.9 km/h
767 24-12-2019 15:50:00 10.3 C 7.76 g/m*3 8.78 C 11.3 km/h
768 24-12-2019 15:55:00 10.4 C 7.61 g/m*3 8.11 C 17.7 km/h
769 24-12-2019 16:00:00 10.4 C 7.71 g/m*3 8.9 C 11.3 km/h
770 24-12-2019 16:05:00 10.4 C 7.61 g/m*3 8.9 C 11.3 km/h
771 24-12-2019 16:10:00 10.4 C 7.61 g/m*3 9.46 C 8.1 km/h
772 24-12-2019 16:15:00 10.4 C 7.61 g/m*3 9.16 C 9.7 km/h
773 24-12-2019 16:20:00 10.4 C 7.61 g/m*3 8.67 C 12.9 km/h
774 24-12-2019 16:25:00 10.4 C 7.61 g/m*3 8.67 C 12.9 km/h
775 24-12-2019 16:30:00 10.3 C 7.66 g/m*3 10.3 C 4.8 km/h
Sensor: Nr:Datum:Temp:Abs-Feuchte:Windchill:Wind:
Aussen-T/F 776 24-12-2019 16:35:00 10.3 C 7.66 g/m*3 9.72 C 6.4 km/h
777 24-12-2019 16:40:00 10.2 C 7.71 g/m*3 9.22 C 8.1 km/h
778 24-12-2019 16:45:00 10 C 7.61 g/m*3 9.37 C 6.4 km/h
779 24-12-2019 16:50:00 10 C 7.61 g/m*3 8.42 C 11.3 km/h
780 24-12-2019 16:55:00 10.1 C 7.56 g/m*3 8.54 C 11.3 km/h
781 24-12-2019 17:00:00 10.1 C 7.56 g/m*3 8.54 C 11.3 km/h
782 24-12-2019 17:05:00 10.1 C 7.56 g/m*3 8.8 C 9.7 km/h
783 24-12-2019 17:10:00 10.1 C 7.56 g/m*3 8.1 C 14.5 km/h
784 24-12-2019 17:15:00 10 C 7.52 g/m*3 7.78 C 16.1 km/h
785 24-12-2019 17:20:00 9.9 C 7.47 g/m*3 8.3 C 11.3 km/h
786 24-12-2019 17:25:00 9.8 C 7.33 g/m*3 7.73 C 14.5 km/h
787 24-12-2019 17:30:00 9.8 C 7.33 g/m*3 8.18 C 11.3 km/h
788 24-12-2019 17:35:00 9.8 C 7.42 g/m*3 7.54 C 16.1 km/h
789 24-12-2019 17:40:00 9.7 C 7.38 g/m*3 8.06 C 11.3 km/h
790 24-12-2019 17:45:00 9.6 C 7.33 g/m*3 7.29 C 16.1 km/h
791 24-12-2019 17:50:00 9.6 C 7.33 g/m*3 8.52 C 8.1 km/h
792 24-12-2019 17:55:00 9.6 C 7.33 g/m*3 8.52 C 8.1 km/h
793 24-12-2019 18:00:00 9.6 C 7.33 g/m*3 8.52 C 8.1 km/h
794 24-12-2019 18:05:00 9.6 C 7.51 g/m*3 8.52 C 8.1 km/h
795 24-12-2019 18:10:00 9.5 C 7.55 g/m*3 8.09 C 9.7 km/h
796 24-12-2019 18:15:00 9.4 C 7.6 g/m*3 8.68 C 6.4 km/h
797 24-12-2019 18:20:00 9.3 C 7.55 g/m*3 8.56 C 6.4 km/h
798 24-12-2019 18:25:00 9.3 C 7.55 g/m*3 7.58 C 11.3 km/h
799 24-12-2019 18:30:00 9.3 C 7.64 g/m*3 8.56 C 6.4 km/h
800 24-12-2019 18:35:00 9.3 C 7.73 g/m*3 6.73 C 17.7 km/h
Sensor: Nr:Datum:Temp:Abs-Feuchte:Windchill:Wind:
Aussen-T/F 801 24-12-2019 18:40:00 9.1 C 7.72 g/m*3 7.61 C 9.7 km/h
802 24-12-2019 18:45:00 9 C 7.76 g/m*3 9 C 4.8 km/h
803 24-12-2019 18:50:00 8.8 C 7.75 g/m*3 7.25 C 9.7 km/h
804 24-12-2019 18:55:00 8.6 C 7.73 g/m*3 7.01 C 9.7 km/h
805 24-12-2019 19:00:00 8.4 C 7.63 g/m*3 5.8 C 16.1 km/h
806 24-12-2019 19:05:00 8.3 C 7.59 g/m*3 5.68 C 16.1 km/h
807 24-12-2019 19:10:00 8.2 C 7.45 g/m*3 5.99 C 12.9 km/h
808 24-12-2019 19:15:00 8 C 7.44 g/m*3 5.52 C 14.5 km/h
809 24-12-2019 19:20:00 7.8 C 7.35 g/m*3 6.4 C 8.1 km/h
810 24-12-2019 19:25:00 7.7 C 7.38 g/m*3 7.7 C 4.8 km/h
811 24-12-2019 19:30:00 7.5 C 7.28 g/m*3 6.48 C 6.4 km/h
812 24-12-2019 19:35:00 7.4 C 7.32 g/m*3 5.93 C 8.1 km/h
813 24-12-2019 19:40:00 7.3 C 7.27 g/m*3 5.81 C 8.1 km/h
814 24-12-2019 19:45:00 7.2 C 7.22 g/m*3 5.69 C 8.1 km/h
815 24-12-2019 19:50:00 7.2 C 7.3 g/m*3 6.13 C 6.4 km/h
816 24-12-2019 19:55:00 7.1 C 7.25 g/m*3 5.58 C 8.1 km/h
817 24-12-2019 20:00:00 7.1 C 7.25 g/m*3 7.1 C 3.2 km/h
818 24-12-2019 20:05:00 7.1 C 7.25 g/m*3 5.58 C 8.1 km/h
819 24-12-2019 20:10:00 7.1 C 7.25 g/m*3 5.23 C 9.7 km/h
820 24-12-2019 20:15:00 7.2 C 7.3 g/m*3 6.13 C 6.4 km/h
821 24-12-2019 20:20:00 7.2 C 7.3 g/m*3 7.2 C 4.8 km/h
822 24-12-2019 20:25:00 7.3 C 7.35 g/m*3 5.81 C 8.1 km/h
823 24-12-2019 20:30:00 7.3 C 7.35 g/m*3 5.16 C 11.3 km/h
824 24-12-2019 20:35:00 7.4 C 7.4 g/m*3 6.37 C 6.4 km/h
825 24-12-2019 20:40:00 7.4 C 7.32 g/m*3 6.37 C 6.4 km/h
Sensor: Nr:Datum:Temp:Abs-Feuchte:Windchill:Wind:
Aussen-T/F 826 24-12-2019 20:45:00 7.3 C 7.27 g/m*3 5.81 C 8.1 km/h
827 24-12-2019 20:50:00 7.4 C 7.32 g/m*3 5.02 C 12.9 km/h
828 24-12-2019 20:55:00 7.4 C 7.32 g/m*3 5.28 C 11.3 km/h
829 24-12-2019 21:00:00 7.5 C 7.36 g/m*3 6.05 C 8.1 km/h
830 24-12-2019 21:05:00 7.5 C 7.36 g/m*3 6.05 C 8.1 km/h
831 24-12-2019 21:10:00 7.6 C 7.41 g/m*3 6.16 C 8.1 km/h
832 24-12-2019 21:15:00 7.7 C 7.46 g/m*3 5.65 C 11.3 km/h
833 24-12-2019 21:20:00 7.8 C 7.43 g/m*3 5.77 C 11.3 km/h
834 24-12-2019 21:25:00 7.8 C 7.43 g/m*3 6.06 C 9.7 km/h
835 24-12-2019 21:30:00 7.8 C 7.43 g/m*3 6.83 C 6.4 km/h
836 24-12-2019 21:35:00 7.8 C 7.43 g/m*3 5.51 C 12.9 km/h
837 24-12-2019 21:40:00 8 C 7.52 g/m*3 6.3 C 9.7 km/h
838 24-12-2019 21:45:00 8.1 C 7.49 g/m*3 6.13 C 11.3 km/h
839 24-12-2019 21:50:00 8.3 C 7.5 g/m*3 6.12 C 12.9 km/h
840 24-12-2019 21:55:00 8.3 C 7.42 g/m*3 6.37 C 11.3 km/h
841 24-12-2019 22:00:00 8.5 C 7.51 g/m*3 5.73 C 17.7 km/h
842 24-12-2019 22:05:00 8.7 C 7.52 g/m*3 6.85 C 11.3 km/h
843 24-12-2019 22:10:00 8.7 C 7.44 g/m*3 7.13 C 9.7 km/h
844 24-12-2019 22:15:00 8.7 C 7.44 g/m*3 6.85 C 11.3 km/h
845 24-12-2019 22:20:00 8.7 C 7.44 g/m*3 6.6 C 12.9 km/h
846 24-12-2019 22:25:00 8.7 C 7.44 g/m*3 6.6 C 12.9 km/h
847 24-12-2019 22:30:00 8.7 C 7.44 g/m*3 5.81 C 19.3 km/h
848 24-12-2019 22:35:00 8.7 C 7.44 g/m*3 6.85 C 11.3 km/h
849 24-12-2019 22:40:00 8.7 C 7.44 g/m*3 7.46 C 8.1 km/h
850 24-12-2019 22:45:00 8.7 C 7.52 g/m*3 8.7 C 4.8 km/h
Sensor: Nr:Datum:Temp:Abs-Feuchte:Windchill:Wind:
Aussen-T/F 851 24-12-2019 22:50:00 8.7 C 7.52 g/m*3 8.7 C 4.8 km/h
852 24-12-2019 22:55:00 8.7 C 7.52 g/m*3 8.7 C 4.8 km/h
853 24-12-2019 23:00:00 8.7 C 7.61 g/m*3 6.38 C 14.5 km/h
854 24-12-2019 23:05:00 8.7 C 7.61 g/m*3 7.87 C 6.4 km/h
855 24-12-2019 23:10:00 8.7 C 7.61 g/m*3 6.85 C 11.3 km/h
856 24-12-2019 23:15:00 8.7 C 7.61 g/m*3 7.13 C 9.7 km/h
857 24-12-2019 23:20:00 8.7 C 7.52 g/m*3 6.85 C 11.3 km/h
858 24-12-2019 23:25:00 8.7 C 7.61 g/m*3 6.17 C 16.1 km/h
859 24-12-2019 23:30:00 8.7 C 7.61 g/m*3 6.85 C 11.3 km/h
860 24-12-2019 23:35:00 8.7 C 7.61 g/m*3 7.46 C 8.1 km/h
861 24-12-2019 23:40:00 8.8 C 7.66 g/m*3 6.3 C 16.1 km/h
862 24-12-2019 23:45:00 8.8 C 7.57 g/m*3 7.58 C 8.1 km/h
863 24-12-2019 23:50:00 8.8 C 7.66 g/m*3 6.97 C 11.3 km/h
864 24-12-2019 23:55:00 8.8 C 7.57 g/m*3 6.5 C 14.5 km/h
865 25-12-2019 00:00:00 8.8 C 7.57 g/m*3 6.97 C 11.3 km/h
866 25-12-2019 00:05:00 8.8 C 7.66 g/m*3 6.72 C 12.9 km/h
867 25-12-2019 00:10:00 8.8 C 7.66 g/m*3 6.72 C 12.9 km/h
868 25-12-2019 00:15:00 8.8 C 7.66 g/m*3 6.5 C 14.5 km/h
869 25-12-2019 00:20:00 8.8 C 7.66 g/m*3 6.11 C 17.7 km/h
870 25-12-2019 00:25:00 8.8 C 7.75 g/m*3 6.5 C 14.5 km/h
871 25-12-2019 00:30:00 8.8 C 7.75 g/m*3 6.97 C 11.3 km/h
872 25-12-2019 00:35:00 8.8 C 7.75 g/m*3 6.3 C 16.1 km/h
873 25-12-2019 00:40:00 8.8 C 7.75 g/m*3 6.97 C 11.3 km/h
874 25-12-2019 00:45:00 8.8 C 7.75 g/m*3 7.25 C 9.7 km/h
875 25-12-2019 00:50:00 8.8 C 7.75 g/m*3 6.97 C 11.3 km/h
Sensor: Nr:Datum:Temp:Abs-Feuchte:Windchill:Wind:
Aussen-T/F 876 25-12-2019 00:55:00 8.8 C 7.75 g/m*3 6.3 C 16.1 km/h
877 25-12-2019 01:00:00 8.8 C 7.75 g/m*3 6.97 C 11.3 km/h
878 25-12-2019 01:05:00 8.7 C 7.78 g/m*3 7.46 C 8.1 km/h
879 25-12-2019 01:10:00 8.7 C 7.78 g/m*3 6.6 C 12.9 km/h
880 25-12-2019 01:15:00 8.6 C 7.82 g/m*3 7.01 C 9.7 km/h
881 25-12-2019 01:20:00 8.5 C 7.77 g/m*3 8.5 C 4.8 km/h
882 25-12-2019 01:25:00 8.3 C 7.67 g/m*3 8.3 C 4.8 km/h
883 25-12-2019 01:30:00 8.2 C 7.7 g/m*3 7.29 C 6.4 km/h
884 25-12-2019 01:35:00 8.2 C 7.7 g/m*3 6.54 C 9.7 km/h
885 25-12-2019 01:40:00 8.2 C 7.7 g/m*3 7.29 C 6.4 km/h
886 25-12-2019 01:45:00 8.2 C 7.7 g/m*3 6.25 C 11.3 km/h
887 25-12-2019 01:50:00 8.2 C 7.7 g/m*3 6.87 C 8.1 km/h
888 25-12-2019 01:55:00 8.2 C 7.7 g/m*3 6.87 C 8.1 km/h
889 25-12-2019 02:00:00 8.2 C 7.7 g/m*3 7.29 C 6.4 km/h
890 25-12-2019 02:05:00 8.2 C 7.7 g/m*3 7.29 C 6.4 km/h
891 25-12-2019 02:10:00 8.2 C 7.7 g/m*3 5.76 C 14.5 km/h
892 25-12-2019 02:15:00 8.3 C 7.75 g/m*3 6.37 C 11.3 km/h
893 25-12-2019 02:20:00 8.3 C 7.67 g/m*3 6.12 C 12.9 km/h
894 25-12-2019 02:25:00 8.3 C 7.67 g/m*3 6.99 C 8.1 km/h
895 25-12-2019 02:30:00 8.3 C 7.67 g/m*3 7.41 C 6.4 km/h
896 25-12-2019 02:35:00 8.3 C 7.67 g/m*3 6.66 C 9.7 km/h
897 25-12-2019 02:40:00 8.3 C 7.67 g/m*3 7.41 C 6.4 km/h
898 25-12-2019 02:45:00 8.3 C 7.67 g/m*3 5.89 C 14.5 km/h
899 25-12-2019 02:50:00 8.3 C 7.67 g/m*3 6.66 C 9.7 km/h
900 25-12-2019 02:55:00 8.4 C 7.72 g/m*3 7.11 C 8.1 km/h
Sensor: Nr:Datum:Temp:Abs-Feuchte:Windchill:Wind:
Aussen-T/F 901 25-12-2019 03:00:00 8.4 C 7.72 g/m*3 7.11 C 8.1 km/h
902 25-12-2019 03:05:00 8.4 C 7.8 g/m*3 6.78 C 9.7 km/h
903 25-12-2019 03:10:00 8.4 C 7.72 g/m*3 7.11 C 8.1 km/h
904 25-12-2019 03:15:00 8.5 C 7.77 g/m*3 7.64 C 6.4 km/h
905 25-12-2019 03:20:00 8.6 C 7.82 g/m*3 6.25 C 14.5 km/h
906 25-12-2019 03:25:00 8.6 C 7.82 g/m*3 7.34 C 8.1 km/h
907 25-12-2019 03:30:00 8.7 C 7.87 g/m*3 7.13 C 9.7 km/h
908 25-12-2019 03:35:00 8.7 C 7.87 g/m*3 7.13 C 9.7 km/h
909 25-12-2019 03:40:00 8.7 C 7.87 g/m*3 7.46 C 8.1 km/h
910 25-12-2019 03:45:00 8.7 C 7.87 g/m*3 6.85 C 11.3 km/h
911 25-12-2019 03:50:00 8.8 C 7.92 g/m*3 6.97 C 11.3 km/h
912 25-12-2019 03:55:00 8.8 C 7.92 g/m*3 7.58 C 8.1 km/h
913 25-12-2019 04:00:00 8.8 C 7.92 g/m*3 8.8 C 3.2 km/h
914 25-12-2019 04:05:00 8.7 C 7.87 g/m*3 7.46 C 8.1 km/h
915 25-12-2019 04:10:00 8.7 C 7.96 g/m*3 7.87 C 6.4 km/h
916 25-12-2019 04:15:00 8.7 C 7.96 g/m*3 7.87 C 6.4 km/h
917 25-12-2019 04:20:00 8.7 C 7.96 g/m*3 7.46 C 8.1 km/h
918 25-12-2019 04:25:00 8.7 C 7.96 g/m*3 7.87 C 6.4 km/h
919 25-12-2019 04:30:00 8.7 C 8.04 g/m*3 8.7 C 4.8 km/h
920 25-12-2019 04:35:00 8.7 C 8.04 g/m*3 7.87 C 6.4 km/h
921 25-12-2019 04:40:00 8.7 C 8.04 g/m*3 8.7 C 3.2 km/h
922 25-12-2019 04:45:00 8.6 C 7.99 g/m*3 7.34 C 8.1 km/h
923 25-12-2019 04:50:00 8.6 C 7.99 g/m*3 7.75 C 6.4 km/h
924 25-12-2019 04:55:00 8.6 C 7.99 g/m*3 8.6 C 4.8 km/h
925 25-12-2019 05:00:00 8.6 C 7.99 g/m*3 7.34 C 8.1 km/h
Sensor: Nr:Datum:Temp:Abs-Feuchte:Windchill:Wind:
Aussen-T/F 926 25-12-2019 05:05:00 8.7 C 8.04 g/m*3 8.7 C 3.2 km/h
927 25-12-2019 05:10:00 8.7 C 8.13 g/m*3 8.7 C 4.8 km/h
928 25-12-2019 05:15:00 8.6 C 8.08 g/m*3 8.6 C 3.2 km/h
929 25-12-2019 05:20:00 8.6 C 8.08 g/m*3 8.6 C 3.2 km/h
930 25-12-2019 05:25:00 8.6 C 8.08 g/m*3 8.6 C 3.2 km/h
931 25-12-2019 05:30:00 8.5 C 8.03 g/m*3 8.5 C 3.2 km/h
932 25-12-2019 05:35:00 8.4 C 7.97 g/m*3 7.11 C 8.1 km/h
933 25-12-2019 05:40:00 8.4 C 7.97 g/m*3 8.4 C 4.8 km/h
934 25-12-2019 05:45:00 8.4 C 7.97 g/m*3 8.4 C 4.8 km/h
935 25-12-2019 05:50:00 8.3 C 7.84 g/m*3 8.3 C 4.8 km/h
936 25-12-2019 05:55:00 8.2 C 7.79 g/m*3 7.29 C 6.4 km/h
937 25-12-2019 06:00:00 8.2 C 7.79 g/m*3 7.29 C 6.4 km/h
938 25-12-2019 06:05:00 8.2 C 7.79 g/m*3 8.2 C 4.8 km/h
939 25-12-2019 06:10:00 8.1 C 7.74 g/m*3 8.1 C 0 km/h
940 25-12-2019 06:15:00 8.1 C 7.74 g/m*3 8.1 C 3.2 km/h
941 25-12-2019 06:20:00 8.1 C 7.74 g/m*3 8.1 C 0 km/h
942 25-12-2019 06:25:00 8 C 7.69 g/m*3 8 C 0 km/h
943 25-12-2019 06:30:00 8 C 7.77 g/m*3 8 C 0 km/h
944 25-12-2019 06:35:00 8 C 7.77 g/m*3 8 C 0 km/h
945 25-12-2019 06:40:00 8 C 7.77 g/m*3 8 C 0 km/h
946 25-12-2019 06:45:00 8 C 7.77 g/m*3 8 C 0 km/h
947 25-12-2019 06:50:00 8 C 7.77 g/m*3 8 C 0 km/h
948 25-12-2019 06:55:00 8.1 C 7.82 g/m*3 6.75 C 8.1 km/h
949 25-12-2019 07:00:00 8.1 C 7.74 g/m*3 6.42 C 9.7 km/h
950 25-12-2019 07:05:00 8.1 C 7.66 g/m*3 7.17 C 6.4 km/h
Sensor: Nr:Datum:Temp:Abs-Feuchte:Windchill:Wind:
Aussen-T/F 951 25-12-2019 07:10:00 8.1 C 7.66 g/m*3 7.17 C 6.4 km/h
952 25-12-2019 07:15:00 8 C 7.61 g/m*3 8 C 4.8 km/h
953 25-12-2019 07:20:00 8 C 7.61 g/m*3 8 C 1.6 km/h
954 25-12-2019 07:25:00 7.9 C 7.56 g/m*3 7.9 C 1.6 km/h
955 25-12-2019 07:30:00 7.9 C 7.56 g/m*3 7.9 C 0 km/h
956 25-12-2019 07:35:00 7.9 C 7.64 g/m*3 7.9 C 0 km/h
957 25-12-2019 07:40:00 7.8 C 7.59 g/m*3 7.8 C 1.6 km/h
958 25-12-2019 07:45:00 7.8 C 7.51 g/m*3 7.8 C 3.2 km/h
959 25-12-2019 07:50:00 7.7 C 7.54 g/m*3 7.7 C 1.6 km/h
960 25-12-2019 07:55:00 7.7 C 7.54 g/m*3 7.7 C 0 km/h
961 25-12-2019 08:00:00 7.7 C 7.46 g/m*3 3.92 C 25.7 km/h
962 25-12-2019 08:05:00 7.7 C 7.38 g/m*3 3.92 C 25.7 km/h
963 25-12-2019 08:10:00 7.6 C 7.33 g/m*3 5.26 C 12.9 km/h
964 25-12-2019 08:15:00 7.4 C 7.16 g/m*3 4.78 C 14.5 km/h
965 25-12-2019 08:20:00 7.4 C 7.16 g/m*3 5.58 C 9.7 km/h
966 25-12-2019 08:25:00 7.4 C 7.16 g/m*3 5.93 C 8.1 km/h
967 25-12-2019 08:30:00 7.3 C 7.11 g/m*3 5.16 C 11.3 km/h
968 25-12-2019 08:35:00 7.3 C 7.11 g/m*3 7.3 C 3.2 km/h
969 25-12-2019 08:40:00 7.3 C 7.11 g/m*3 7.3 C 1.6 km/h
970 25-12-2019 08:45:00 7.3 C 7.11 g/m*3 4.9 C 12.9 km/h
971 25-12-2019 08:50:00 7.3 C 7.19 g/m*3 5.81 C 8.1 km/h
972 25-12-2019 08:55:00 7.3 C 7.19 g/m*3 5.81 C 8.1 km/h
973 25-12-2019 09:00:00 7.4 C 7.16 g/m*3 5.58 C 9.7 km/h
974 25-12-2019 09:05:00 7.4 C 7.16 g/m*3 6.37 C 6.4 km/h
975 25-12-2019 09:10:00 7.5 C 7.2 g/m*3 6.48 C 6.4 km/h
Sensor: Nr:Datum:Temp:Abs-Feuchte:Windchill:Wind:
Aussen-T/F 976 25-12-2019 09:15:00 7.6 C 7.17 g/m*3 5.53 C 11.3 km/h
977 25-12-2019 09:20:00 7.6 C 7.17 g/m*3 7.6 C 0 km/h
978 25-12-2019 09:25:00 7.6 C 7.17 g/m*3 7.6 C 4.8 km/h
979 25-12-2019 09:30:00 7.6 C 7.17 g/m*3 5.53 C 11.3 km/h
980 25-12-2019 09:35:00 7.6 C 7.09 g/m*3 6.6 C 6.4 km/h
981 25-12-2019 09:40:00 7.7 C 7.14 g/m*3 6.28 C 8.1 km/h
982 25-12-2019 09:45:00 7.8 C 7.1 g/m*3 7.8 C 4.8 km/h
983 25-12-2019 09:50:00 7.8 C 7.1 g/m*3 6.83 C 6.4 km/h
984 25-12-2019 09:55:00 7.9 C 7.06 g/m*3 7.9 C 4.8 km/h
985 25-12-2019 10:00:00 7.9 C 7.15 g/m*3 7.9 C 3.2 km/h
986 25-12-2019 10:05:00 8 C 7.19 g/m*3 8 C 0 km/h
987 25-12-2019 10:10:00 7.9 C 7.15 g/m*3 7.9 C 4.8 km/h
988 25-12-2019 10:15:00 7.8 C 7.18 g/m*3 7.8 C 4.8 km/h
989 25-12-2019 10:20:00 7.8 C 7.1 g/m*3 5.51 C 12.9 km/h
990 25-12-2019 10:25:00 7.8 C 7.02 g/m*3 6.83 C 6.4 km/h
991 25-12-2019 10:30:00 7.9 C 7.06 g/m*3 6.94 C 6.4 km/h
992 25-12-2019 10:35:00 7.9 C 7.06 g/m*3 6.52 C 8.1 km/h
993 25-12-2019 10:40:00 7.9 C 7.06 g/m*3 6.52 C 8.1 km/h
994 25-12-2019 10:45:00 8 C 7.03 g/m*3 5.3 C 16.1 km/h
995 25-12-2019 10:50:00 8.1 C 7.07 g/m*3 6.42 C 9.7 km/h
996 25-12-2019 10:55:00 8.1 C 7.16 g/m*3 7.17 C 6.4 km/h
997 25-12-2019 11:00:00 8.1 C 7.16 g/m*3 6.75 C 8.1 km/h
998 25-12-2019 11:05:00 8.1 C 7.16 g/m*3 6.75 C 8.1 km/h
999 25-12-2019 11:10:00 8.1 C 7.16 g/m*3 6.13 C 11.3 km/h
1000 25-12-2019 11:15:00 8.1 C 7.16 g/m*3 8.1 C 4.8 km/h
Sensor: Nr:Datum:Temp:Abs-Feuchte:Windchill:Wind:
Aussen-T/F 1001 25-12-2019 11:20:00 8.1 C 7.16 g/m*3 6.13 C 11.3 km/h
1002 25-12-2019 11:25:00 8.1 C 7.16 g/m*3 6.13 C 11.3 km/h
1003 25-12-2019 11:30:00 8.2 C 7.2 g/m*3 8.2 C 4.8 km/h
1004 25-12-2019 11:35:00 8.2 C 7.2 g/m*3 6.25 C 11.3 km/h
1005 25-12-2019 11:40:00 8.2 C 7.2 g/m*3 6.54 C 9.7 km/h
1006 25-12-2019 11:45:00 8.2 C 7.2 g/m*3 5.99 C 12.9 km/h
1007 25-12-2019 11:50:00 8.1 C 7.24 g/m*3 5.64 C 14.5 km/h
1008 25-12-2019 11:55:00 8.1 C 7.32 g/m*3 6.42 C 9.7 km/h
1009 25-12-2019 12:00:00 8 C 7.28 g/m*3 6.01 C 11.3 km/h
1010 25-12-2019 12:05:00 8 C 7.36 g/m*3 6.01 C 11.3 km/h
1011 25-12-2019 12:10:00 8 C 7.36 g/m*3 6.01 C 11.3 km/h
1012 25-12-2019 12:15:00 8 C 7.19 g/m*3 4.6 C 22.5 km/h
1013 25-12-2019 12:20:00 8.1 C 7.24 g/m*3 6.75 C 8.1 km/h
1014 25-12-2019 12:25:00 8.1 C 7.32 g/m*3 8.1 C 4.8 km/h
1015 25-12-2019 12:30:00 8.2 C 7.29 g/m*3 5.55 C 16.1 km/h
1016 25-12-2019 12:35:00 8.2 C 7.29 g/m*3 5.76 C 14.5 km/h
1017 25-12-2019 12:40:00 8.2 C 7.29 g/m*3 5.76 C 14.5 km/h
1018 25-12-2019 12:45:00 8.2 C 7.29 g/m*3 5.99 C 12.9 km/h
1019 25-12-2019 12:50:00 8.2 C 7.37 g/m*3 7.29 C 6.4 km/h
1020 25-12-2019 12:55:00 8.2 C 7.37 g/m*3 8.2 C 4.8 km/h
1021 25-12-2019 13:00:00 8.1 C 7.32 g/m*3 6.13 C 11.3 km/h
1022 25-12-2019 13:05:00 8.1 C 7.41 g/m*3 5.87 C 12.9 km/h
1023 25-12-2019 13:10:00 8 C 7.36 g/m*3 7.06 C 6.4 km/h
1024 25-12-2019 13:15:00 8 C 7.44 g/m*3 8 C 4.8 km/h
1025 25-12-2019 13:20:00 7.9 C 7.39 g/m*3 6.18 C 9.7 km/h
Sensor: Nr:Datum:Temp:Abs-Feuchte:Windchill:Wind:
Aussen-T/F 1026 25-12-2019 13:25:00 7.9 C 7.39 g/m*3 6.18 C 9.7 km/h
1027 25-12-2019 13:30:00 7.9 C 7.39 g/m*3 6.52 C 8.1 km/h
1028 25-12-2019 13:35:00 7.9 C 7.39 g/m*3 5.89 C 11.3 km/h
1029 25-12-2019 13:40:00 7.9 C 7.39 g/m*3 6.52 C 8.1 km/h
1030 25-12-2019 13:45:00 7.8 C 7.35 g/m*3 6.83 C 6.4 km/h
1031 25-12-2019 13:50:00 7.8 C 7.26 g/m*3 6.4 C 8.1 km/h
1032 25-12-2019 13:55:00 7.8 C 7.26 g/m*3 6.4 C 8.1 km/h
1033 25-12-2019 14:00:00 7.8 C 7.26 g/m*3 6.83 C 6.4 km/h
1034 25-12-2019 14:05:00 7.9 C 7.39 g/m*3 7.9 C 4.8 km/h
1035 25-12-2019 14:10:00 7.9 C 7.39 g/m*3 5.63 C 12.9 km/h
1036 25-12-2019 14:15:00 7.9 C 7.31 g/m*3 7.9 C 4.8 km/h
1037 25-12-2019 14:20:00 8.1 C 7.41 g/m*3 7.17 C 6.4 km/h
1038 25-12-2019 14:25:00 8.1 C 7.41 g/m*3 6.13 C 11.3 km/h
1039 25-12-2019 14:30:00 8.1 C 7.41 g/m*3 5.43 C 16.1 km/h
1040 25-12-2019 14:35:00 8.2 C 7.45 g/m*3 6.54 C 9.7 km/h
1041 25-12-2019 14:40:00 8.2 C 7.45 g/m*3 6.87 C 8.1 km/h
1042 25-12-2019 14:45:00 8.2 C 7.45 g/m*3 6.54 C 9.7 km/h
1043 25-12-2019 14:50:00 8.2 C 7.45 g/m*3 6.54 C 9.7 km/h
1044 25-12-2019 14:55:00 8.1 C 7.49 g/m*3 5.87 C 12.9 km/h
1045 25-12-2019 15:00:00 8 C 7.44 g/m*3 5.75 C 12.9 km/h
1046 25-12-2019 15:05:00 8 C 7.44 g/m*3 5.52 C 14.5 km/h
1047 25-12-2019 15:10:00 8 C 7.44 g/m*3 6.3 C 9.7 km/h
1048 25-12-2019 15:15:00 8 C 7.44 g/m*3 6.3 C 9.7 km/h
1049 25-12-2019 15:20:00 7.9 C 7.39 g/m*3 7.9 C 4.8 km/h
1050 25-12-2019 15:25:00 7.9 C 7.39 g/m*3 7.9 C 4.8 km/h
Sensor: Nr:Datum:Temp:Abs-Feuchte:Windchill:Wind:
Aussen-T/F 1051 25-12-2019 15:30:00 8 C 7.44 g/m*3 8 C 3.2 km/h
1052 25-12-2019 15:35:00 8 C 7.44 g/m*3 8 C 3.2 km/h
1053 25-12-2019 15:40:00 8 C 7.44 g/m*3 8 C 3.2 km/h
1054 25-12-2019 15:45:00 8 C 7.36 g/m*3 7.06 C 6.4 km/h
1055 25-12-2019 15:50:00 8 C 7.36 g/m*3 6.3 C 9.7 km/h
1056 25-12-2019 15:55:00 7.9 C 7.31 g/m*3 6.18 C 9.7 km/h
1057 25-12-2019 16:00:00 7.9 C 7.31 g/m*3 7.9 C 4.8 km/h
1058 25-12-2019 16:05:00 7.9 C 7.31 g/m*3 6.52 C 8.1 km/h
1059 25-12-2019 16:10:00 7.9 C 7.31 g/m*3 7.9 C 4.8 km/h
1060 25-12-2019 16:15:00 7.9 C 7.31 g/m*3 7.9 C 3.2 km/h
1061 25-12-2019 16:20:00 7.8 C 7.35 g/m*3 7.8 C 4.8 km/h
1062 25-12-2019 16:25:00 7.8 C 7.35 g/m*3 7.8 C 1.6 km/h
1063 25-12-2019 16:30:00 7.8 C 7.35 g/m*3 7.8 C 1.6 km/h
1064 25-12-2019 16:35:00 7.7 C 7.3 g/m*3 7.7 C 0 km/h
1065 25-12-2019 16:40:00 7.6 C 7.25 g/m*3 7.6 C 3.2 km/h
1066 25-12-2019 16:45:00 7.6 C 7.17 g/m*3 6.16 C 8.1 km/h
1067 25-12-2019 16:50:00 7.6 C 7.17 g/m*3 7.6 C 3.2 km/h
1068 25-12-2019 16:55:00 7.6 C 7.17 g/m*3 7.6 C 1.6 km/h
1069 25-12-2019 17:00:00 7.6 C 7.17 g/m*3 7.6 C 1.6 km/h
1070 25-12-2019 17:05:00 7.5 C 7.2 g/m*3 7.5 C 1.6 km/h
1071 25-12-2019 17:10:00 7.5 C 7.12 g/m*3 7.5 C 1.6 km/h
1072 25-12-2019 17:15:00 7.5 C 7.12 g/m*3 7.5 C 1.6 km/h
1073 25-12-2019 17:20:00 7.4 C 7.16 g/m*3 7.4 C 0 km/h
1074 25-12-2019 17:25:00 7.4 C 7.16 g/m*3 7.4 C 4.8 km/h
1075 25-12-2019 17:30:00 7.3 C 7.11 g/m*3 7.3 C 0 km/h
Sensor: Nr:Datum:Temp:Abs-Feuchte:Windchill:Wind:
Aussen-T/F 1076 25-12-2019 17:35:00 7.2 C 6.99 g/m*3 7.2 C 0 km/h
1077 25-12-2019 17:40:00 7.1 C 6.94 g/m*3 7.1 C 1.6 km/h
1078 25-12-2019 17:45:00 6.9 C 6.85 g/m*3 6.9 C 1.6 km/h
1079 25-12-2019 17:50:00 6.8 C 6.88 g/m*3 6.8 C 1.6 km/h
1080 25-12-2019 17:55:00 6.8 C 6.88 g/m*3 6.8 C 1.6 km/h
1081 25-12-2019 18:00:00 6.8 C 6.96 g/m*3 6.8 C 0 km/h
1082 25-12-2019 18:05:00 6.8 C 6.96 g/m*3 6.8 C 3.2 km/h
1083 25-12-2019 18:10:00 6.8 C 6.96 g/m*3 6.8 C 3.2 km/h
1084 25-12-2019 18:15:00 6.8 C 6.96 g/m*3 6.8 C 0 km/h
1085 25-12-2019 18:20:00 6.8 C 6.96 g/m*3 6.8 C 1.6 km/h
1086 25-12-2019 18:25:00 6.8 C 6.96 g/m*3 6.8 C 0 km/h
1087 25-12-2019 18:30:00 6.8 C 6.96 g/m*3 6.8 C 0 km/h
1088 25-12-2019 18:35:00 6.8 C 6.96 g/m*3 6.8 C 0 km/h
1089 25-12-2019 18:40:00 6.8 C 6.96 g/m*3 6.8 C 0 km/h
1090 25-12-2019 18:45:00 6.8 C 6.96 g/m*3 6.8 C 1.6 km/h
1091 25-12-2019 18:50:00 6.8 C 6.96 g/m*3 6.8 C 0 km/h
1092 25-12-2019 18:55:00 6.8 C 6.96 g/m*3 6.8 C 1.6 km/h
1093 25-12-2019 19:00:00 6.8 C 6.96 g/m*3 6.8 C 1.6 km/h
1094 25-12-2019 19:05:00 6.8 C 6.96 g/m*3 6.8 C 3.2 km/h
1095 25-12-2019 19:10:00 6.8 C 6.96 g/m*3 6.8 C 3.2 km/h
1096 25-12-2019 19:15:00 6.7 C 6.91 g/m*3 6.7 C 0 km/h
1097 25-12-2019 19:20:00 6.7 C 6.91 g/m*3 6.7 C 3.2 km/h
1098 25-12-2019 19:25:00 6.7 C 6.91 g/m*3 6.7 C 0 km/h
1099 25-12-2019 19:30:00 6.7 C 6.91 g/m*3 6.7 C 1.6 km/h
1100 25-12-2019 19:35:00 6.7 C 6.91 g/m*3 6.7 C 1.6 km/h
Sensor: Nr:Datum:Temp:Abs-Feuchte:Windchill:Wind:
Aussen-T/F 1101 25-12-2019 19:40:00 6.7 C 6.99 g/m*3 6.7 C 0 km/h
1102 25-12-2019 19:45:00 6.7 C 6.99 g/m*3 6.7 C 1.6 km/h
1103 25-12-2019 19:50:00 6.7 C 6.91 g/m*3 6.7 C 1.6 km/h
1104 25-12-2019 19:55:00 6.7 C 6.91 g/m*3 6.7 C 0 km/h
1105 25-12-2019 20:00:00 6.7 C 6.91 g/m*3 6.7 C 0 km/h
1106 25-12-2019 20:05:00 6.7 C 6.99 g/m*3 6.7 C 3.2 km/h
1107 25-12-2019 20:10:00 6.7 C 6.99 g/m*3 6.7 C 3.2 km/h
1108 25-12-2019 20:15:00 6.7 C 6.99 g/m*3 6.7 C 1.6 km/h
1109 25-12-2019 20:20:00 6.7 C 6.99 g/m*3 6.7 C 3.2 km/h
1110 25-12-2019 20:25:00 6.6 C 6.95 g/m*3 6.6 C 1.6 km/h
1111 25-12-2019 20:30:00 6.6 C 6.95 g/m*3 6.6 C 1.6 km/h
1112 25-12-2019 20:35:00 6.6 C 6.95 g/m*3 5.44 C 6.4 km/h
1113 25-12-2019 20:40:00 6.6 C 6.95 g/m*3 6.6 C 0 km/h
1114 25-12-2019 20:45:00 6.6 C 6.95 g/m*3 6.6 C 1.6 km/h
1115 25-12-2019 20:50:00 6.6 C 6.95 g/m*3 6.6 C 1.6 km/h
1116 25-12-2019 20:55:00 6.6 C 6.95 g/m*3 6.6 C 3.2 km/h
1117 25-12-2019 21:00:00 6.5 C 6.9 g/m*3 6.5 C 1.6 km/h
1118 25-12-2019 21:05:00 6.5 C 6.97 g/m*3 6.5 C 0 km/h
1119 25-12-2019 21:10:00 6.4 C 6.93 g/m*3 6.4 C 0 km/h
1120 25-12-2019 21:15:00 6.4 C 6.93 g/m*3 6.4 C 3.2 km/h
1121 25-12-2019 21:20:00 6.4 C 6.93 g/m*3 6.4 C 4.8 km/h
1122 25-12-2019 21:25:00 6.3 C 6.88 g/m*3 6.3 C 0 km/h
1123 25-12-2019 21:30:00 6.3 C 6.96 g/m*3 6.3 C 1.6 km/h
1124 25-12-2019 21:35:00 6.3 C 6.96 g/m*3 6.3 C 3.2 km/h
1125 25-12-2019 21:40:00 6.3 C 6.96 g/m*3 6.3 C 0 km/h
Sensor: Nr:Datum:Temp:Abs-Feuchte:Windchill:Wind:
Aussen-T/F 1126 25-12-2019 21:45:00 6.2 C 6.91 g/m*3 6.2 C 0 km/h
1127 25-12-2019 21:50:00 6.2 C 6.91 g/m*3 6.2 C 1.6 km/h
1128 25-12-2019 21:55:00 6.2 C 6.91 g/m*3 6.2 C 0 km/h
1129 25-12-2019 22:00:00 6.2 C 6.91 g/m*3 6.2 C 1.6 km/h
1130 25-12-2019 22:05:00 6.2 C 6.99 g/m*3 6.2 C 0 km/h
1131 25-12-2019 22:10:00 6.1 C 6.87 g/m*3 6.1 C 1.6 km/h
1132 25-12-2019 22:15:00 6.1 C 6.94 g/m*3 6.1 C 0 km/h
1133 25-12-2019 22:20:00 6.1 C 6.94 g/m*3 6.1 C 3.2 km/h
1134 25-12-2019 22:25:00 6.1 C 6.94 g/m*3 6.1 C 1.6 km/h
1135 25-12-2019 22:30:00 6 C 6.9 g/m*3 6 C 1.6 km/h
1136 25-12-2019 22:35:00 6 C 6.9 g/m*3 6 C 0 km/h
1137 25-12-2019 22:40:00 6 C 6.9 g/m*3 6 C 0 km/h
1138 25-12-2019 22:45:00 6 C 6.9 g/m*3 6 C 0 km/h
1139 25-12-2019 22:50:00 5.9 C 6.85 g/m*3 5.9 C 0 km/h
1140 25-12-2019 22:55:00 5.9 C 6.85 g/m*3 5.9 C 0 km/h
1141 25-12-2019 23:00:00 6 C 6.9 g/m*3 6 C 3.2 km/h
1142 25-12-2019 23:05:00 6 C 6.9 g/m*3 6 C 1.6 km/h
1143 25-12-2019 23:10:00 6 C 6.9 g/m*3 6 C 0 km/h
1144 25-12-2019 23:15:00 6 C 6.9 g/m*3 6 C 1.6 km/h
1145 25-12-2019 23:20:00 6.1 C 6.94 g/m*3 6.1 C 0 km/h
1146 25-12-2019 23:25:00 6.1 C 6.94 g/m*3 6.1 C 0 km/h
1147 25-12-2019 23:30:00 6 C 6.9 g/m*3 6 C 1.6 km/h
1148 25-12-2019 23:35:00 6 C 6.9 g/m*3 6 C 0 km/h
1149 25-12-2019 23:40:00 5.9 C 6.85 g/m*3 5.9 C 0 km/h
1150 25-12-2019 23:45:00 5.9 C 6.85 g/m*3 5.9 C 0 km/h
Sensor: Nr:Datum:Temp:Abs-Feuchte:Windchill:Wind:
Aussen-T/F 1151 25-12-2019 23:50:00 5.7 C 6.76 g/m*3 5.7 C 0 km/h
1152 25-12-2019 23:55:00 5.6 C 6.72 g/m*3 5.6 C 0 km/h
1153 26-12-2019 00:00:00 5.5 C 6.67 g/m*3 5.5 C 1.6 km/h
1154 26-12-2019 00:05:00 5.4 C 6.63 g/m*3 5.4 C 0 km/h
1155 26-12-2019 00:10:00 5.4 C 6.63 g/m*3 5.4 C 0 km/h
1156 26-12-2019 00:15:00 5.3 C 6.58 g/m*3 5.3 C 0 km/h
1157 26-12-2019 00:20:00 5.1 C 6.5 g/m*3 5.1 C 0 km/h
1158 26-12-2019 00:25:00 4.9 C 6.41 g/m*3 4.9 C 0 km/h
1159 26-12-2019 00:30:00 4.8 C 6.37 g/m*3 4.8 C 0 km/h
1160 26-12-2019 00:35:00 4.7 C 6.33 g/m*3 4.7 C 0 km/h
1161 26-12-2019 00:40:00 4.6 C 6.29 g/m*3 4.6 C 0 km/h
1162 26-12-2019 00:45:00 4.6 C 6.29 g/m*3 4.6 C 0 km/h
1163 26-12-2019 00:50:00 4.7 C 6.39 g/m*3 4.7 C 3.2 km/h
1164 26-12-2019 00:55:00 4.8 C 6.44 g/m*3 4.8 C 0 km/h
1165 26-12-2019 01:00:00 4.9 C 6.48 g/m*3 4.9 C 0 km/h
1166 26-12-2019 01:05:00 4.9 C 6.48 g/m*3 4.9 C 0 km/h
1167 26-12-2019 01:10:00 5 C 6.52 g/m*3 5 C 1.6 km/h
1168 26-12-2019 01:15:00 5.1 C 6.57 g/m*3 5.1 C 0 km/h
1169 26-12-2019 01:20:00 5.1 C 6.57 g/m*3 5.1 C 1.6 km/h
1170 26-12-2019 01:25:00 5.2 C 6.61 g/m*3 5.2 C 0 km/h
1171 26-12-2019 01:30:00 5.2 C 6.61 g/m*3 5.2 C 0 km/h
1172 26-12-2019 01:35:00 5.2 C 6.61 g/m*3 5.2 C 0 km/h
1173 26-12-2019 01:40:00 5.2 C 6.61 g/m*3 5.2 C 0 km/h
1174 26-12-2019 01:45:00 5.2 C 6.61 g/m*3 5.2 C 3.2 km/h
1175 26-12-2019 01:50:00 5.2 C 6.61 g/m*3 5.2 C 4.8 km/h
Sensor: Nr:Datum:Temp:Abs-Feuchte:Windchill:Wind:
Aussen-T/F 1176 26-12-2019 01:55:00 5.2 C 6.61 g/m*3 5.2 C 1.6 km/h
1177 26-12-2019 02:00:00 5.2 C 6.61 g/m*3 5.2 C 3.2 km/h
1178 26-12-2019 02:05:00 5.2 C 6.61 g/m*3 5.2 C 3.2 km/h
1179 26-12-2019 02:10:00 5.2 C 6.61 g/m*3 5.2 C 0 km/h
1180 26-12-2019 02:15:00 5.2 C 6.61 g/m*3 5.2 C 0 km/h
1181 26-12-2019 02:20:00 5.2 C 6.61 g/m*3 5.2 C 1.6 km/h
1182 26-12-2019 02:25:00 5.2 C 6.61 g/m*3 5.2 C 0 km/h
1183 26-12-2019 02:30:00 5.1 C 6.57 g/m*3 5.1 C 0 km/h
1184 26-12-2019 02:35:00 5 C 6.52 g/m*3 5 C 0 km/h
1185 26-12-2019 02:40:00 4.9 C 6.48 g/m*3 4.9 C 1.6 km/h
1186 26-12-2019 02:45:00 4.9 C 6.48 g/m*3 4.9 C 0 km/h
1187 26-12-2019 02:50:00 4.9 C 6.48 g/m*3 4.9 C 1.6 km/h
1188 26-12-2019 02:55:00 4.9 C 6.48 g/m*3 4.9 C 1.6 km/h
1189 26-12-2019 03:00:00 5 C 6.52 g/m*3 5 C 0 km/h
1190 26-12-2019 03:05:00 5 C 6.52 g/m*3 5 C 0 km/h
1191 26-12-2019 03:10:00 5 C 6.52 g/m*3 5 C 0 km/h
1192 26-12-2019 03:15:00 5 C 6.52 g/m*3 5 C 0 km/h
1193 26-12-2019 03:20:00 5 C 6.52 g/m*3 5 C 0 km/h
1194 26-12-2019 03:25:00 5 C 6.52 g/m*3 5 C 0 km/h
1195 26-12-2019 03:30:00 4.9 C 6.48 g/m*3 4.9 C 0 km/h
1196 26-12-2019 03:35:00 4.9 C 6.48 g/m*3 4.9 C 0 km/h
1197 26-12-2019 03:40:00 4.9 C 6.48 g/m*3 4.9 C 0 km/h
1198 26-12-2019 03:45:00 4.9 C 6.48 g/m*3 4.9 C 3.2 km/h
1199 26-12-2019 03:50:00 4.9 C 6.48 g/m*3 4.9 C 0 km/h
1200 26-12-2019 03:55:00 4.8 C 6.44 g/m*3 4.8 C 0 km/h
Sensor: Nr:Datum:Temp:Abs-Feuchte:Windchill:Wind:
Aussen-T/F 1201 26-12-2019 04:00:00 4.8 C 6.44 g/m*3 4.8 C 0 km/h
1202 26-12-2019 04:05:00 4.7 C 6.39 g/m*3 4.7 C 0 km/h
1203 26-12-2019 04:10:00 4.6 C 6.35 g/m*3 4.6 C 1.6 km/h
1204 26-12-2019 04:15:00 4.6 C 6.35 g/m*3 4.6 C 1.6 km/h
1205 26-12-2019 04:20:00 4.5 C 6.31 g/m*3 4.5 C 0 km/h
1206 26-12-2019 04:25:00 4.5 C 6.31 g/m*3 4.5 C 0 km/h
1207 26-12-2019 04:30:00 4.4 C 6.27 g/m*3 4.4 C 0 km/h
1208 26-12-2019 04:35:00 4.3 C 6.23 g/m*3 4.3 C 1.6 km/h
1209 26-12-2019 04:40:00 4.2 C 6.19 g/m*3 4.2 C 3.2 km/h
1210 26-12-2019 04:45:00 4.1 C 6.14 g/m*3 4.1 C 0 km/h
1211 26-12-2019 04:50:00 4.1 C 6.14 g/m*3 4.1 C 0 km/h
1212 26-12-2019 04:55:00 4 C 6.1 g/m*3 4 C 0 km/h
1213 26-12-2019 05:00:00 4.1 C 6.14 g/m*3 4.1 C 0 km/h
1214 26-12-2019 05:05:00 4.1 C 6.14 g/m*3 4.1 C 1.6 km/h
1215 26-12-2019 05:10:00 4.2 C 6.25 g/m*3 4.2 C 0 km/h
1216 26-12-2019 05:15:00 4.2 C 6.25 g/m*3 4.2 C 0 km/h
1217 26-12-2019 05:20:00 4.3 C 6.29 g/m*3 4.3 C 0 km/h
1218 26-12-2019 05:25:00 4.3 C 6.29 g/m*3 4.3 C 0 km/h
1219 26-12-2019 05:30:00 4.3 C 6.29 g/m*3 4.3 C 0 km/h
1220 26-12-2019 05:35:00 4.4 C 6.33 g/m*3 4.4 C 0 km/h
1221 26-12-2019 05:40:00 4.3 C 6.29 g/m*3 4.3 C 0 km/h
1222 26-12-2019 05:45:00 4.3 C 6.29 g/m*3 4.3 C 0 km/h
1223 26-12-2019 05:50:00 4.3 C 6.29 g/m*3 4.3 C 0 km/h
1224 26-12-2019 05:55:00 4.3 C 6.29 g/m*3 4.3 C 0 km/h
1225 26-12-2019 06:00:00 4.3 C 6.29 g/m*3 4.3 C 0 km/h
Sensor: Nr:Datum:Temp:Abs-Feuchte:Windchill:Wind:
Aussen-T/F 1226 26-12-2019 06:05:00 4.3 C 6.29 g/m*3 4.3 C 0 km/h
1227 26-12-2019 06:10:00 4.3 C 6.29 g/m*3 4.3 C 0 km/h
1228 26-12-2019 06:15:00 4.3 C 6.29 g/m*3 4.3 C 0 km/h
1229 26-12-2019 06:20:00 4.3 C 6.29 g/m*3 4.3 C 0 km/h
1230 26-12-2019 06:25:00 4.3 C 6.29 g/m*3 4.3 C 0 km/h
1231 26-12-2019 06:30:00 4.3 C 6.29 g/m*3 4.3 C 0 km/h
1232 26-12-2019 06:35:00 4.3 C 6.29 g/m*3 4.3 C 0 km/h
1233 26-12-2019 06:40:00 4.3 C 6.29 g/m*3 4.3 C 0 km/h
1234 26-12-2019 06:45:00 4.4 C 6.33 g/m*3 4.4 C 0 km/h
1235 26-12-2019 06:50:00 4.4 C 6.33 g/m*3 4.4 C 0 km/h
1236 26-12-2019 06:55:00 4.4 C 6.33 g/m*3 4.4 C 0 km/h
1237 26-12-2019 07:00:00 4.4 C 6.33 g/m*3 4.4 C 0 km/h
1238 26-12-2019 07:05:00 4.4 C 6.33 g/m*3 4.4 C 0 km/h
1239 26-12-2019 07:10:00 4.4 C 6.33 g/m*3 4.4 C 0 km/h
1240 26-12-2019 07:15:00 4.3 C 6.29 g/m*3 4.3 C 0 km/h
1241 26-12-2019 07:20:00 4.3 C 6.29 g/m*3 4.3 C 0 km/h
1242 26-12-2019 07:25:00 4.3 C 6.29 g/m*3 4.3 C 0 km/h
1243 26-12-2019 07:30:00 4.3 C 6.29 g/m*3 4.3 C 0 km/h
1244 26-12-2019 07:35:00 4.3 C 6.29 g/m*3 4.3 C 0 km/h
1245 26-12-2019 07:40:00 4.3 C 6.29 g/m*3 4.3 C 0 km/h
1246 26-12-2019 07:45:00 4.3 C 6.29 g/m*3 4.3 C 0 km/h
1247 26-12-2019 07:50:00 4.3 C 6.29 g/m*3 4.3 C 0 km/h
1248 26-12-2019 07:55:00 4.3 C 6.29 g/m*3 4.3 C 0 km/h
1249 26-12-2019 08:00:00 4.2 C 6.25 g/m*3 4.2 C 0 km/h
1250 26-12-2019 08:05:00 4.2 C 6.25 g/m*3 4.2 C 0 km/h
Sensor: Nr:Datum:Temp:Abs-Feuchte:Windchill:Wind:
Aussen-T/F 1251 26-12-2019 08:10:00 4.2 C 6.25 g/m*3 4.2 C 0 km/h
1252 26-12-2019 08:15:00 4.2 C 6.25 g/m*3 4.2 C 0 km/h
1253 26-12-2019 08:20:00 4.2 C 6.25 g/m*3 4.2 C 0 km/h
1254 26-12-2019 08:25:00 4.2 C 6.25 g/m*3 4.2 C 0 km/h
1255 26-12-2019 08:30:00 4.2 C 6.25 g/m*3 4.2 C 0 km/h
1256 26-12-2019 08:35:00 4.2 C 6.25 g/m*3 4.2 C 0 km/h
1257 26-12-2019 08:40:00 4.3 C 6.29 g/m*3 4.3 C 0 km/h
1258 26-12-2019 08:45:00 4.3 C 6.29 g/m*3 4.3 C 0 km/h
1259 26-12-2019 08:50:00 4.3 C 6.29 g/m*3 4.3 C 0 km/h
1260 26-12-2019 08:55:00 4.3 C 6.29 g/m*3 4.3 C 0 km/h
1261 26-12-2019 09:00:00 4.3 C 6.29 g/m*3 4.3 C 0 km/h
1262 26-12-2019 09:05:00 4.3 C 6.29 g/m*3 4.3 C 0 km/h
1263 26-12-2019 09:10:00 4.3 C 6.29 g/m*3 4.3 C 0 km/h
1264 26-12-2019 09:15:00 4.3 C 6.29 g/m*3 4.3 C 0 km/h
1265 26-12-2019 09:20:00 4.3 C 6.29 g/m*3 4.3 C 0 km/h
1266 26-12-2019 09:25:00 4.3 C 6.29 g/m*3 4.3 C 0 km/h
1267 26-12-2019 09:30:00 4.3 C 6.29 g/m*3 4.3 C 0 km/h
1268 26-12-2019 09:35:00 4.4 C 6.33 g/m*3 4.4 C 0 km/h
1269 26-12-2019 09:40:00 4.4 C 6.33 g/m*3 4.4 C 0 km/h
1270 26-12-2019 09:45:00 4.4 C 6.33 g/m*3 4.4 C 0 km/h
1271 26-12-2019 09:50:00 4.4 C 6.33 g/m*3 4.4 C 0 km/h
1272 26-12-2019 09:55:00 4.5 C 6.38 g/m*3 4.5 C 0 km/h
1273 26-12-2019 10:00:00 4.5 C 6.38 g/m*3 4.5 C 0 km/h
1274 26-12-2019 10:05:00 4.5 C 6.38 g/m*3 4.5 C 0 km/h
1275 26-12-2019 10:10:00 4.5 C 6.38 g/m*3 4.5 C 0 km/h
Sensor: Nr:Datum:Temp:Abs-Feuchte:Windchill:Wind:
Aussen-T/F 1276 26-12-2019 10:15:00 4.5 C 6.38 g/m*3 4.5 C 0 km/h
1277 26-12-2019 10:20:00 4.6 C 6.42 g/m*3 4.6 C 0 km/h
1278 26-12-2019 10:25:00 4.6 C 6.42 g/m*3 4.6 C 0 km/h
1279 26-12-2019 10:30:00 4.6 C 6.42 g/m*3 4.6 C 0 km/h
1280 26-12-2019 10:35:00 4.7 C 6.46 g/m*3 4.7 C 0 km/h
1281 26-12-2019 10:40:00 4.8 C 6.5 g/m*3 4.8 C 0 km/h
1282 26-12-2019 10:45:00 4.8 C 6.5 g/m*3 4.8 C 0 km/h
1283 26-12-2019 10:50:00 4.9 C 6.55 g/m*3 4.9 C 0 km/h
1284 26-12-2019 10:55:00 4.9 C 6.55 g/m*3 4.9 C 0 km/h
1285 26-12-2019 11:00:00 5.1 C 6.63 g/m*3 5.1 C 0 km/h
1286 26-12-2019 11:05:00 5.1 C 6.63 g/m*3 5.1 C 0 km/h
1287 26-12-2019 11:10:00 5.2 C 6.68 g/m*3 5.2 C 0 km/h
1288 26-12-2019 11:15:00 5.3 C 6.72 g/m*3 5.3 C 0 km/h
1289 26-12-2019 11:20:00 5.4 C 6.77 g/m*3 5.4 C 1.6 km/h
1290 26-12-2019 11:25:00 5.6 C 6.86 g/m*3 5.6 C 0 km/h
1291 26-12-2019 11:30:00 5.6 C 6.86 g/m*3 5.6 C 0 km/h
1292 26-12-2019 11:35:00 5.7 C 6.9 g/m*3 5.7 C 0 km/h
1293 26-12-2019 11:40:00 5.7 C 6.9 g/m*3 5.7 C 0 km/h
1294 26-12-2019 11:45:00 5.7 C 6.9 g/m*3 5.7 C 0 km/h
1295 26-12-2019 11:50:00 5.8 C 6.95 g/m*3 5.8 C 0 km/h
1296 26-12-2019 11:55:00 5.8 C 6.95 g/m*3 5.8 C 0 km/h
1297 26-12-2019 12:00:00 5.7 C 6.9 g/m*3 5.7 C 0 km/h
1298 26-12-2019 12:05:00 5.8 C 6.95 g/m*3 5.8 C 0 km/h
1299 26-12-2019 12:10:00 5.7 C 6.9 g/m*3 5.7 C 0 km/h
1300 26-12-2019 12:15:00 5.8 C 6.95 g/m*3 5.8 C 0 km/h
Sensor: Nr:Datum:Temp:Abs-Feuchte:Windchill:Wind:
Aussen-T/F 1301 26-12-2019 12:20:00 5.7 C 6.9 g/m*3 5.7 C 0 km/h
1302 26-12-2019 12:25:00 5.8 C 6.95 g/m*3 5.8 C 0 km/h
1303 26-12-2019 12:30:00 5.9 C 6.99 g/m*3 5.9 C 0 km/h
1304 26-12-2019 12:35:00 5.9 C 6.99 g/m*3 5.9 C 0 km/h
1305 26-12-2019 12:40:00 6 C 7.04 g/m*3 6 C 0 km/h
1306 26-12-2019 12:45:00 6.1 C 7.09 g/m*3 6.1 C 0 km/h
1307 26-12-2019 12:50:00 6.1 C 7.09 g/m*3 6.1 C 0 km/h
1308 26-12-2019 12:55:00 6.2 C 7.06 g/m*3 6.2 C 0 km/h
1309 26-12-2019 13:00:00 6.2 C 7.06 g/m*3 6.2 C 0 km/h
1310 26-12-2019 13:05:00 6.2 C 7.06 g/m*3 6.2 C 0 km/h
1311 26-12-2019 13:10:00 6.3 C 7.11 g/m*3 6.3 C 0 km/h
1312 26-12-2019 13:15:00 6.3 C 7.11 g/m*3 6.3 C 0 km/h
1313 26-12-2019 13:20:00 6.3 C 7.11 g/m*3 6.3 C 0 km/h
1314 26-12-2019 13:25:00 6.3 C 7.11 g/m*3 6.3 C 0 km/h
1315 26-12-2019 13:30:00 6.3 C 7.11 g/m*3 6.3 C 0 km/h
1316 26-12-2019 13:35:00 6.3 C 7.11 g/m*3 6.3 C 0 km/h
1317 26-12-2019 13:40:00 6.3 C 7.11 g/m*3 6.3 C 0 km/h
1318 26-12-2019 13:45:00 6.3 C 7.11 g/m*3 6.3 C 0 km/h
1319 26-12-2019 13:50:00 6.2 C 7.06 g/m*3 6.2 C 0 km/h
1320 26-12-2019 13:55:00 6.2 C 7.06 g/m*3 6.2 C 0 km/h
1321 26-12-2019 14:00:00 6.2 C 7.06 g/m*3 6.2 C 0 km/h
1322 26-12-2019 14:05:00 6.2 C 7.06 g/m*3 6.2 C 0 km/h
1323 26-12-2019 14:10:00 6.2 C 7.06 g/m*3 6.2 C 0 km/h
1324 26-12-2019 14:15:00 6.3 C 7.11 g/m*3 6.3 C 0 km/h
1325 26-12-2019 14:20:00 6.3 C 7.11 g/m*3 6.3 C 0 km/h
Sensor: Nr:Datum:Temp:Abs-Feuchte:Windchill:Wind:
Aussen-T/F 1326 26-12-2019 14:25:00 6.3 C 7.11 g/m*3 6.3 C 0 km/h
1327 26-12-2019 14:30:00 6.3 C 7.03 g/m*3 6.3 C 0 km/h
1328 26-12-2019 14:35:00 6.3 C 7.03 g/m*3 6.3 C 0 km/h
1329 26-12-2019 14:40:00 6.3 C 7.03 g/m*3 6.3 C 0 km/h
1330 26-12-2019 14:45:00 6.3 C 7.03 g/m*3 6.3 C 0 km/h
1331 26-12-2019 14:50:00 6.3 C 7.03 g/m*3 6.3 C 0 km/h
1332 26-12-2019 14:55:00 6.3 C 7.03 g/m*3 6.3 C 0 km/h
1333 26-12-2019 15:00:00 6.3 C 7.03 g/m*3 6.3 C 0 km/h
1334 26-12-2019 15:05:00 6.2 C 6.99 g/m*3 6.2 C 0 km/h
1335 26-12-2019 15:10:00 6.2 C 6.99 g/m*3 6.2 C 0 km/h
1336 26-12-2019 15:15:00 6.2 C 6.99 g/m*3 6.2 C 0 km/h
1337 26-12-2019 15:20:00 6.1 C 6.94 g/m*3 6.1 C 0 km/h
1338 26-12-2019 15:25:00 6.1 C 6.94 g/m*3 6.1 C 0 km/h
1339 26-12-2019 15:30:00 6 C 6.9 g/m*3 6 C 0 km/h
1340 26-12-2019 15:35:00 5.9 C 6.85 g/m*3 5.9 C 0 km/h
1341 26-12-2019 15:40:00 5.8 C 6.81 g/m*3 5.8 C 0 km/h
1342 26-12-2019 15:45:00 5.8 C 6.81 g/m*3 5.8 C 0 km/h
1343 26-12-2019 15:50:00 5.8 C 6.81 g/m*3 5.8 C 0 km/h
1344 26-12-2019 15:55:00 5.7 C 6.76 g/m*3 5.7 C 0 km/h
1345 26-12-2019 16:00:00 5.6 C 6.72 g/m*3 5.6 C 0 km/h
1346 26-12-2019 16:05:00 5.6 C 6.72 g/m*3 5.6 C 0 km/h
1347 26-12-2019 16:10:00 5.5 C 6.67 g/m*3 5.5 C 0 km/h
1348 26-12-2019 16:15:00 5.4 C 6.63 g/m*3 5.4 C 0 km/h
1349 26-12-2019 16:20:00 5.3 C 6.58 g/m*3 5.3 C 0 km/h
1350 26-12-2019 16:25:00 5.3 C 6.58 g/m*3 5.3 C 0 km/h
Sensor: Nr:Datum:Temp:Abs-Feuchte:Windchill:Wind:
Aussen-T/F 1351 26-12-2019 16:30:00 5.3 C 6.58 g/m*3 5.3 C 0 km/h
1352 26-12-2019 16:35:00 5.3 C 6.58 g/m*3 5.3 C 0 km/h
1353 26-12-2019 16:40:00 5.2 C 6.54 g/m*3 5.2 C 0 km/h
1354 26-12-2019 16:45:00 5.2 C 6.54 g/m*3 5.2 C 0 km/h
1355 26-12-2019 16:50:00 5.2 C 6.61 g/m*3 5.2 C 0 km/h
1356 26-12-2019 16:55:00 5.2 C 6.61 g/m*3 5.2 C 0 km/h
1357 26-12-2019 17:00:00 5.2 C 6.61 g/m*3 5.2 C 0 km/h
1358 26-12-2019 17:05:00 5.1 C 6.57 g/m*3 5.1 C 0 km/h
1359 26-12-2019 17:10:00 5.1 C 6.57 g/m*3 5.1 C 0 km/h
1360 26-12-2019 17:15:00 5.1 C 6.57 g/m*3 5.1 C 0 km/h
1361 26-12-2019 17:20:00 5.1 C 6.57 g/m*3 5.1 C 0 km/h
1362 26-12-2019 17:25:00 5.1 C 6.57 g/m*3 5.1 C 0 km/h
1363 26-12-2019 17:30:00 5 C 6.52 g/m*3 5 C 0 km/h
1364 26-12-2019 17:35:00 5 C 6.52 g/m*3 5 C 0 km/h
1365 26-12-2019 17:40:00 5 C 6.52 g/m*3 5 C 3.2 km/h
1366 26-12-2019 17:45:00 4.9 C 6.48 g/m*3 4.9 C 0 km/h
1367 26-12-2019 17:50:00 4.9 C 6.48 g/m*3 4.9 C 0 km/h
1368 26-12-2019 17:55:00 4.9 C 6.48 g/m*3 4.9 C 0 km/h
1369 26-12-2019 18:00:00 4.9 C 6.48 g/m*3 4.9 C 0 km/h
1370 26-12-2019 18:05:00 4.9 C 6.48 g/m*3 4.9 C 0 km/h
1371 26-12-2019 18:10:00 4.8 C 6.44 g/m*3 4.8 C 0 km/h
1372 26-12-2019 18:15:00 4.8 C 6.44 g/m*3 4.8 C 0 km/h
1373 26-12-2019 18:20:00 4.8 C 6.44 g/m*3 4.8 C 0 km/h
1374 26-12-2019 18:25:00 4.8 C 6.44 g/m*3 4.8 C 0 km/h
1375 26-12-2019 18:30:00 4.8 C 6.44 g/m*3 4.8 C 0 km/h
Sensor: Nr:Datum:Temp:Abs-Feuchte:Windchill:Wind:
Aussen-T/F 1376 26-12-2019 18:35:00 4.8 C 6.44 g/m*3 4.8 C 0 km/h
1377 26-12-2019 18:40:00 4.8 C 6.44 g/m*3 4.8 C 0 km/h
1378 26-12-2019 18:45:00 4.8 C 6.44 g/m*3 4.8 C 0 km/h
1379 26-12-2019 18:50:00 4.8 C 6.44 g/m*3 4.8 C 0 km/h
1380 26-12-2019 18:55:00 4.8 C 6.44 g/m*3 4.8 C 0 km/h
1381 26-12-2019 19:00:00 4.8 C 6.44 g/m*3 4.8 C 0 km/h
1382 26-12-2019 19:05:00 4.8 C 6.44 g/m*3 4.8 C 1.6 km/h
1383 26-12-2019 19:10:00 4.8 C 6.44 g/m*3 4.8 C 0 km/h
1384 26-12-2019 19:15:00 4.8 C 6.44 g/m*3 4.8 C 0 km/h
1385 26-12-2019 19:20:00 4.8 C 6.44 g/m*3 4.8 C 0 km/h
1386 26-12-2019 19:25:00 4.8 C 6.44 g/m*3 4.8 C 0 km/h
1387 26-12-2019 19:30:00 4.7 C 6.39 g/m*3 4.7 C 0 km/h
1388 26-12-2019 19:35:00 4.7 C 6.39 g/m*3 4.7 C 0 km/h
1389 26-12-2019 19:40:00 4.7 C 6.39 g/m*3 4.7 C 0 km/h
1390 26-12-2019 19:45:00 4.7 C 6.39 g/m*3 4.7 C 0 km/h
1391 26-12-2019 19:50:00 4.7 C 6.39 g/m*3 4.7 C 0 km/h
1392 26-12-2019 19:55:00 4.6 C 6.35 g/m*3 4.6 C 0 km/h
1393 26-12-2019 20:00:00 4.6 C 6.35 g/m*3 4.6 C 0 km/h
1394 26-12-2019 20:05:00 4.6 C 6.35 g/m*3 4.6 C 3.2 km/h
1395 26-12-2019 20:10:00 4.7 C 6.39 g/m*3 4.7 C 0 km/h
1396 26-12-2019 20:15:00 4.7 C 6.39 g/m*3 4.7 C 0 km/h
1397 26-12-2019 20:20:00 4.7 C 6.39 g/m*3 4.7 C 0 km/h
1398 26-12-2019 20:25:00 4.7 C 6.39 g/m*3 4.7 C 0 km/h
1399 26-12-2019 20:30:00 4.8 C 6.44 g/m*3 4.8 C 0 km/h
1400 26-12-2019 20:35:00 4.7 C 6.39 g/m*3 4.7 C 0 km/h
Sensor: Nr:Datum:Temp:Abs-Feuchte:Windchill:Wind:
Aussen-T/F 1401 26-12-2019 20:40:00 4.8 C 6.44 g/m*3 4.8 C 0 km/h
1402 26-12-2019 20:45:00 4.7 C 6.39 g/m*3 4.7 C 0 km/h
1403 26-12-2019 20:50:00 4.8 C 6.44 g/m*3 4.8 C 0 km/h
1404 26-12-2019 20:55:00 4.8 C 6.44 g/m*3 4.8 C 0 km/h
1405 26-12-2019 21:00:00 4.7 C 6.39 g/m*3 4.7 C 1.6 km/h
1406 26-12-2019 21:05:00 4.8 C 6.44 g/m*3 4.8 C 0 km/h
1407 26-12-2019 21:10:00 4.8 C 6.44 g/m*3 4.8 C 0 km/h
1408 26-12-2019 21:15:00 4.8 C 6.44 g/m*3 4.8 C 0 km/h
1409 26-12-2019 21:20:00 4.8 C 6.44 g/m*3 4.8 C 0 km/h
1410 26-12-2019 21:25:00 4.8 C 6.44 g/m*3 4.8 C 0 km/h
1411 26-12-2019 21:30:00 4.8 C 6.44 g/m*3 4.8 C 0 km/h
1412 26-12-2019 21:35:00 4.8 C 6.44 g/m*3 4.8 C 1.6 km/h
1413 26-12-2019 21:40:00 4.8 C 6.44 g/m*3 4.8 C 3.2 km/h
1414 26-12-2019 21:45:00 4.8 C 6.44 g/m*3 4.8 C 0 km/h
1415 26-12-2019 21:50:00 4.8 C 6.44 g/m*3 4.8 C 0 km/h
1416 26-12-2019 21:55:00 4.8 C 6.44 g/m*3 4.8 C 0 km/h
1417 26-12-2019 22:00:00 4.8 C 6.44 g/m*3 4.8 C 0 km/h
1418 26-12-2019 22:05:00 4.9 C 6.48 g/m*3 4.9 C 0 km/h
1419 26-12-2019 22:10:00 4.9 C 6.48 g/m*3 4.9 C 0 km/h
1420 26-12-2019 22:15:00 4.9 C 6.48 g/m*3 4.9 C 0 km/h
1421 26-12-2019 22:20:00 4.9 C 6.48 g/m*3 4.9 C 1.6 km/h
1422 26-12-2019 22:25:00 4.9 C 6.48 g/m*3 4.9 C 0 km/h
1423 26-12-2019 22:30:00 4.9 C 6.48 g/m*3 4.9 C 0 km/h
1424 26-12-2019 22:35:00 4.9 C 6.48 g/m*3 4.9 C 0 km/h
1425 26-12-2019 22:40:00 4.9 C 6.48 g/m*3 4.9 C 0 km/h
Sensor: Nr:Datum:Temp:Abs-Feuchte:Windchill:Wind:
Aussen-T/F 1426 26-12-2019 22:45:00 4.9 C 6.48 g/m*3 4.9 C 0 km/h
1427 26-12-2019 22:50:00 4.9 C 6.48 g/m*3 4.9 C 0 km/h
1428 26-12-2019 22:55:00 4.9 C 6.48 g/m*3 4.9 C 0 km/h
1429 26-12-2019 23:00:00 4.9 C 6.48 g/m*3 4.9 C 0 km/h
1430 26-12-2019 23:05:00 4.9 C 6.48 g/m*3 4.9 C 3.2 km/h
1431 26-12-2019 23:10:00 4.9 C 6.48 g/m*3 4.9 C 0 km/h
1432 26-12-2019 23:15:00 4.9 C 6.48 g/m*3 4.9 C 0 km/h
1433 26-12-2019 23:20:00 4.9 C 6.48 g/m*3 4.9 C 0 km/h
1434 26-12-2019 23:25:00 4.9 C 6.48 g/m*3 4.9 C 0 km/h
1435 26-12-2019 23:30:00 4.9 C 6.48 g/m*3 4.9 C 1.6 km/h
1436 26-12-2019 23:35:00 4.9 C 6.48 g/m*3 4.9 C 0 km/h
1437 26-12-2019 23:40:00 4.9 C 6.48 g/m*3 4.9 C 0 km/h
1438 26-12-2019 23:45:00 4.9 C 6.48 g/m*3 4.9 C 0 km/h
1439 26-12-2019 23:50:00 4.9 C 6.48 g/m*3 4.9 C 0 km/h
1440 26-12-2019 23:55:00 4.9 C 6.48 g/m*3 4.9 C 0 km/h
1441 27-12-2019 00:00:00 4.9 C 6.48 g/m*3 4.9 C 0 km/h
1442 27-12-2019 00:05:00 4.9 C 6.48 g/m*3 4.9 C 0 km/h
1443 27-12-2019 00:10:00 4.9 C 6.48 g/m*3 4.9 C 0 km/h
1444 27-12-2019 00:15:00 4.9 C 6.48 g/m*3 4.9 C 0 km/h
1445 27-12-2019 00:20:00 4.9 C 6.48 g/m*3 4.9 C 0 km/h
1446 27-12-2019 00:25:00 4.9 C 6.48 g/m*3 4.9 C 0 km/h
1447 27-12-2019 00:30:00 4.9 C 6.48 g/m*3 4.9 C 0 km/h
1448 27-12-2019 00:35:00 4.9 C 6.48 g/m*3 4.9 C 0 km/h
1449 27-12-2019 00:40:00 4.9 C 6.48 g/m*3 4.9 C 0 km/h
1450 27-12-2019 00:45:00 4.9 C 6.48 g/m*3 4.9 C 0 km/h
Sensor: Nr:Datum:Temp:Abs-Feuchte:Windchill:Wind:
Aussen-T/F 1451 27-12-2019 00:50:00 4.9 C 6.55 g/m*3 4.9 C 0 km/h
1452 27-12-2019 00:55:00 4.9 C 6.55 g/m*3 4.9 C 0 km/h
1453 27-12-2019 01:00:00 4.9 C 6.55 g/m*3 4.9 C 0 km/h
1454 27-12-2019 01:05:00 4.9 C 6.55 g/m*3 4.9 C 0 km/h
1455 27-12-2019 01:10:00 4.9 C 6.55 g/m*3 4.9 C 0 km/h
1456 27-12-2019 01:15:00 4.9 C 6.55 g/m*3 4.9 C 0 km/h
1457 27-12-2019 01:20:00 4.9 C 6.55 g/m*3 4.9 C 0 km/h
1458 27-12-2019 01:25:00 4.9 C 6.55 g/m*3 4.9 C 0 km/h
1459 27-12-2019 01:30:00 4.9 C 6.55 g/m*3 4.9 C 0 km/h
1460 27-12-2019 01:35:00 4.9 C 6.55 g/m*3 4.9 C 0 km/h
1461 27-12-2019 01:40:00 4.9 C 6.55 g/m*3 4.9 C 0 km/h
1462 27-12-2019 01:45:00 4.9 C 6.55 g/m*3 4.9 C 0 km/h
1463 27-12-2019 01:50:00 5 C 6.59 g/m*3 5 C 0 km/h
1464 27-12-2019 01:55:00 5 C 6.59 g/m*3 5 C 0 km/h
1465 27-12-2019 02:00:00 5 C 6.59 g/m*3 5 C 0 km/h
1466 27-12-2019 02:05:00 5 C 6.59 g/m*3 5 C 0 km/h
1467 27-12-2019 02:10:00 5 C 6.59 g/m*3 5 C 0 km/h
1468 27-12-2019 02:15:00 5 C 6.59 g/m*3 5 C 0 km/h
1469 27-12-2019 02:20:00 5 C 6.59 g/m*3 5 C 0 km/h
1470 27-12-2019 02:25:00 5 C 6.59 g/m*3 5 C 0 km/h
1471 27-12-2019 02:30:00 5 C 6.59 g/m*3 5 C 0 km/h
1472 27-12-2019 02:35:00 5 C 6.59 g/m*3 5 C 0 km/h
1473 27-12-2019 02:40:00 4.9 C 6.55 g/m*3 4.9 C 0 km/h
1474 27-12-2019 02:45:00 4.9 C 6.55 g/m*3 4.9 C 0 km/h
1475 27-12-2019 02:50:00 5 C 6.59 g/m*3 5 C 0 km/h
Sensor: Nr:Datum:Temp:Abs-Feuchte:Windchill:Wind:
Aussen-T/F 1476 27-12-2019 02:55:00 5 C 6.59 g/m*3 5 C 0 km/h
1477 27-12-2019 03:00:00 5 C 6.59 g/m*3 5 C 0 km/h
1478 27-12-2019 03:05:00 5 C 6.59 g/m*3 5 C 0 km/h
1479 27-12-2019 03:10:00 5.1 C 6.63 g/m*3 5.1 C 0 km/h
1480 27-12-2019 03:15:00 5.1 C 6.63 g/m*3 5.1 C 0 km/h
1481 27-12-2019 03:20:00 5.1 C 6.63 g/m*3 5.1 C 0 km/h
1482 27-12-2019 03:25:00 5.1 C 6.63 g/m*3 5.1 C 0 km/h
1483 27-12-2019 03:30:00 5.1 C 6.63 g/m*3 5.1 C 0 km/h
1484 27-12-2019 03:35:00 5.1 C 6.63 g/m*3 5.1 C 0 km/h
1485 27-12-2019 03:40:00 5.1 C 6.63 g/m*3 5.1 C 0 km/h
1486 27-12-2019 03:45:00 5.1 C 6.63 g/m*3 5.1 C 0 km/h
1487 27-12-2019 03:50:00 5.1 C 6.63 g/m*3 5.1 C 0 km/h
1488 27-12-2019 03:55:00 5.1 C 6.63 g/m*3 5.1 C 0 km/h
1489 27-12-2019 04:00:00 5.1 C 6.63 g/m*3 5.1 C 0 km/h
1490 27-12-2019 04:05:00 5.1 C 6.63 g/m*3 5.1 C 0 km/h
1491 27-12-2019 04:10:00 5.1 C 6.63 g/m*3 5.1 C 0 km/h
1492 27-12-2019 04:15:00 5.1 C 6.63 g/m*3 5.1 C 0 km/h
1493 27-12-2019 04:20:00 5.1 C 6.63 g/m*3 5.1 C 0 km/h
1494 27-12-2019 04:25:00 5.2 C 6.68 g/m*3 5.2 C 0 km/h
1495 27-12-2019 04:30:00 5.2 C 6.68 g/m*3 5.2 C 0 km/h
1496 27-12-2019 04:35:00 5.2 C 6.68 g/m*3 5.2 C 0 km/h
1497 27-12-2019 04:40:00 5.2 C 6.68 g/m*3 5.2 C 0 km/h
1498 27-12-2019 04:45:00 5.2 C 6.68 g/m*3 5.2 C 0 km/h
1499 27-12-2019 04:50:00 5.2 C 6.68 g/m*3 5.2 C 0 km/h
1500 27-12-2019 04:55:00 5.2 C 6.68 g/m*3 5.2 C 0 km/h
Sensor: Nr:Datum:Temp:Abs-Feuchte:Windchill:Wind:
Aussen-T/F 1501 27-12-2019 05:00:00 5.2 C 6.68 g/m*3 5.2 C 0 km/h
1502 27-12-2019 05:05:00 5.2 C 6.68 g/m*3 5.2 C 0 km/h
1503 27-12-2019 05:10:00 5.2 C 6.68 g/m*3 5.2 C 0 km/h
1504 27-12-2019 05:15:00 5.2 C 6.68 g/m*3 5.2 C 0 km/h
1505 27-12-2019 05:20:00 5.2 C 6.68 g/m*3 5.2 C 0 km/h
1506 27-12-2019 05:25:00 5.2 C 6.68 g/m*3 5.2 C 0 km/h
1507 27-12-2019 05:30:00 5.2 C 6.68 g/m*3 5.2 C 0 km/h
1508 27-12-2019 05:35:00 5.2 C 6.68 g/m*3 5.2 C 0 km/h
1509 27-12-2019 05:40:00 5.2 C 6.68 g/m*3 5.2 C 0 km/h
1510 27-12-2019 05:45:00 5.2 C 6.68 g/m*3 5.2 C 0 km/h
1511 27-12-2019 05:50:00 5.2 C 6.68 g/m*3 5.2 C 0 km/h
1512 27-12-2019 05:55:00 5.2 C 6.68 g/m*3 5.2 C 0 km/h
1513 27-12-2019 06:00:00 5.2 C 6.68 g/m*3 5.2 C 0 km/h
1514 27-12-2019 06:05:00 5.3 C 6.72 g/m*3 5.3 C 0 km/h
1515 27-12-2019 06:10:00 5.3 C 6.72 g/m*3 5.3 C 0 km/h
1516 27-12-2019 06:15:00 5.3 C 6.72 g/m*3 5.3 C 0 km/h
1517 27-12-2019 06:20:00 5.3 C 6.72 g/m*3 5.3 C 0 km/h
1518 27-12-2019 06:25:00 5.3 C 6.72 g/m*3 5.3 C 0 km/h
1519 27-12-2019 06:30:00 5.3 C 6.72 g/m*3 5.3 C 0 km/h
1520 27-12-2019 06:35:00 5.3 C 6.72 g/m*3 5.3 C 0 km/h
1521 27-12-2019 06:40:00 5.3 C 6.72 g/m*3 5.3 C 0 km/h
1522 27-12-2019 06:45:00 5.3 C 6.72 g/m*3 5.3 C 0 km/h
1523 27-12-2019 06:50:00 5.3 C 6.72 g/m*3 5.3 C 0 km/h
1524 27-12-2019 06:55:00 5.3 C 6.72 g/m*3 5.3 C 0 km/h
1525 27-12-2019 07:00:00 5.3 C 6.72 g/m*3 5.3 C 0 km/h
Sensor: Nr:Datum:Temp:Abs-Feuchte:Windchill:Wind:
Aussen-T/F 1526 27-12-2019 07:05:00 5.3 C 6.72 g/m*3 5.3 C 0 km/h
1527 27-12-2019 07:10:00 5.3 C 6.72 g/m*3 5.3 C 0 km/h
1528 27-12-2019 07:15:00 5.3 C 6.72 g/m*3 5.3 C 0 km/h
1529 27-12-2019 07:20:00 5.3 C 6.72 g/m*3 5.3 C 0 km/h
1530 27-12-2019 07:25:00 5.3 C 6.72 g/m*3 5.3 C 0 km/h
1531 27-12-2019 07:30:00 5.3 C 6.72 g/m*3 5.3 C 0 km/h
1532 27-12-2019 07:35:00 5.3 C 6.72 g/m*3 5.3 C 0 km/h
1533 27-12-2019 07:40:00 5.3 C 6.72 g/m*3 5.3 C 0 km/h
1534 27-12-2019 07:45:00 5.3 C 6.72 g/m*3 5.3 C 0 km/h
1535 27-12-2019 07:50:00 5.3 C 6.72 g/m*3 5.3 C 0 km/h
1536 27-12-2019 07:55:00 5.3 C 6.72 g/m*3 5.3 C 0 km/h
1537 27-12-2019 08:00:00 5.2 C 6.68 g/m*3 5.2 C 0 km/h
1538 27-12-2019 08:05:00 5.2 C 6.68 g/m*3 5.2 C 3.2 km/h
1539 27-12-2019 08:10:00 5.2 C 6.68 g/m*3 5.2 C 0 km/h
1540 27-12-2019 08:15:00 5.2 C 6.68 g/m*3 5.2 C 0 km/h
1541 27-12-2019 08:20:00 5.1 C 6.63 g/m*3 5.1 C 0 km/h
1542 27-12-2019 08:25:00 5.1 C 6.63 g/m*3 5.1 C 0 km/h
1543 27-12-2019 08:30:00 5.1 C 6.63 g/m*3 5.1 C 0 km/h
1544 27-12-2019 08:35:00 5.1 C 6.63 g/m*3 5.1 C 0 km/h
1545 27-12-2019 08:40:00 5.1 C 6.63 g/m*3 5.1 C 0 km/h
1546 27-12-2019 08:45:00 5.1 C 6.63 g/m*3 5.1 C 0 km/h
1547 27-12-2019 08:50:00 5.1 C 6.63 g/m*3 5.1 C 0 km/h
1548 27-12-2019 08:55:00 5.1 C 6.63 g/m*3 5.1 C 0 km/h
1549 27-12-2019 09:00:00 5.2 C 6.68 g/m*3 5.2 C 3.2 km/h
1550 27-12-2019 09:05:00 5.2 C 6.68 g/m*3 5.2 C 0 km/h
Sensor: Nr:Datum:Temp:Abs-Feuchte:Windchill:Wind:
Aussen-T/F 1551 27-12-2019 09:10:00 5.2 C 6.68 g/m*3 5.2 C 1.6 km/h
1552 27-12-2019 09:15:00 5.3 C 6.72 g/m*3 5.3 C 0 km/h
1553 27-12-2019 09:20:00 5.2 C 6.68 g/m*3 5.2 C 1.6 km/h
1554 27-12-2019 09:25:00 5.2 C 6.68 g/m*3 5.2 C 0 km/h
1555 27-12-2019 09:30:00 5.2 C 6.68 g/m*3 5.2 C 0 km/h
1556 27-12-2019 09:35:00 5.3 C 6.72 g/m*3 5.3 C 1.6 km/h
1557 27-12-2019 09:40:00 5.3 C 6.72 g/m*3 5.3 C 0 km/h
1558 27-12-2019 09:45:00 5.3 C 6.72 g/m*3 5.3 C 0 km/h
1559 27-12-2019 09:50:00 5.3 C 6.72 g/m*3 5.3 C 4.8 km/h
1560 27-12-2019 09:55:00 5.4 C 6.77 g/m*3 5.4 C 1.6 km/h
1561 27-12-2019 10:00:00 5.4 C 6.77 g/m*3 5.4 C 0 km/h
1562 27-12-2019 10:05:00 5.5 C 6.81 g/m*3 5.5 C 0 km/h
1563 27-12-2019 10:10:00 5.5 C 6.81 g/m*3 5.5 C 0 km/h
1564 27-12-2019 10:15:00 5.6 C 6.86 g/m*3 5.6 C 3.2 km/h
1565 27-12-2019 10:20:00 5.6 C 6.86 g/m*3 5.6 C 0 km/h
1566 27-12-2019 10:25:00 5.6 C 6.86 g/m*3 5.6 C 0 km/h
1567 27-12-2019 10:30:00 5.6 C 6.86 g/m*3 5.6 C 0 km/h
1568 27-12-2019 10:35:00 5.6 C 6.86 g/m*3 5.6 C 0 km/h
1569 27-12-2019 10:40:00 5.6 C 6.86 g/m*3 5.6 C 0 km/h
1570 27-12-2019 10:45:00 5.6 C 6.86 g/m*3 5.6 C 1.6 km/h
1571 27-12-2019 10:50:00 5.6 C 6.86 g/m*3 5.6 C 0 km/h
1572 27-12-2019 10:55:00 5.7 C 6.9 g/m*3 5.7 C 0 km/h
1573 27-12-2019 11:00:00 5.7 C 6.9 g/m*3 5.7 C 0 km/h
1574 27-12-2019 11:05:00 5.7 C 6.9 g/m*3 5.7 C 3.2 km/h
1575 27-12-2019 11:10:00 5.6 C 6.86 g/m*3 5.6 C 3.2 km/h
Sensor: Nr:Datum:Temp:Abs-Feuchte:Windchill:Wind:
Aussen-T/F 1576 27-12-2019 11:15:00 5.6 C 6.86 g/m*3 5.6 C 1.6 km/h
1577 27-12-2019 11:20:00 5.6 C 6.86 g/m*3 5.6 C 0 km/h
1578 27-12-2019 11:25:00 5.6 C 6.86 g/m*3 5.6 C 0 km/h
1579 27-12-2019 11:30:00 5.7 C 6.9 g/m*3 5.7 C 0 km/h
1580 27-12-2019 11:35:00 5.7 C 6.9 g/m*3 5.7 C 0 km/h
1581 27-12-2019 11:40:00 5.8 C 6.95 g/m*3 5.8 C 0 km/h
1582 27-12-2019 11:45:00 5.8 C 6.95 g/m*3 5.8 C 0 km/h
1583 27-12-2019 11:50:00 5.8 C 6.95 g/m*3 5.8 C 4.8 km/h
1584 27-12-2019 11:55:00 5.8 C 6.95 g/m*3 5.8 C 3.2 km/h
1585 27-12-2019 12:00:00 5.8 C 6.95 g/m*3 5.8 C 4.8 km/h
1586 27-12-2019 12:05:00 5.9 C 6.92 g/m*3 5.9 C 4.8 km/h
1587 27-12-2019 12:10:00 5.9 C 6.92 g/m*3 5.9 C 4.8 km/h
1588 27-12-2019 12:15:00 6 C 6.97 g/m*3 6 C 4.8 km/h
1589 27-12-2019 12:20:00 6.1 C 6.94 g/m*3 6.1 C 4.8 km/h
1590 27-12-2019 12:25:00 6.1 C 6.94 g/m*3 4.86 C 6.4 km/h
1591 27-12-2019 12:30:00 6.1 C 6.94 g/m*3 6.1 C 1.6 km/h
1592 27-12-2019 12:35:00 6.2 C 6.99 g/m*3 6.2 C 1.6 km/h
1593 27-12-2019 12:40:00 6.3 C 7.03 g/m*3 6.3 C 0 km/h
1594 27-12-2019 12:45:00 6.3 C 6.96 g/m*3 6.3 C 3.2 km/h
1595 27-12-2019 12:50:00 6.3 C 6.96 g/m*3 6.3 C 0 km/h
1596 27-12-2019 12:55:00 6.3 C 6.96 g/m*3 6.3 C 3.2 km/h
1597 27-12-2019 13:00:00 6.3 C 6.96 g/m*3 6.3 C 3.2 km/h
1598 27-12-2019 13:05:00 6.2 C 6.84 g/m*3 6.2 C 4.8 km/h
1599 27-12-2019 13:10:00 6.2 C 6.84 g/m*3 6.2 C 3.2 km/h
1600 27-12-2019 13:15:00 6.2 C 6.84 g/m*3 6.2 C 1.6 km/h
Sensor: Nr:Datum:Temp:Abs-Feuchte:Windchill:Wind:
Aussen-T/F 1601 27-12-2019 13:20:00 6.2 C 6.84 g/m*3 6.2 C 1.6 km/h
1602 27-12-2019 13:25:00 6.2 C 6.84 g/m*3 6.2 C 4.8 km/h
1603 27-12-2019 13:30:00 6.1 C 6.79 g/m*3 4.86 C 6.4 km/h
1604 27-12-2019 13:35:00 6.1 C 6.79 g/m*3 4.86 C 6.4 km/h
1605 27-12-2019 13:40:00 6.2 C 6.84 g/m*3 6.2 C 0 km/h
1606 27-12-2019 13:45:00 6.1 C 6.72 g/m*3 6.1 C 1.6 km/h
1607 27-12-2019 13:50:00 6.2 C 6.84 g/m*3 6.2 C 0 km/h
1608 27-12-2019 13:55:00 6.2 C 6.77 g/m*3 6.2 C 0 km/h
1609 27-12-2019 14:00:00 6.2 C 6.77 g/m*3 6.2 C 0 km/h
1610 27-12-2019 14:05:00 6.2 C 6.77 g/m*3 6.2 C 4.8 km/h
1611 27-12-2019 14:10:00 6.3 C 6.81 g/m*3 6.3 C 4.8 km/h
1612 27-12-2019 14:15:00 6.3 C 6.74 g/m*3 6.3 C 1.6 km/h
1613 27-12-2019 14:20:00 6.3 C 6.74 g/m*3 6.3 C 3.2 km/h
1614 27-12-2019 14:25:00 6.3 C 6.74 g/m*3 6.3 C 3.2 km/h
1615 27-12-2019 14:30:00 6.3 C 6.74 g/m*3 6.3 C 0 km/h
1616 27-12-2019 14:35:00 6.4 C 6.78 g/m*3 6.4 C 0 km/h
1617 27-12-2019 14:40:00 6.3 C 6.66 g/m*3 6.3 C 3.2 km/h
1618 27-12-2019 14:45:00 6.3 C 6.51 g/m*3 5.1 C 6.4 km/h
1619 27-12-2019 14:50:00 6.2 C 6.47 g/m*3 4.98 C 6.4 km/h
1620 27-12-2019 14:55:00 6.2 C 6.47 g/m*3 6.2 C 1.6 km/h
1621 27-12-2019 15:00:00 6.2 C 6.4 g/m*3 4.52 C 8.1 km/h
1622 27-12-2019 15:05:00 6.2 C 6.47 g/m*3 6.2 C 1.6 km/h
1623 27-12-2019 15:10:00 6.2 C 6.47 g/m*3 6.2 C 0 km/h
1624 27-12-2019 15:15:00 6.2 C 6.47 g/m*3 6.2 C 0 km/h
1625 27-12-2019 15:20:00 6.3 C 6.59 g/m*3 6.3 C 0 km/h
Sensor: Nr:Datum:Temp:Abs-Feuchte:Windchill:Wind:
Aussen-T/F 1626 27-12-2019 15:25:00 6.3 C 6.59 g/m*3 6.3 C 0 km/h
1627 27-12-2019 15:30:00 6.2 C 6.55 g/m*3 6.2 C 1.6 km/h
1628 27-12-2019 15:35:00 6.2 C 6.55 g/m*3 6.2 C 0 km/h
1629 27-12-2019 15:40:00 6.2 C 6.55 g/m*3 6.2 C 0 km/h
1630 27-12-2019 15:45:00 6.2 C 6.55 g/m*3 6.2 C 0 km/h
1631 27-12-2019 15:50:00 6.2 C 6.55 g/m*3 6.2 C 0 km/h
1632 27-12-2019 15:55:00 6.2 C 6.62 g/m*3 6.2 C 0 km/h
1633 27-12-2019 16:00:00 6.1 C 6.58 g/m*3 6.1 C 0 km/h
1634 27-12-2019 16:05:00 6.1 C 6.58 g/m*3 6.1 C 0 km/h
1635 27-12-2019 16:10:00 6.1 C 6.58 g/m*3 6.1 C 0 km/h
1636 27-12-2019 16:15:00 6 C 6.6 g/m*3 6 C 0 km/h
1637 27-12-2019 16:20:00 5.9 C 6.56 g/m*3 5.9 C 0 km/h
1638 27-12-2019 16:25:00 5.8 C 6.52 g/m*3 5.8 C 0 km/h
1639 27-12-2019 16:30:00 5.8 C 6.52 g/m*3 5.8 C 0 km/h
1640 27-12-2019 16:35:00 5.7 C 6.48 g/m*3 5.7 C 0 km/h
1641 27-12-2019 16:40:00 5.6 C 6.43 g/m*3 5.6 C 0 km/h
1642 27-12-2019 16:45:00 5.6 C 6.5 g/m*3 5.6 C 0 km/h
1643 27-12-2019 16:50:00 5.5 C 6.46 g/m*3 5.5 C 0 km/h
1644 27-12-2019 16:55:00 5.4 C 6.42 g/m*3 5.4 C 0 km/h
1645 27-12-2019 17:00:00 5.4 C 6.42 g/m*3 5.4 C 0 km/h
1646 27-12-2019 17:05:00 5.4 C 6.42 g/m*3 5.4 C 0 km/h
1647 27-12-2019 17:10:00 5.3 C 6.38 g/m*3 5.3 C 0 km/h
1648 27-12-2019 17:15:00 5.3 C 6.45 g/m*3 5.3 C 0 km/h
1649 27-12-2019 17:20:00 5.3 C 6.45 g/m*3 5.3 C 0 km/h
1650 27-12-2019 17:25:00 5.2 C 6.4 g/m*3 5.2 C 0 km/h
Sensor: Nr:Datum:Temp:Abs-Feuchte:Windchill:Wind:
Aussen-T/F 1651 27-12-2019 17:30:00 5.2 C 6.4 g/m*3 5.2 C 0 km/h
1652 27-12-2019 17:35:00 5.2 C 6.4 g/m*3 5.2 C 0 km/h
1653 27-12-2019 17:40:00 5.2 C 6.4 g/m*3 5.2 C 0 km/h
1654 27-12-2019 17:45:00 5.2 C 6.4 g/m*3 5.2 C 0 km/h
1655 27-12-2019 17:50:00 5.2 C 6.4 g/m*3 5.2 C 0 km/h
1656 27-12-2019 17:55:00 5.2 C 6.4 g/m*3 5.2 C 0 km/h
1657 27-12-2019 18:00:00 5.1 C 6.36 g/m*3 5.1 C 3.2 km/h
1658 27-12-2019 18:05:00 5.1 C 6.36 g/m*3 5.1 C 1.6 km/h
1659 27-12-2019 18:10:00 5.1 C 6.36 g/m*3 5.1 C 0 km/h
1660 27-12-2019 18:15:00 5.1 C 6.36 g/m*3 5.1 C 1.6 km/h
1661 27-12-2019 18:20:00 5 C 6.32 g/m*3 5 C 3.2 km/h
1662 27-12-2019 18:25:00 5 C 6.32 g/m*3 5 C 1.6 km/h
1663 27-12-2019 18:30:00 5 C 6.32 g/m*3 5 C 0 km/h
1664 27-12-2019 18:35:00 5 C 6.32 g/m*3 5 C 0 km/h
1665 27-12-2019 18:40:00 5 C 6.32 g/m*3 5 C 0 km/h
1666 27-12-2019 18:45:00 5 C 6.32 g/m*3 5 C 0 km/h
1667 27-12-2019 18:50:00 4.9 C 6.28 g/m*3 4.9 C 0 km/h
1668 27-12-2019 18:55:00 4.9 C 6.28 g/m*3 4.9 C 0 km/h
1669 27-12-2019 19:00:00 4.9 C 6.28 g/m*3 4.9 C 0 km/h
1670 27-12-2019 19:05:00 4.9 C 6.28 g/m*3 4.9 C 1.6 km/h
1671 27-12-2019 19:10:00 4.9 C 6.28 g/m*3 4.9 C 0 km/h
1672 27-12-2019 19:15:00 4.8 C 6.24 g/m*3 4.8 C 0 km/h
1673 27-12-2019 19:20:00 4.8 C 6.24 g/m*3 4.8 C 3.2 km/h
1674 27-12-2019 19:25:00 4.7 C 6.19 g/m*3 4.7 C 3.2 km/h
1675 27-12-2019 19:30:00 4.7 C 6.19 g/m*3 4.7 C 1.6 km/h
Sensor: Nr:Datum:Temp:Abs-Feuchte:Windchill:Wind:
Aussen-T/F 1676 27-12-2019 19:35:00 4.7 C 6.19 g/m*3 4.7 C 0 km/h
1677 27-12-2019 19:40:00 4.7 C 6.19 g/m*3 4.7 C 0 km/h
1678 27-12-2019 19:45:00 4.7 C 6.19 g/m*3 4.7 C 0 km/h
1679 27-12-2019 19:50:00 4.7 C 6.19 g/m*3 4.7 C 0 km/h
1680 27-12-2019 19:55:00 4.7 C 6.19 g/m*3 4.7 C 0 km/h
1681 27-12-2019 20:00:00 4.6 C 6.15 g/m*3 4.6 C 0 km/h
1682 27-12-2019 20:05:00 4.6 C 6.15 g/m*3 4.6 C 0 km/h
1683 27-12-2019 20:10:00 4.5 C 6.11 g/m*3 4.5 C 0 km/h
1684 27-12-2019 20:15:00 4.5 C 6.11 g/m*3 4.5 C 0 km/h
1685 27-12-2019 20:20:00 4.5 C 6.11 g/m*3 4.5 C 0 km/h
1686 27-12-2019 20:25:00 4.5 C 6.11 g/m*3 4.5 C 0 km/h
1687 27-12-2019 20:30:00 4.5 C 6.11 g/m*3 4.5 C 0 km/h
1688 27-12-2019 20:35:00 4.5 C 6.11 g/m*3 4.5 C 0 km/h
1689 27-12-2019 20:40:00 4.6 C 6.15 g/m*3 4.6 C 0 km/h
1690 27-12-2019 20:45:00 4.6 C 6.15 g/m*3 4.6 C 0 km/h
1691 27-12-2019 20:50:00 4.6 C 6.15 g/m*3 4.6 C 0 km/h
1692 27-12-2019 20:55:00 4.6 C 6.15 g/m*3 4.6 C 0 km/h
1693 27-12-2019 21:00:00 4.6 C 6.22 g/m*3 4.6 C 0 km/h
1694 27-12-2019 21:05:00 4.6 C 6.15 g/m*3 4.6 C 0 km/h
1695 27-12-2019 21:10:00 4.6 C 6.15 g/m*3 4.6 C 0 km/h
1696 27-12-2019 21:15:00 4.6 C 6.15 g/m*3 4.6 C 0 km/h
1697 27-12-2019 21:20:00 4.6 C 6.15 g/m*3 4.6 C 0 km/h
1698 27-12-2019 21:25:00 4.6 C 6.15 g/m*3 4.6 C 0 km/h
1699 27-12-2019 21:30:00 4.6 C 6.15 g/m*3 4.6 C 0 km/h
1700 27-12-2019 21:35:00 4.5 C 6.11 g/m*3 4.5 C 0 km/h
Sensor: Nr:Datum:Temp:Abs-Feuchte:Windchill:Wind:
Aussen-T/F 1701 27-12-2019 21:40:00 4.4 C 6.07 g/m*3 4.4 C 0 km/h
1702 27-12-2019 21:45:00 4.4 C 6.07 g/m*3 4.4 C 0 km/h
1703 27-12-2019 21:50:00 4.4 C 6.07 g/m*3 4.4 C 0 km/h
1704 27-12-2019 21:55:00 4.4 C 6.07 g/m*3 4.4 C 0 km/h
1705 27-12-2019 22:00:00 4.3 C 6.03 g/m*3 4.3 C 0 km/h
1706 27-12-2019 22:05:00 4.3 C 5.97 g/m*3 4.3 C 0 km/h
1707 27-12-2019 22:10:00 4.2 C 5.93 g/m*3 4.2 C 0 km/h
1708 27-12-2019 22:15:00 4.1 C 5.89 g/m*3 4.1 C 0 km/h
1709 27-12-2019 22:20:00 4 C 5.85 g/m*3 4 C 0 km/h
1710 27-12-2019 22:25:00 3.9 C 5.81 g/m*3 3.9 C 0 km/h
1711 27-12-2019 22:30:00 3.8 C 5.77 g/m*3 3.8 C 0 km/h
1712 27-12-2019 22:35:00 3.6 C 5.63 g/m*3 3.6 C 0 km/h
1713 27-12-2019 22:40:00 3.3 C 5.52 g/m*3 3.3 C 0 km/h
1714 27-12-2019 22:45:00 3.2 C 5.48 g/m*3 3.2 C 0 km/h
1715 27-12-2019 22:50:00 3 C 5.41 g/m*3 3 C 0 km/h
1716 27-12-2019 22:55:00 2.8 C 5.4 g/m*3 2.8 C 0 km/h
1717 27-12-2019 23:00:00 2.7 C 5.36 g/m*3 2.7 C 0 km/h
1718 27-12-2019 23:05:00 2.6 C 5.32 g/m*3 2.6 C 0 km/h
1719 27-12-2019 23:10:00 2.4 C 5.25 g/m*3 2.4 C 0 km/h
1720 27-12-2019 23:15:00 2.3 C 5.22 g/m*3 2.3 C 0 km/h
1721 27-12-2019 23:20:00 2.2 C 5.18 g/m*3 2.2 C 0 km/h
1722 27-12-2019 23:25:00 2 C 5.17 g/m*3 2 C 0 km/h
1723 27-12-2019 23:30:00 1.9 C 5.13 g/m*3 1.9 C 0 km/h
1724 27-12-2019 23:35:00 1.8 C 5.1 g/m*3 1.8 C 0 km/h
1725 27-12-2019 23:40:00 1.7 C 5.06 g/m*3 1.7 C 0 km/h
Sensor: Nr:Datum:Temp:Abs-Feuchte:Windchill:Wind:
Aussen-T/F 1726 27-12-2019 23:45:00 1.6 C 5.03 g/m*3 1.6 C 0 km/h
1727 27-12-2019 23:50:00 1.5 C 4.99 g/m*3 1.5 C 0 km/h
1728 27-12-2019 23:55:00 1.4 C 4.96 g/m*3 1.4 C 1.6 km/h
1729 28-12-2019 00:00:00 1.4 C 5.01 g/m*3 1.4 C 0 km/h
1730 28-12-2019 00:05:00 1.3 C 4.98 g/m*3 1.3 C 0 km/h
1731 28-12-2019 00:10:00 1.3 C 4.98 g/m*3 1.3 C 0 km/h
1732 28-12-2019 00:15:00 1.2 C 4.95 g/m*3 1.2 C 0 km/h
1733 28-12-2019 00:20:00 1.2 C 4.95 g/m*3 1.2 C 1.6 km/h
1734 28-12-2019 00:25:00 1.1 C 4.91 g/m*3 1.1 C 3.2 km/h
1735 28-12-2019 00:30:00 1.1 C 4.91 g/m*3 1.1 C 3.2 km/h
1736 28-12-2019 00:35:00 1 C 4.88 g/m*3 1 C 1.6 km/h
1737 28-12-2019 00:40:00 0.9 C 4.85 g/m*3 0.9 C 3.2 km/h
1738 28-12-2019 00:45:00 0.8 C 4.81 g/m*3 0.8 C 3.2 km/h
1739 28-12-2019 00:50:00 0.8 C 4.81 g/m*3 0.8 C 4.8 km/h
1740 28-12-2019 00:55:00 0.8 C 4.81 g/m*3 0.8 C 3.2 km/h
1741 28-12-2019 01:00:00 0.8 C 4.86 g/m*3 0.8 C 1.6 km/h
1742 28-12-2019 01:05:00 0.8 C 4.81 g/m*3 0.8 C 0 km/h
1743 28-12-2019 01:10:00 0.8 C 4.81 g/m*3 0.8 C 1.6 km/h
1744 28-12-2019 01:15:00 0.7 C 4.78 g/m*3 0.7 C 1.6 km/h
1745 28-12-2019 01:20:00 0.6 C 4.8 g/m*3 0.6 C 0 km/h
1746 28-12-2019 01:25:00 0.6 C 4.8 g/m*3 0.6 C 0 km/h
1747 28-12-2019 01:30:00 0.5 C 4.71 g/m*3 0.5 C 0 km/h
1748 28-12-2019 01:35:00 0.4 C 4.73 g/m*3 0.4 C 0 km/h
1749 28-12-2019 01:40:00 0.4 C 4.73 g/m*3 0.4 C 0 km/h
1750 28-12-2019 01:45:00 0.3 C 4.7 g/m*3 0.3 C 0 km/h
Sensor: Nr:Datum:Temp:Abs-Feuchte:Windchill:Wind:
Aussen-T/F 1751 28-12-2019 01:50:00 0.3 C 4.7 g/m*3 0.3 C 0 km/h
1752 28-12-2019 01:55:00 0.2 C 4.67 g/m*3 0.2 C 0 km/h
1753 28-12-2019 02:00:00 0.2 C 4.67 g/m*3 0.2 C 0 km/h
1754 28-12-2019 02:05:00 0.1 C 4.63 g/m*3 0.1 C 0 km/h
1755 28-12-2019 02:10:00 0.1 C 4.63 g/m*3 0.1 C 0 km/h
1756 28-12-2019 02:15:00 0 C 4.6 g/m*3 0 C 0 km/h
1757 28-12-2019 02:20:00 -0.1 C 4.57 g/m*3 -0.1 C 0 km/h
1758 28-12-2019 02:25:00 -0.1 C 4.57 g/m*3 -0.1 C 0 km/h
1759 28-12-2019 02:30:00 -0.2 C 4.54 g/m*3 -0.2 C 0 km/h
1760 28-12-2019 02:35:00 -0.2 C 4.54 g/m*3 -0.2 C 0 km/h
1761 28-12-2019 02:40:00 -0.3 C 4.51 g/m*3 -0.3 C 0 km/h
1762 28-12-2019 02:45:00 -0.3 C 4.51 g/m*3 -0.3 C 0 km/h
1763 28-12-2019 02:50:00 -0.4 C 4.48 g/m*3 -0.4 C 0 km/h
1764 28-12-2019 02:55:00 -0.4 C 4.48 g/m*3 -0.4 C 0 km/h
1765 28-12-2019 03:00:00 -0.3 C 4.51 g/m*3 -0.3 C 0 km/h
1766 28-12-2019 03:05:00 -0.4 C 4.48 g/m*3 -0.4 C 0 km/h
1767 28-12-2019 03:10:00 -0.4 C 4.48 g/m*3 -0.4 C 0 km/h
1768 28-12-2019 03:15:00 -0.5 C 4.45 g/m*3 -0.5 C 0 km/h
1769 28-12-2019 03:20:00 -0.6 C 4.42 g/m*3 -0.6 C 0 km/h
1770 28-12-2019 03:25:00 -0.6 C 4.42 g/m*3 -0.6 C 0 km/h
1771 28-12-2019 03:30:00 -0.7 C 4.39 g/m*3 -0.7 C 0 km/h
1772 28-12-2019 03:35:00 -0.7 C 4.39 g/m*3 -0.7 C 0 km/h
1773 28-12-2019 03:40:00 -0.7 C 4.43 g/m*3 -0.7 C 0 km/h
1774 28-12-2019 03:45:00 -0.7 C 4.43 g/m*3 -0.7 C 0 km/h
1775 28-12-2019 03:50:00 -0.7 C 4.43 g/m*3 -0.7 C 0 km/h
Sensor: Nr:Datum:Temp:Abs-Feuchte:Windchill:Wind:
Aussen-T/F 1776 28-12-2019 03:55:00 -0.7 C 4.43 g/m*3 -0.7 C 0 km/h
1777 28-12-2019 04:00:00 -0.7 C 4.39 g/m*3 -0.7 C 0 km/h
1778 28-12-2019 04:05:00 -0.8 C 4.35 g/m*3 -0.8 C 0 km/h
1779 28-12-2019 04:10:00 -0.8 C 4.4 g/m*3 -0.8 C 0 km/h
1780 28-12-2019 04:15:00 -0.8 C 4.4 g/m*3 -0.8 C 0 km/h
1781 28-12-2019 04:20:00 -0.9 C 4.37 g/m*3 -0.9 C 0 km/h
1782 28-12-2019 04:25:00 -0.9 C 4.37 g/m*3 -0.9 C 0 km/h
1783 28-12-2019 04:30:00 -0.9 C 4.37 g/m*3 -0.9 C 0 km/h
1784 28-12-2019 04:35:00 -1 C 4.34 g/m*3 -1 C 0 km/h
1785 28-12-2019 04:40:00 -0.9 C 4.37 g/m*3 -0.9 C 0 km/h
1786 28-12-2019 04:45:00 -1 C 4.34 g/m*3 -1 C 0 km/h
1787 28-12-2019 04:50:00 -1 C 4.34 g/m*3 -1 C 0 km/h
1788 28-12-2019 04:55:00 -1.1 C 4.31 g/m*3 -1.1 C 0 km/h
1789 28-12-2019 05:00:00 -1.1 C 4.31 g/m*3 -1.1 C 0 km/h
1790 28-12-2019 05:05:00 -1.1 C 4.31 g/m*3 -1.1 C 0 km/h
1791 28-12-2019 05:10:00 -1.1 C 4.31 g/m*3 -1.1 C 0 km/h
1792 28-12-2019 05:15:00 -1.2 C 4.28 g/m*3 -1.2 C 0 km/h
1793 28-12-2019 05:20:00 -1.2 C 4.28 g/m*3 -1.2 C 0 km/h
1794 28-12-2019 05:25:00 -1.2 C 4.28 g/m*3 -1.2 C 0 km/h
1795 28-12-2019 05:30:00 -1.2 C 4.28 g/m*3 -1.2 C 0 km/h
1796 28-12-2019 05:35:00 -1.2 C 4.28 g/m*3 -1.2 C 0 km/h
1797 28-12-2019 05:40:00 -1.3 C 4.25 g/m*3 -1.3 C 0 km/h
1798 28-12-2019 05:45:00 -1.2 C 4.28 g/m*3 -1.2 C 0 km/h
1799 28-12-2019 05:50:00 -1.2 C 4.28 g/m*3 -1.2 C 0 km/h
1800 28-12-2019 05:55:00 -1.2 C 4.28 g/m*3 -1.2 C 0 km/h
Sensor: Nr:Datum:Temp:Abs-Feuchte:Windchill:Wind:
Aussen-T/F 1801 28-12-2019 06:00:00 -1.2 C 4.28 g/m*3 -1.2 C 1.6 km/h
1802 28-12-2019 06:05:00 -1.2 C 4.28 g/m*3 -1.2 C 0 km/h
1803 28-12-2019 06:10:00 -1.2 C 4.28 g/m*3 -1.2 C 0 km/h
1804 28-12-2019 06:15:00 -1.2 C 4.28 g/m*3 -1.2 C 0 km/h
1805 28-12-2019 06:20:00 -1.2 C 4.28 g/m*3 -1.2 C 0 km/h
1806 28-12-2019 06:25:00 -1.3 C 4.25 g/m*3 -1.3 C 0 km/h
1807 28-12-2019 06:30:00 -1.3 C 4.25 g/m*3 -1.3 C 0 km/h
1808 28-12-2019 06:35:00 -1.3 C 4.25 g/m*3 -1.3 C 0 km/h
1809 28-12-2019 06:40:00 -1.3 C 4.25 g/m*3 -1.3 C 0 km/h
1810 28-12-2019 06:45:00 -1.3 C 4.25 g/m*3 -1.3 C 0 km/h
1811 28-12-2019 06:50:00 -1.3 C 4.25 g/m*3 -1.3 C 0 km/h
1812 28-12-2019 06:55:00 -1.3 C 4.25 g/m*3 -1.3 C 0 km/h
1813 28-12-2019 07:00:00 -1.3 C 4.25 g/m*3 -1.3 C 0 km/h
1814 28-12-2019 07:05:00 -1.3 C 4.25 g/m*3 -1.3 C 0 km/h
1815 28-12-2019 07:10:00 -1.3 C 4.25 g/m*3 -1.3 C 0 km/h
1816 28-12-2019 07:15:00 -1.3 C 4.25 g/m*3 -1.3 C 0 km/h
1817 28-12-2019 07:20:00 -1.3 C 4.25 g/m*3 -1.3 C 0 km/h
1818 28-12-2019 07:25:00 -1.4 C 4.22 g/m*3 -1.4 C 0 km/h
1819 28-12-2019 07:30:00 -1.4 C 4.22 g/m*3 -1.4 C 0 km/h
1820 28-12-2019 07:35:00 -1.4 C 4.22 g/m*3 -1.4 C 0 km/h
1821 28-12-2019 07:40:00 -1.4 C 4.22 g/m*3 -1.4 C 0 km/h
1822 28-12-2019 07:45:00 -1.4 C 4.22 g/m*3 -1.4 C 0 km/h
1823 28-12-2019 07:50:00 -1.4 C 4.22 g/m*3 -1.4 C 0 km/h
1824 28-12-2019 07:55:00 -1.4 C 4.22 g/m*3 -1.4 C 0 km/h
1825 28-12-2019 08:00:00 -1.5 C 4.19 g/m*3 -1.5 C 0 km/h
Sensor: Nr:Datum:Temp:Abs-Feuchte:Windchill:Wind:
Aussen-T/F 1826 28-12-2019 08:05:00 -1.5 C 4.19 g/m*3 -1.5 C 0 km/h
1827 28-12-2019 08:10:00 -1.5 C 4.19 g/m*3 -1.5 C 0 km/h
1828 28-12-2019 08:15:00 -1.6 C 4.16 g/m*3 -1.6 C 0 km/h
1829 28-12-2019 08:20:00 -1.6 C 4.16 g/m*3 -1.6 C 0 km/h
1830 28-12-2019 08:25:00 -1.6 C 4.16 g/m*3 -1.6 C 0 km/h
1831 28-12-2019 08:30:00 -1.6 C 4.16 g/m*3 -1.6 C 0 km/h
1832 28-12-2019 08:35:00 -1.7 C 4.13 g/m*3 -1.7 C 0 km/h
1833 28-12-2019 08:40:00 -1.7 C 4.13 g/m*3 -1.7 C 0 km/h
1834 28-12-2019 08:45:00 -1.7 C 4.13 g/m*3 -1.7 C 0 km/h
1835 28-12-2019 08:50:00 -1.7 C 4.13 g/m*3 -1.7 C 0 km/h
1836 28-12-2019 08:55:00 -1.7 C 4.13 g/m*3 -1.7 C 0 km/h
1837 28-12-2019 09:00:00 -1.7 C 4.13 g/m*3 -1.7 C 0 km/h
1838 28-12-2019 09:05:00 -1.6 C 4.16 g/m*3 -1.6 C 0 km/h
1839 28-12-2019 09:10:00 -1.6 C 4.16 g/m*3 -1.6 C 0 km/h
1840 28-12-2019 09:15:00 -1.6 C 4.16 g/m*3 -1.6 C 0 km/h
1841 28-12-2019 09:20:00 -1.6 C 4.16 g/m*3 -1.6 C 0 km/h
1842 28-12-2019 09:25:00 -1.6 C 4.16 g/m*3 -1.6 C 0 km/h
1843 28-12-2019 09:30:00 -1.6 C 4.16 g/m*3 -1.6 C 0 km/h
1844 28-12-2019 09:35:00 -1.6 C 4.16 g/m*3 -1.6 C 0 km/h
1845 28-12-2019 09:40:00 -1.6 C 4.16 g/m*3 -1.6 C 0 km/h
1846 28-12-2019 09:45:00 -1.4 C 4.22 g/m*3 -1.4 C 1.6 km/h
1847 28-12-2019 09:50:00 -1.3 C 4.29 g/m*3 -1.3 C 0 km/h
1848 28-12-2019 09:55:00 -1.1 C 4.35 g/m*3 -1.1 C 0 km/h
1849 28-12-2019 10:00:00 -0.9 C 4.42 g/m*3 -0.9 C 0 km/h
1850 28-12-2019 10:05:00 -0.8 C 4.45 g/m*3 -0.8 C 0 km/h
Sensor: Nr:Datum:Temp:Abs-Feuchte:Windchill:Wind:
Aussen-T/F 1851 28-12-2019 10:10:00 -0.8 C 4.45 g/m*3 -0.8 C 0 km/h
1852 28-12-2019 10:15:00 -0.8 C 4.45 g/m*3 -0.8 C 0 km/h
1853 28-12-2019 10:20:00 -0.8 C 4.45 g/m*3 -0.8 C 0 km/h
1854 28-12-2019 10:25:00 -0.7 C 4.48 g/m*3 -0.7 C 0 km/h
1855 28-12-2019 10:30:00 -0.6 C 4.51 g/m*3 -0.6 C 3.2 km/h
1856 28-12-2019 10:35:00 -0.6 C 4.51 g/m*3 -0.6 C 0 km/h
1857 28-12-2019 10:40:00 -0.5 C 4.54 g/m*3 -0.5 C 0 km/h
1858 28-12-2019 10:45:00 -0.4 C 4.57 g/m*3 -0.4 C 3.2 km/h
1859 28-12-2019 10:50:00 -0.4 C 4.57 g/m*3 -0.4 C 3.2 km/h
1860 28-12-2019 10:55:00 -0.3 C 4.6 g/m*3 -0.3 C 1.6 km/h
1861 28-12-2019 11:00:00 -0.3 C 4.6 g/m*3 -0.3 C 0 km/h
1862 28-12-2019 11:05:00 -0.2 C 4.64 g/m*3 -0.2 C 0 km/h
1863 28-12-2019 11:10:00 -0.2 C 4.64 g/m*3 -0.2 C 1.6 km/h
1864 28-12-2019 11:15:00 -0.2 C 4.64 g/m*3 -0.2 C 0 km/h
1865 28-12-2019 11:20:00 -0.2 C 4.64 g/m*3 -0.2 C 3.2 km/h
1866 28-12-2019 11:25:00 -0.1 C 4.67 g/m*3 -0.1 C 1.6 km/h
1867 28-12-2019 11:30:00 0 C 4.7 g/m*3 0 C 0 km/h
1868 28-12-2019 11:35:00 0.1 C 4.73 g/m*3 0.1 C 0 km/h
1869 28-12-2019 11:40:00 0.1 C 4.73 g/m*3 0.1 C 0 km/h
1870 28-12-2019 11:45:00 0.1 C 4.73 g/m*3 0.1 C 0 km/h
1871 28-12-2019 11:50:00 0.1 C 4.73 g/m*3 0.1 C 0 km/h
1872 28-12-2019 11:55:00 0.1 C 4.73 g/m*3 0.1 C 0 km/h
1873 28-12-2019 12:00:00 0.2 C 4.77 g/m*3 0.2 C 0 km/h
1874 28-12-2019 12:05:00 0.2 C 4.77 g/m*3 0.2 C 0 km/h
1875 28-12-2019 12:10:00 0.3 C 4.8 g/m*3 0.3 C 0 km/h
Sensor: Nr:Datum:Temp:Abs-Feuchte:Windchill:Wind:
Aussen-T/F 1876 28-12-2019 12:15:00 0.4 C 4.83 g/m*3 0.4 C 0 km/h
1877 28-12-2019 12:20:00 0.5 C 4.86 g/m*3 0.5 C 0 km/h
1878 28-12-2019 12:25:00 0.6 C 4.9 g/m*3 0.6 C 0 km/h
1879 28-12-2019 12:30:00 0.6 C 4.9 g/m*3 0.6 C 0 km/h
1880 28-12-2019 12:35:00 0.6 C 4.9 g/m*3 0.6 C 0 km/h
1881 28-12-2019 12:40:00 0.7 C 4.93 g/m*3 0.7 C 0 km/h
1882 28-12-2019 12:45:00 0.7 C 4.93 g/m*3 0.7 C 0 km/h
1883 28-12-2019 12:50:00 0.8 C 4.97 g/m*3 0.8 C 0 km/h
1884 28-12-2019 12:55:00 0.8 C 4.97 g/m*3 0.8 C 0 km/h
1885 28-12-2019 13:00:00 0.9 C 5 g/m*3 0.9 C 0 km/h
1886 28-12-2019 13:05:00 0.9 C 5 g/m*3 0.9 C 0 km/h
1887 28-12-2019 13:10:00 1 C 5.03 g/m*3 1 C 0 km/h
1888 28-12-2019 13:15:00 1.1 C 5.07 g/m*3 1.1 C 0 km/h
1889 28-12-2019 13:20:00 1.2 C 5.1 g/m*3 1.2 C 0 km/h
1890 28-12-2019 13:25:00 1.2 C 5.1 g/m*3 1.2 C 0 km/h
1891 28-12-2019 13:30:00 1.3 C 5.14 g/m*3 1.3 C 0 km/h
1892 28-12-2019 13:35:00 1.3 C 5.14 g/m*3 1.3 C 0 km/h
1893 28-12-2019 13:40:00 1.3 C 5.14 g/m*3 1.3 C 0 km/h
1894 28-12-2019 13:45:00 1.3 C 5.14 g/m*3 1.3 C 0 km/h
1895 28-12-2019 13:50:00 1.3 C 5.14 g/m*3 1.3 C 1.6 km/h
1896 28-12-2019 13:55:00 1.3 C 5.14 g/m*3 1.3 C 0 km/h
1897 28-12-2019 14:00:00 1.3 C 5.14 g/m*3 1.3 C 0 km/h
1898 28-12-2019 14:05:00 1.3 C 5.14 g/m*3 1.3 C 0 km/h
1899 28-12-2019 14:10:00 1.3 C 5.14 g/m*3 1.3 C 0 km/h
1900 28-12-2019 14:15:00 1.3 C 5.14 g/m*3 1.3 C 0 km/h
Sensor: Nr:Datum:Temp:Abs-Feuchte:Windchill:Wind:
Aussen-T/F 1901 28-12-2019 14:20:00 1.4 C 5.17 g/m*3 1.4 C 0 km/h
1902 28-12-2019 14:25:00 1.4 C 5.17 g/m*3 1.4 C 0 km/h
1903 28-12-2019 14:30:00 1.4 C 5.17 g/m*3 1.4 C 0 km/h
1904 28-12-2019 14:35:00 1.4 C 5.17 g/m*3 1.4 C 0 km/h
1905 28-12-2019 14:40:00 1.3 C 5.14 g/m*3 1.3 C 0 km/h
1906 28-12-2019 14:45:00 1.3 C 5.14 g/m*3 1.3 C 0 km/h
1907 28-12-2019 14:50:00 1.3 C 5.14 g/m*3 1.3 C 0 km/h
1908 28-12-2019 14:55:00 1.2 C 5.1 g/m*3 1.2 C 3.2 km/h
1909 28-12-2019 15:00:00 1.2 C 5.1 g/m*3 1.2 C 1.6 km/h
1910 28-12-2019 15:05:00 1.2 C 5.05 g/m*3 1.2 C 1.6 km/h
1911 28-12-2019 15:10:00 1.2 C 5.05 g/m*3 1.2 C 0 km/h
1912 28-12-2019 15:15:00 1.1 C 5.02 g/m*3 1.1 C 0 km/h
1913 28-12-2019 15:20:00 1.1 C 5.02 g/m*3 1.1 C 0 km/h
1914 28-12-2019 15:25:00 1.1 C 5.02 g/m*3 1.1 C 0 km/h
1915 28-12-2019 15:30:00 1.1 C 5.02 g/m*3 1.1 C 0 km/h
1916 28-12-2019 15:35:00 1 C 4.98 g/m*3 1 C 0 km/h
1917 28-12-2019 15:40:00 1 C 4.98 g/m*3 1 C 0 km/h
1918 28-12-2019 15:45:00 1 C 4.98 g/m*3 1 C 0 km/h
1919 28-12-2019 15:50:00 1 C 4.98 g/m*3 1 C 0 km/h
1920 28-12-2019 15:55:00 1 C 4.98 g/m*3 1 C 0 km/h
1921 28-12-2019 16:00:00 1 C 4.98 g/m*3 1 C 0 km/h
1922 28-12-2019 16:05:00 0.9 C 4.95 g/m*3 0.9 C 0 km/h
1923 28-12-2019 16:10:00 0.9 C 4.95 g/m*3 0.9 C 0 km/h
1924 28-12-2019 16:15:00 0.8 C 4.91 g/m*3 0.8 C 0 km/h
1925 28-12-2019 16:20:00 0.8 C 4.91 g/m*3 0.8 C 0 km/h
Sensor: Nr:Datum:Temp:Abs-Feuchte:Windchill:Wind:
Aussen-T/F 1926 28-12-2019 16:25:00 0.8 C 4.91 g/m*3 0.8 C 0 km/h
1927 28-12-2019 16:30:00 0.7 C 4.88 g/m*3 0.7 C 0 km/h
1928 28-12-2019 16:35:00 0.6 C 4.85 g/m*3 0.6 C 0 km/h
1929 28-12-2019 16:40:00 0.6 C 4.85 g/m*3 0.6 C 0 km/h
1930 28-12-2019 16:45:00 0.5 C 4.81 g/m*3 0.5 C 0 km/h
1931 28-12-2019 16:50:00 0.4 C 4.78 g/m*3 0.4 C 0 km/h
1932 28-12-2019 16:55:00 0.4 C 4.78 g/m*3 0.4 C 0 km/h
1933 28-12-2019 17:00:00 0.3 C 4.75 g/m*3 0.3 C 0 km/h
1934 28-12-2019 17:05:00 0.3 C 4.75 g/m*3 0.3 C 0 km/h
1935 28-12-2019 17:10:00 0.3 C 4.75 g/m*3 0.3 C 0 km/h
1936 28-12-2019 17:15:00 0.3 C 4.75 g/m*3 0.3 C 0 km/h
1937 28-12-2019 17:20:00 0.3 C 4.75 g/m*3 0.3 C 0 km/h
1938 28-12-2019 17:25:00 0.2 C 4.72 g/m*3 0.2 C 0 km/h
1939 28-12-2019 17:30:00 0.2 C 4.72 g/m*3 0.2 C 0 km/h
1940 28-12-2019 17:35:00 0.2 C 4.72 g/m*3 0.2 C 0 km/h
1941 28-12-2019 17:40:00 0.1 C 4.68 g/m*3 0.1 C 0 km/h
1942 28-12-2019 17:45:00 0.1 C 4.68 g/m*3 0.1 C 0 km/h
1943 28-12-2019 17:50:00 0.1 C 4.68 g/m*3 0.1 C 0 km/h
1944 28-12-2019 17:55:00 -0.1 C 4.62 g/m*3 -0.1 C 0 km/h
1945 28-12-2019 18:00:00 -0.1 C 4.57 g/m*3 -0.1 C 0 km/h
1946 28-12-2019 18:05:00 -0.2 C 4.54 g/m*3 -0.2 C 0 km/h
1947 28-12-2019 18:10:00 -0.2 C 4.59 g/m*3 -0.2 C 0 km/h
1948 28-12-2019 18:15:00 -0.3 C 4.56 g/m*3 -0.3 C 0 km/h
1949 28-12-2019 18:20:00 -0.3 C 4.56 g/m*3 -0.3 C 0 km/h
1950 28-12-2019 18:25:00 -0.3 C 4.56 g/m*3 -0.3 C 0 km/h
Sensor: Nr:Datum:Temp:Abs-Feuchte:Windchill:Wind:
Aussen-T/F 1951 28-12-2019 18:30:00 -0.3 C 4.56 g/m*3 -0.3 C 0 km/h
1952 28-12-2019 18:35:00 -0.3 C 4.56 g/m*3 -0.3 C 0 km/h
1953 28-12-2019 18:40:00 -0.3 C 4.56 g/m*3 -0.3 C 0 km/h
1954 28-12-2019 18:45:00 -0.3 C 4.56 g/m*3 -0.3 C 0 km/h
1955 28-12-2019 18:50:00 -0.3 C 4.56 g/m*3 -0.3 C 0 km/h
1956 28-12-2019 18:55:00 -0.4 C 4.52 g/m*3 -0.4 C 0 km/h
1957 28-12-2019 19:00:00 -0.4 C 4.52 g/m*3 -0.4 C 0 km/h
1958 28-12-2019 19:05:00 -0.4 C 4.52 g/m*3 -0.4 C 0 km/h
1959 28-12-2019 19:10:00 -0.4 C 4.52 g/m*3 -0.4 C 0 km/h
1960 28-12-2019 19:15:00 -0.5 C 4.49 g/m*3 -0.5 C 0 km/h
1961 28-12-2019 19:20:00 -0.5 C 4.49 g/m*3 -0.5 C 0 km/h
1962 28-12-2019 19:25:00 -0.5 C 4.49 g/m*3 -0.5 C 0 km/h
1963 28-12-2019 19:30:00 -0.5 C 4.49 g/m*3 -0.5 C 0 km/h
1964 28-12-2019 19:35:00 -0.6 C 4.46 g/m*3 -0.6 C 0 km/h
1965 28-12-2019 19:40:00 -0.6 C 4.46 g/m*3 -0.6 C 0 km/h
1966 28-12-2019 19:45:00 -0.6 C 4.46 g/m*3 -0.6 C 0 km/h
1967 28-12-2019 19:50:00 -0.7 C 4.43 g/m*3 -0.7 C 0 km/h
1968 28-12-2019 19:55:00 -0.6 C 4.46 g/m*3 -0.6 C 0 km/h
1969 28-12-2019 20:00:00 -0.6 C 4.46 g/m*3 -0.6 C 0 km/h
1970 28-12-2019 20:05:00 -0.6 C 4.46 g/m*3 -0.6 C 0 km/h
1971 28-12-2019 20:10:00 -0.7 C 4.43 g/m*3 -0.7 C 0 km/h
1972 28-12-2019 20:15:00 -0.6 C 4.46 g/m*3 -0.6 C 0 km/h
1973 28-12-2019 20:20:00 -0.6 C 4.46 g/m*3 -0.6 C 3.2 km/h
1974 28-12-2019 20:25:00 -0.6 C 4.46 g/m*3 -0.6 C 0 km/h
1975 28-12-2019 20:30:00 -0.4 C 4.52 g/m*3 -0.4 C 0 km/h
Sensor: Nr:Datum:Temp:Abs-Feuchte:Windchill:Wind:
Aussen-T/F 1976 28-12-2019 20:35:00 -0.3 C 4.56 g/m*3 -0.3 C 0 km/h
1977 28-12-2019 20:40:00 -0.3 C 4.56 g/m*3 -0.3 C 0 km/h
1978 28-12-2019 20:45:00 -0.3 C 4.56 g/m*3 -0.3 C 0 km/h
1979 28-12-2019 20:50:00 -0.3 C 4.56 g/m*3 -0.3 C 0 km/h
1980 28-12-2019 20:55:00 -0.3 C 4.56 g/m*3 -0.3 C 0 km/h
1981 28-12-2019 21:00:00 -0.3 C 4.56 g/m*3 -0.3 C 0 km/h
1982 28-12-2019 21:05:00 -0.3 C 4.56 g/m*3 -0.3 C 0 km/h
1983 28-12-2019 21:10:00 -0.4 C 4.52 g/m*3 -0.4 C 0 km/h
1984 28-12-2019 21:15:00 -0.4 C 4.52 g/m*3 -0.4 C 4.8 km/h
1985 28-12-2019 21:20:00 -0.4 C 4.52 g/m*3 -0.4 C 1.6 km/h
1986 28-12-2019 21:25:00 -0.4 C 4.52 g/m*3 -0.4 C 0 km/h
1987 28-12-2019 21:30:00 -0.4 C 4.52 g/m*3 -0.4 C 0 km/h
1988 28-12-2019 21:35:00 -0.4 C 4.52 g/m*3 -0.4 C 0 km/h
1989 28-12-2019 21:40:00 -0.5 C 4.49 g/m*3 -0.5 C 0 km/h
1990 28-12-2019 21:45:00 -0.6 C 4.46 g/m*3 -0.6 C 0 km/h
1991 28-12-2019 21:50:00 -0.6 C 4.46 g/m*3 -0.6 C 3.2 km/h
1992 28-12-2019 21:55:00 -0.7 C 4.43 g/m*3 -0.7 C 0 km/h
1993 28-12-2019 22:00:00 -0.8 C 4.4 g/m*3 -0.8 C 0 km/h
1994 28-12-2019 22:05:00 -0.8 C 4.4 g/m*3 -0.8 C 0 km/h
1995 28-12-2019 22:10:00 -0.8 C 4.4 g/m*3 -0.8 C 0 km/h
1996 28-12-2019 22:15:00 -0.9 C 4.37 g/m*3 -0.9 C 0 km/h
1997 28-12-2019 22:20:00 -0.9 C 4.37 g/m*3 -0.9 C 0 km/h
1998 28-12-2019 22:25:00 -1 C 4.34 g/m*3 -1 C 0 km/h
1999 28-12-2019 22:30:00 -1 C 4.34 g/m*3 -1 C 0 km/h
2000 28-12-2019 22:35:00 -1.1 C 4.31 g/m*3 -1.1 C 0 km/h
Sensor: Nr:Datum:Temp:Abs-Feuchte:Windchill:Wind:
Aussen-T/F 2001 28-12-2019 22:40:00 -1.1 C 4.31 g/m*3 -1.1 C 0 km/h
2002 28-12-2019 22:45:00 -1.1 C 4.31 g/m*3 -1.1 C 0 km/h
2003 28-12-2019 22:50:00 -1.1 C 4.31 g/m*3 -1.1 C 0 km/h
2004 28-12-2019 22:55:00 -1.1 C 4.31 g/m*3 -1.1 C 0 km/h
2005 28-12-2019 23:00:00 -1.2 C 4.28 g/m*3 -1.2 C 0 km/h
2006 28-12-2019 23:05:00 -1.2 C 4.28 g/m*3 -1.2 C 0 km/h
2007 28-12-2019 23:10:00 -1.2 C 4.28 g/m*3 -1.2 C 0 km/h
2008 28-12-2019 23:15:00 -1.2 C 4.28 g/m*3 -1.2 C 0 km/h
2009 28-12-2019 23:20:00 -1.2 C 4.28 g/m*3 -1.2 C 0 km/h
2010 28-12-2019 23:25:00 -1.2 C 4.28 g/m*3 -1.2 C 0 km/h
2011 28-12-2019 23:30:00 -1.3 C 4.25 g/m*3 -1.3 C 0 km/h
2012 28-12-2019 23:35:00 -1.3 C 4.25 g/m*3 -1.3 C 0 km/h
2013 28-12-2019 23:40:00 -1.3 C 4.25 g/m*3 -1.3 C 0 km/h
2014 28-12-2019 23:45:00 -1.3 C 4.25 g/m*3 -1.3 C 0 km/h
2015 28-12-2019 23:50:00 -1.4 C 4.22 g/m*3 -1.4 C 0 km/h
2016 28-12-2019 23:55:00 -1.4 C 4.22 g/m*3 -1.4 C 0 km/h
2017 29-12-2019 00:00:00 -1.4 C 4.22 g/m*3 -1.4 C 0 km/h
2018 29-12-2019 00:05:00 -1.4 C 4.22 g/m*3 -1.4 C 0 km/h
2019 29-12-2019 00:10:00 -1.5 C 4.19 g/m*3 -1.5 C 0 km/h
2020 29-12-2019 00:15:00 -1.5 C 4.19 g/m*3 -1.5 C 0 km/h
2021 29-12-2019 00:20:00 -1.6 C 4.16 g/m*3 -1.6 C 0 km/h
2022 29-12-2019 00:25:00 -1.6 C 4.16 g/m*3 -1.6 C 0 km/h
2023 29-12-2019 00:30:00 -1.6 C 4.16 g/m*3 -1.6 C 0 km/h
2024 29-12-2019 00:35:00 -1.6 C 4.16 g/m*3 -1.6 C 0 km/h
2025 29-12-2019 00:40:00 -1.6 C 4.16 g/m*3 -1.6 C 0 km/h
Sensor: Nr:Datum:Temp:Abs-Feuchte:Windchill:Wind:
Aussen-T/F 2026 29-12-2019 00:45:00 -1.7 C 4.13 g/m*3 -1.7 C 0 km/h
2027 29-12-2019 00:50:00 -1.7 C 4.13 g/m*3 -1.7 C 0 km/h
2028 29-12-2019 00:55:00 -1.8 C 4.1 g/m*3 -1.8 C 0 km/h
2029 29-12-2019 01:00:00 -1.8 C 4.1 g/m*3 -1.8 C 0 km/h
2030 29-12-2019 01:05:00 -1.8 C 4.1 g/m*3 -1.8 C 0 km/h
2031 29-12-2019 01:10:00 -1.9 C 4.08 g/m*3 -1.9 C 0 km/h
2032 29-12-2019 01:15:00 -1.9 C 4.08 g/m*3 -1.9 C 0 km/h
2033 29-12-2019 01:20:00 -2 C 4.05 g/m*3 -2 C 0 km/h
2034 29-12-2019 01:25:00 -1.9 C 4.08 g/m*3 -1.9 C 0 km/h
2035 29-12-2019 01:30:00 -1.9 C 4.08 g/m*3 -1.9 C 0 km/h
2036 29-12-2019 01:35:00 -1.9 C 4.08 g/m*3 -1.9 C 0 km/h
2037 29-12-2019 01:40:00 -1.9 C 4.08 g/m*3 -1.9 C 0 km/h
2038 29-12-2019 01:45:00 -2 C 4.05 g/m*3 -2 C 0 km/h
2039 29-12-2019 01:50:00 -2 C 4.05 g/m*3 -2 C 0 km/h
2040 29-12-2019 01:55:00 -2.1 C 4.02 g/m*3 -2.1 C 0 km/h
2041 29-12-2019 02:00:00 -2.1 C 4.02 g/m*3 -2.1 C 0 km/h
2042 29-12-2019 02:05:00 -2.2 C 3.99 g/m*3 -2.2 C 0 km/h
2043 29-12-2019 02:10:00 -2.2 C 3.99 g/m*3 -2.2 C 0 km/h
2044 29-12-2019 02:15:00 -2.2 C 3.99 g/m*3 -2.2 C 0 km/h
2045 29-12-2019 02:20:00 -2.2 C 3.99 g/m*3 -2.2 C 0 km/h
2046 29-12-2019 02:25:00 -2.3 C 3.96 g/m*3 -2.3 C 0 km/h
2047 29-12-2019 02:30:00 -2.3 C 3.96 g/m*3 -2.3 C 0 km/h
2048 29-12-2019 02:35:00 -2.3 C 3.96 g/m*3 -2.3 C 0 km/h
2049 29-12-2019 02:40:00 -2.4 C 3.93 g/m*3 -2.4 C 0 km/h
2050 29-12-2019 02:45:00 -2.3 C 3.96 g/m*3 -2.3 C 0 km/h
Sensor: Nr:Datum:Temp:Abs-Feuchte:Windchill:Wind:
Aussen-T/F 2051 29-12-2019 02:50:00 -2.3 C 3.96 g/m*3 -2.3 C 0 km/h
2052 29-12-2019 02:55:00 -2.3 C 3.96 g/m*3 -2.3 C 0 km/h
2053 29-12-2019 03:00:00 -2.4 C 3.93 g/m*3 -2.4 C 0 km/h
2054 29-12-2019 03:05:00 -2.4 C 3.93 g/m*3 -2.4 C 0 km/h
2055 29-12-2019 03:10:00 -2.4 C 3.93 g/m*3 -2.4 C 0 km/h
2056 29-12-2019 03:15:00 -2.4 C 3.93 g/m*3 -2.4 C 0 km/h
2057 29-12-2019 03:20:00 -2.5 C 3.91 g/m*3 -2.5 C 0 km/h
2058 29-12-2019 03:25:00 -2.6 C 3.88 g/m*3 -2.6 C 0 km/h
2059 29-12-2019 03:30:00 -2.6 C 3.88 g/m*3 -2.6 C 0 km/h
2060 29-12-2019 03:35:00 -2.6 C 3.88 g/m*3 -2.6 C 0 km/h
2061 29-12-2019 03:40:00 -2.6 C 3.88 g/m*3 -2.6 C 0 km/h
2062 29-12-2019 03:45:00 -2.6 C 3.88 g/m*3 -2.6 C 0 km/h
2063 29-12-2019 03:50:00 -2.6 C 3.88 g/m*3 -2.6 C 0 km/h
2064 29-12-2019 03:55:00 -2.6 C 3.88 g/m*3 -2.6 C 0 km/h
2065 29-12-2019 04:00:00 -2.6 C 3.88 g/m*3 -2.6 C 0 km/h
2066 29-12-2019 04:05:00 -2.6 C 3.88 g/m*3 -2.6 C 0 km/h
2067 29-12-2019 04:10:00 -2.6 C 3.88 g/m*3 -2.6 C 0 km/h
2068 29-12-2019 04:15:00 -2.6 C 3.88 g/m*3 -2.6 C 0 km/h
2069 29-12-2019 04:20:00 -2.7 C 3.85 g/m*3 -2.7 C 0 km/h
2070 29-12-2019 04:25:00 -2.7 C 3.85 g/m*3 -2.7 C 0 km/h
2071 29-12-2019 04:30:00 -2.7 C 3.85 g/m*3 -2.7 C 0 km/h
2072 29-12-2019 04:35:00 -2.6 C 3.88 g/m*3 -2.6 C 0 km/h
2073 29-12-2019 04:40:00 -2.6 C 3.88 g/m*3 -2.6 C 0 km/h
2074 29-12-2019 04:45:00 -2.7 C 3.85 g/m*3 -2.7 C 0 km/h
2075 29-12-2019 04:50:00 -2.7 C 3.85 g/m*3 -2.7 C 0 km/h
Sensor: Nr:Datum:Temp:Abs-Feuchte:Windchill:Wind:
Aussen-T/F 2076 29-12-2019 04:55:00 -2.7 C 3.85 g/m*3 -2.7 C 0 km/h
2077 29-12-2019 05:00:00 -2.8 C 3.82 g/m*3 -2.8 C 0 km/h
2078 29-12-2019 05:05:00 -2.8 C 3.82 g/m*3 -2.8 C 0 km/h
2079 29-12-2019 05:10:00 -2.8 C 3.82 g/m*3 -2.8 C 0 km/h
2080 29-12-2019 05:15:00 -2.9 C 3.8 g/m*3 -2.9 C 0 km/h
2081 29-12-2019 05:20:00 -3 C 3.77 g/m*3 -3 C 0 km/h
2082 29-12-2019 05:25:00 -3.1 C 3.74 g/m*3 -3.1 C 0 km/h
2083 29-12-2019 05:30:00 -3.1 C 3.74 g/m*3 -3.1 C 0 km/h
2084 29-12-2019 05:35:00 -3.1 C 3.74 g/m*3 -3.1 C 0 km/h
2085 29-12-2019 05:40:00 -3.1 C 3.74 g/m*3 -3.1 C 0 km/h
2086 29-12-2019 05:45:00 -3.1 C 3.74 g/m*3 -3.1 C 0 km/h
2087 29-12-2019 05:50:00 -3.1 C 3.74 g/m*3 -3.1 C 0 km/h
2088 29-12-2019 05:55:00 -3.1 C 3.74 g/m*3 -3.1 C 0 km/h
2089 29-12-2019 06:00:00 -3.2 C 3.72 g/m*3 -3.2 C 0 km/h
2090 29-12-2019 06:05:00 -3.2 C 3.72 g/m*3 -3.2 C 0 km/h
2091 29-12-2019 06:10:00 -3.2 C 3.72 g/m*3 -3.2 C 0 km/h
2092 29-12-2019 06:15:00 -3.2 C 3.72 g/m*3 -3.2 C 0 km/h
2093 29-12-2019 06:20:00 -3.3 C 3.69 g/m*3 -3.3 C 0 km/h
2094 29-12-2019 06:25:00 -3.3 C 3.69 g/m*3 -3.3 C 0 km/h
2095 29-12-2019 06:30:00 -3.3 C 3.69 g/m*3 -3.3 C 0 km/h
2096 29-12-2019 06:35:00 -3.3 C 3.69 g/m*3 -3.3 C 0 km/h
2097 29-12-2019 06:40:00 -3.3 C 3.69 g/m*3 -3.3 C 0 km/h
2098 29-12-2019 06:45:00 -3.3 C 3.69 g/m*3 -3.3 C 0 km/h
2099 29-12-2019 06:50:00 -3.3 C 3.69 g/m*3 -3.3 C 0 km/h
2100 29-12-2019 06:55:00 -3.3 C 3.69 g/m*3 -3.3 C 0 km/h
Sensor: Nr:Datum:Temp:Abs-Feuchte:Windchill:Wind:
Aussen-T/F 2101 29-12-2019 07:00:00 -3.4 C 3.67 g/m*3 -3.4 C 0 km/h
2102 29-12-2019 07:05:00 -3.4 C 3.67 g/m*3 -3.4 C 0 km/h
2103 29-12-2019 07:10:00 -3.5 C 3.64 g/m*3 -3.5 C 0 km/h
2104 29-12-2019 07:15:00 -3.5 C 3.64 g/m*3 -3.5 C 0 km/h
2105 29-12-2019 07:20:00 -3.5 C 3.64 g/m*3 -3.5 C 0 km/h
2106 29-12-2019 07:25:00 -3.6 C 3.61 g/m*3 -3.6 C 0 km/h
2107 29-12-2019 07:30:00 -3.6 C 3.61 g/m*3 -3.6 C 0 km/h
2108 29-12-2019 07:35:00 -3.6 C 3.61 g/m*3 -3.6 C 0 km/h
2109 29-12-2019 07:40:00 -3.6 C 3.61 g/m*3 -3.6 C 0 km/h
2110 29-12-2019 07:45:00 -3.6 C 3.61 g/m*3 -3.6 C 0 km/h
2111 29-12-2019 07:50:00 -3.6 C 3.61 g/m*3 -3.6 C 0 km/h
2112 29-12-2019 07:55:00 -3.6 C 3.61 g/m*3 -3.6 C 0 km/h
2113 29-12-2019 08:00:00 -3.6 C 3.61 g/m*3 -3.6 C 0 km/h
2114 29-12-2019 08:05:00 -3.4 C 3.67 g/m*3 -3.4 C 0 km/h
2115 29-12-2019 08:10:00 -3.4 C 3.67 g/m*3 -3.4 C 0 km/h
2116 29-12-2019 08:15:00 -3.3 C 3.69 g/m*3 -3.3 C 0 km/h
2117 29-12-2019 08:20:00 -3.2 C 3.72 g/m*3 -3.2 C 0 km/h
2118 29-12-2019 08:25:00 -3.2 C 3.72 g/m*3 -3.2 C 0 km/h
2119 29-12-2019 08:30:00 -3.1 C 3.78 g/m*3 -3.1 C 0 km/h
2120 29-12-2019 08:35:00 -3.1 C 3.78 g/m*3 -3.1 C 0 km/h
2121 29-12-2019 08:40:00 -3.1 C 3.78 g/m*3 -3.1 C 0 km/h
2122 29-12-2019 08:45:00 -3.1 C 3.74 g/m*3 -3.1 C 0 km/h
2123 29-12-2019 08:50:00 -3.2 C 3.72 g/m*3 -3.2 C 0 km/h
2124 29-12-2019 08:55:00 -3.2 C 3.72 g/m*3 -3.2 C 0 km/h
2125 29-12-2019 09:00:00 -3.2 C 3.72 g/m*3 -3.2 C 0 km/h
Sensor: Nr:Datum:Temp:Abs-Feuchte:Windchill:Wind:
Aussen-T/F 2126 29-12-2019 09:05:00 -3.1 C 3.74 g/m*3 -3.1 C 0 km/h
2127 29-12-2019 09:10:00 -3.1 C 3.78 g/m*3 -3.1 C 0 km/h
2128 29-12-2019 09:15:00 -2.9 C 3.84 g/m*3 -2.9 C 0 km/h
2129 29-12-2019 09:20:00 -2.9 C 3.8 g/m*3 -2.9 C 0 km/h
2130 29-12-2019 09:25:00 -2.9 C 3.8 g/m*3 -2.9 C 0 km/h
2131 29-12-2019 09:30:00 -2.8 C 3.82 g/m*3 -2.8 C 0 km/h
2132 29-12-2019 09:35:00 -2.8 C 3.82 g/m*3 -2.8 C 0 km/h
2133 29-12-2019 09:40:00 -2.8 C 3.82 g/m*3 -2.8 C 0 km/h
2134 29-12-2019 09:45:00 -2.8 C 3.82 g/m*3 -2.8 C 0 km/h
2135 29-12-2019 09:50:00 -2.8 C 3.82 g/m*3 -2.8 C 0 km/h
2136 29-12-2019 09:55:00 -2.8 C 3.82 g/m*3 -2.8 C 0 km/h
2137 29-12-2019 10:00:00 -2.8 C 3.82 g/m*3 -2.8 C 0 km/h
2138 29-12-2019 10:05:00 -2.8 C 3.82 g/m*3 -2.8 C 0 km/h
2139 29-12-2019 10:10:00 -2.8 C 3.82 g/m*3 -2.8 C 0 km/h
2140 29-12-2019 10:15:00 -2.8 C 3.86 g/m*3 -2.8 C 0 km/h
2141 29-12-2019 10:20:00 -2.7 C 3.89 g/m*3 -2.7 C 0 km/h
2142 29-12-2019 10:25:00 -2.6 C 3.92 g/m*3 -2.6 C 1.6 km/h
2143 29-12-2019 10:30:00 -2.5 C 3.95 g/m*3 -2.5 C 0 km/h
2144 29-12-2019 10:35:00 -2.4 C 3.98 g/m*3 -2.4 C 0 km/h
2145 29-12-2019 10:40:00 -2.3 C 4 g/m*3 -2.3 C 0 km/h
2146 29-12-2019 10:45:00 -2.2 C 4.03 g/m*3 -2.2 C 0 km/h
2147 29-12-2019 10:50:00 -2.2 C 4.03 g/m*3 -2.2 C 0 km/h
2148 29-12-2019 10:55:00 -2.1 C 4.06 g/m*3 -2.1 C 0 km/h
2149 29-12-2019 11:00:00 -1.9 C 4.12 g/m*3 -1.9 C 1.6 km/h
2150 29-12-2019 11:05:00 -1.7 C 4.18 g/m*3 -1.7 C 0 km/h
Sensor: Nr:Datum:Temp:Abs-Feuchte:Windchill:Wind:
Aussen-T/F 2151 29-12-2019 11:10:00 -1.6 C 4.21 g/m*3 -1.6 C 0 km/h
2152 29-12-2019 11:15:00 -1.4 C 4.26 g/m*3 -1.4 C 0 km/h
2153 29-12-2019 11:20:00 -1.3 C 4.29 g/m*3 -1.3 C 0 km/h
2154 29-12-2019 11:25:00 -1.2 C 4.32 g/m*3 -1.2 C 0 km/h
2155 29-12-2019 11:30:00 -1 C 4.38 g/m*3 -1 C 1.6 km/h
2156 29-12-2019 11:35:00 -0.8 C 4.45 g/m*3 -0.8 C 0 km/h
2157 29-12-2019 11:40:00 -0.7 C 4.48 g/m*3 -0.7 C 0 km/h
2158 29-12-2019 11:45:00 -0.6 C 4.51 g/m*3 -0.6 C 0 km/h
2159 29-12-2019 11:50:00 -0.3 C 4.6 g/m*3 -0.3 C 0 km/h
2160 29-12-2019 11:55:00 -0.2 C 4.64 g/m*3 -0.2 C 0 km/h
2161 29-12-2019 12:00:00 -0.1 C 4.67 g/m*3 -0.1 C 1.6 km/h
2162 29-12-2019 12:05:00 0 C 4.7 g/m*3 0 C 1.6 km/h
2163 29-12-2019 12:10:00 0.1 C 4.73 g/m*3 0.1 C 0 km/h
2164 29-12-2019 12:15:00 0.2 C 4.77 g/m*3 0.2 C 0 km/h
2165 29-12-2019 12:20:00 0.3 C 4.8 g/m*3 0.3 C 1.6 km/h
2166 29-12-2019 12:25:00 0.3 C 4.8 g/m*3 0.3 C 0 km/h
2167 29-12-2019 12:30:00 0.4 C 4.83 g/m*3 0.4 C 3.2 km/h
2168 29-12-2019 12:35:00 0.6 C 4.9 g/m*3 0.6 C 0 km/h
2169 29-12-2019 12:40:00 0.6 C 4.9 g/m*3 0.6 C 0 km/h
2170 29-12-2019 12:45:00 0.7 C 4.93 g/m*3 0.7 C 0 km/h
2171 29-12-2019 12:50:00 0.7 C 4.93 g/m*3 0.7 C 0 km/h
2172 29-12-2019 12:55:00 0.8 C 4.97 g/m*3 0.8 C 0 km/h
2173 29-12-2019 13:00:00 0.9 C 5 g/m*3 0.9 C 0 km/h
2174 29-12-2019 13:05:00 1 C 5.03 g/m*3 1 C 0 km/h
2175 29-12-2019 13:10:00 1.1 C 5.07 g/m*3 1.1 C 0 km/h
Sensor: Nr:Datum:Temp:Abs-Feuchte:Windchill:Wind:
Aussen-T/F 2176 29-12-2019 13:15:00 1.2 C 5.1 g/m*3 1.2 C 0 km/h
2177 29-12-2019 13:20:00 1.3 C 5.14 g/m*3 1.3 C 0 km/h
2178 29-12-2019 13:25:00 1.3 C 5.14 g/m*3 1.3 C 0 km/h
2179 29-12-2019 13:30:00 1.4 C 5.17 g/m*3 1.4 C 0 km/h
2180 29-12-2019 13:35:00 1.5 C 5.21 g/m*3 1.5 C 0 km/h
2181 29-12-2019 13:40:00 1.6 C 5.25 g/m*3 1.6 C 0 km/h
2182 29-12-2019 13:45:00 1.6 C 5.25 g/m*3 1.6 C 0 km/h
2183 29-12-2019 13:50:00 1.7 C 5.28 g/m*3 1.7 C 0 km/h
2184 29-12-2019 13:55:00 1.8 C 5.32 g/m*3 1.8 C 0 km/h
2185 29-12-2019 14:00:00 1.8 C 5.32 g/m*3 1.8 C 0 km/h
2186 29-12-2019 14:05:00 1.8 C 5.32 g/m*3 1.8 C 0 km/h
2187 29-12-2019 14:10:00 1.9 C 5.35 g/m*3 1.9 C 0 km/h
2188 29-12-2019 14:15:00 1.9 C 5.35 g/m*3 1.9 C 0 km/h
2189 29-12-2019 14:20:00 2 C 5.39 g/m*3 2 C 0 km/h
2190 29-12-2019 14:25:00 2.1 C 5.43 g/m*3 2.1 C 0 km/h
2191 29-12-2019 14:30:00 2.2 C 5.46 g/m*3 2.2 C 0 km/h
2192 29-12-2019 14:35:00 2.2 C 5.46 g/m*3 2.2 C 1.6 km/h
2193 29-12-2019 14:40:00 2.2 C 5.41 g/m*3 2.2 C 1.6 km/h
2194 29-12-2019 14:45:00 2.2 C 5.41 g/m*3 2.2 C 0 km/h
2195 29-12-2019 14:50:00 2.2 C 5.41 g/m*3 2.2 C 1.6 km/h
2196 29-12-2019 14:55:00 2.2 C 5.35 g/m*3 2.2 C 0 km/h
2197 29-12-2019 15:00:00 2.2 C 5.35 g/m*3 2.2 C 3.2 km/h
2198 29-12-2019 15:05:00 2.2 C 5.29 g/m*3 2.2 C 1.6 km/h
2199 29-12-2019 15:10:00 2.2 C 5.29 g/m*3 2.2 C 0 km/h
2200 29-12-2019 15:15:00 2.2 C 5.29 g/m*3 0.36 C 6.4 km/h
Sensor: Nr:Datum:Temp:Abs-Feuchte:Windchill:Wind:
Aussen-T/F 2201 29-12-2019 15:20:00 2.2 C 5.18 g/m*3 0.36 C 6.4 km/h
2202 29-12-2019 15:25:00 2.3 C 5.16 g/m*3 2.3 C 3.2 km/h
2203 29-12-2019 15:30:00 2.3 C 5.16 g/m*3 2.3 C 1.6 km/h
2204 29-12-2019 15:35:00 2.3 C 5.16 g/m*3 2.3 C 1.6 km/h
2205 29-12-2019 15:40:00 2.3 C 5.22 g/m*3 2.3 C 0 km/h
2206 29-12-2019 15:45:00 2.3 C 5.22 g/m*3 2.3 C 0 km/h
2207 29-12-2019 15:50:00 2.3 C 5.22 g/m*3 2.3 C 0 km/h
2208 29-12-2019 15:55:00 2.2 C 5.18 g/m*3 2.2 C 0 km/h
2209 29-12-2019 16:00:00 2.1 C 5.15 g/m*3 2.1 C 0 km/h
2210 29-12-2019 16:05:00 1.8 C 4.99 g/m*3 1.8 C 0 km/h
2211 29-12-2019 16:10:00 1.7 C 5.01 g/m*3 1.7 C 0 km/h
2212 29-12-2019 16:15:00 1.5 C 4.94 g/m*3 1.5 C 0 km/h
2213 29-12-2019 16:20:00 1.4 C 4.91 g/m*3 1.4 C 0 km/h
2214 29-12-2019 16:25:00 1.3 C 4.87 g/m*3 1.3 C 0 km/h
2215 29-12-2019 16:30:00 1.2 C 4.89 g/m*3 1.2 C 0 km/h
2216 29-12-2019 16:35:00 1.1 C 4.86 g/m*3 1.1 C 0 km/h
2217 29-12-2019 16:40:00 1.1 C 4.86 g/m*3 1.1 C 0 km/h
2218 29-12-2019 16:45:00 0.9 C 4.79 g/m*3 0.9 C 0 km/h
2219 29-12-2019 16:50:00 0.9 C 4.79 g/m*3 0.9 C 0 km/h
2220 29-12-2019 16:55:00 0.8 C 4.76 g/m*3 0.8 C 0 km/h
2221 29-12-2019 17:00:00 0.8 C 4.76 g/m*3 0.8 C 0 km/h
2222 29-12-2019 17:05:00 0.7 C 4.78 g/m*3 0.7 C 0 km/h
2223 29-12-2019 17:10:00 0.7 C 4.78 g/m*3 0.7 C 0 km/h
2224 29-12-2019 17:15:00 0.7 C 4.78 g/m*3 0.7 C 0 km/h
2225 29-12-2019 17:20:00 0.6 C 4.75 g/m*3 0.6 C 0 km/h
Sensor: Nr:Datum:Temp:Abs-Feuchte:Windchill:Wind:
Aussen-T/F 2226 29-12-2019 17:25:00 0.5 C 4.71 g/m*3 0.5 C 1.6 km/h
2227 29-12-2019 17:30:00 0.4 C 4.68 g/m*3 0.4 C 1.6 km/h
2228 29-12-2019 17:35:00 0.4 C 4.68 g/m*3 0.4 C 0 km/h
2229 29-12-2019 17:40:00 0.4 C 4.68 g/m*3 0.4 C 0 km/h
2230 29-12-2019 17:45:00 0.4 C 4.68 g/m*3 0.4 C 0 km/h
2231 29-12-2019 17:50:00 0.4 C 4.68 g/m*3 0.4 C 0 km/h
2232 29-12-2019 17:55:00 0.5 C 4.71 g/m*3 0.5 C 0 km/h
2233 29-12-2019 18:00:00 0.6 C 4.8 g/m*3 0.6 C 0 km/h
2234 29-12-2019 18:05:00 0.6 C 4.75 g/m*3 0.6 C 0 km/h
2235 29-12-2019 18:10:00 0.6 C 4.8 g/m*3 0.6 C 0 km/h
2236 29-12-2019 18:15:00 0.6 C 4.8 g/m*3 0.6 C 0 km/h
2237 29-12-2019 18:20:00 0.7 C 4.83 g/m*3 0.7 C 0 km/h
2238 29-12-2019 18:25:00 0.7 C 4.83 g/m*3 0.7 C 0 km/h
2239 29-12-2019 18:30:00 0.7 C 4.83 g/m*3 0.7 C 0 km/h
2240 29-12-2019 18:35:00 0.7 C 4.83 g/m*3 0.7 C 0 km/h
2241 29-12-2019 18:40:00 0.7 C 4.83 g/m*3 0.7 C 0 km/h
2242 29-12-2019 18:45:00 0.7 C 4.83 g/m*3 0.7 C 0 km/h
2243 29-12-2019 18:50:00 0.6 C 4.8 g/m*3 0.6 C 0 km/h
2244 29-12-2019 18:55:00 0.5 C 4.71 g/m*3 0.5 C 0 km/h
2245 29-12-2019 19:00:00 0.4 C 4.68 g/m*3 0.4 C 0 km/h
2246 29-12-2019 19:05:00 0.3 C 4.65 g/m*3 0.3 C 0 km/h
2247 29-12-2019 19:10:00 0.3 C 4.65 g/m*3 0.3 C 0 km/h
2248 29-12-2019 19:15:00 0.2 C 4.62 g/m*3 0.2 C 0 km/h
2249 29-12-2019 19:20:00 0.2 C 4.62 g/m*3 0.2 C 0 km/h
2250 29-12-2019 19:25:00 0.1 C 4.59 g/m*3 0.1 C 0 km/h
Sensor: Nr:Datum:Temp:Abs-Feuchte:Windchill:Wind:
Aussen-T/F 2251 29-12-2019 19:30:00 0.1 C 4.59 g/m*3 0.1 C 0 km/h
2252 29-12-2019 19:35:00 0 C 4.55 g/m*3 0 C 0 km/h
2253 29-12-2019 19:40:00 -0.1 C 4.52 g/m*3 -0.1 C 0 km/h
2254 29-12-2019 19:45:00 -0.1 C 4.52 g/m*3 -0.1 C 0 km/h
2255 29-12-2019 19:50:00 -0.2 C 4.49 g/m*3 -0.2 C 0 km/h
2256 29-12-2019 19:55:00 -0.2 C 4.49 g/m*3 -0.2 C 0 km/h
2257 29-12-2019 20:00:00 -0.2 C 4.49 g/m*3 -0.2 C 0 km/h
2258 29-12-2019 20:05:00 -0.2 C 4.49 g/m*3 -0.2 C 0 km/h
2259 29-12-2019 20:10:00 -0.3 C 4.46 g/m*3 -0.3 C 0 km/h
2260 29-12-2019 20:15:00 -0.3 C 4.46 g/m*3 -0.3 C 0 km/h
2261 29-12-2019 20:20:00 -0.3 C 4.46 g/m*3 -0.3 C 0 km/h
2262 29-12-2019 20:25:00 -0.2 C 4.49 g/m*3 -0.2 C 0 km/h
2263 29-12-2019 20:30:00 -0.2 C 4.49 g/m*3 -0.2 C 0 km/h
2264 29-12-2019 20:35:00 -0.2 C 4.49 g/m*3 -0.2 C 0 km/h
2265 29-12-2019 20:40:00 -0.2 C 4.49 g/m*3 -0.2 C 0 km/h
2266 29-12-2019 20:45:00 -0.2 C 4.49 g/m*3 -0.2 C 0 km/h
2267 29-12-2019 20:50:00 -0.3 C 4.46 g/m*3 -0.3 C 0 km/h
2268 29-12-2019 20:55:00 -0.3 C 4.46 g/m*3 -0.3 C 0 km/h
2269 29-12-2019 21:00:00 -0.3 C 4.46 g/m*3 -0.3 C 0 km/h
2270 29-12-2019 21:05:00 -0.4 C 4.43 g/m*3 -0.4 C 1.6 km/h
2271 29-12-2019 21:10:00 -0.4 C 4.43 g/m*3 -0.4 C 0 km/h
2272 29-12-2019 21:15:00 -0.5 C 4.4 g/m*3 -0.5 C 0 km/h
2273 29-12-2019 21:20:00 -0.6 C 4.37 g/m*3 -0.6 C 0 km/h
2274 29-12-2019 21:25:00 -0.6 C 4.37 g/m*3 -0.6 C 0 km/h
2275 29-12-2019 21:30:00 -0.7 C 4.34 g/m*3 -0.7 C 0 km/h
Sensor: Nr:Datum:Temp:Abs-Feuchte:Windchill:Wind:
Aussen-T/F 2276 29-12-2019 21:35:00 -0.7 C 4.34 g/m*3 -0.7 C 0 km/h
2277 29-12-2019 21:40:00 -0.7 C 4.34 g/m*3 -0.7 C 0 km/h
2278 29-12-2019 21:45:00 -0.8 C 4.31 g/m*3 -0.8 C 0 km/h
2279 29-12-2019 21:50:00 -0.8 C 4.31 g/m*3 -0.8 C 0 km/h
2280 29-12-2019 21:55:00 -0.8 C 4.31 g/m*3 -0.8 C 0 km/h
2281 29-12-2019 22:00:00 -0.9 C 4.28 g/m*3 -0.9 C 0 km/h
2282 29-12-2019 22:05:00 -0.9 C 4.28 g/m*3 -0.9 C 0 km/h
2283 29-12-2019 22:10:00 -1 C 4.25 g/m*3 -1 C 0 km/h
2284 29-12-2019 22:15:00 -1 C 4.25 g/m*3 -1 C 0 km/h
2285 29-12-2019 22:20:00 -1.1 C 4.22 g/m*3 -1.1 C 0 km/h
2286 29-12-2019 22:25:00 -1.1 C 4.22 g/m*3 -1.1 C 0 km/h
2287 29-12-2019 22:30:00 -1.1 C 4.26 g/m*3 -1.1 C 0 km/h
2288 29-12-2019 22:35:00 -1.1 C 4.26 g/m*3 -1.1 C 0 km/h
2289 29-12-2019 22:40:00 -1.2 C 4.19 g/m*3 -1.2 C 0 km/h
2290 29-12-2019 22:45:00 -1.2 C 4.19 g/m*3 -1.2 C 0 km/h
2291 29-12-2019 22:50:00 -1.2 C 4.19 g/m*3 -1.2 C 0 km/h
2292 29-12-2019 22:55:00 -1.3 C 4.21 g/m*3 -1.3 C 0 km/h
2293 29-12-2019 23:00:00 -1.3 C 4.21 g/m*3 -1.3 C 0 km/h
2294 29-12-2019 23:05:00 -1.3 C 4.21 g/m*3 -1.3 C 0 km/h
2295 29-12-2019 23:10:00 -1.3 C 4.21 g/m*3 -1.3 C 0 km/h
2296 29-12-2019 23:15:00 -1.3 C 4.21 g/m*3 -1.3 C 0 km/h
2297 29-12-2019 23:20:00 -1.3 C 4.21 g/m*3 -1.3 C 0 km/h
2298 29-12-2019 23:25:00 -1.3 C 4.21 g/m*3 -1.3 C 0 km/h
2299 29-12-2019 23:30:00 -1.3 C 4.21 g/m*3 -1.3 C 0 km/h
2300 29-12-2019 23:35:00 -1.3 C 4.21 g/m*3 -1.3 C 0 km/h
Sensor: Nr:Datum:Temp:Abs-Feuchte:Windchill:Wind:
Aussen-T/F 2301 29-12-2019 23:40:00 -1.3 C 4.21 g/m*3 -1.3 C 0 km/h
2302 29-12-2019 23:45:00 -1.4 C 4.18 g/m*3 -1.4 C 0 km/h
2303 29-12-2019 23:50:00 -1.4 C 4.18 g/m*3 -1.4 C 0 km/h
2304 29-12-2019 23:55:00 -1.5 C 4.15 g/m*3 -1.5 C 0 km/h
2305 30-12-2019 00:00:00 -1.6 C 4.12 g/m*3 -1.6 C 0 km/h
2306 30-12-2019 00:05:00 -1.6 C 4.12 g/m*3 -1.6 C 0 km/h
2307 30-12-2019 00:10:00 -1.6 C 4.12 g/m*3 -1.6 C 0 km/h
2308 30-12-2019 00:15:00 -1.6 C 4.12 g/m*3 -1.6 C 0 km/h
2309 30-12-2019 00:20:00 -1.6 C 4.12 g/m*3 -1.6 C 0 km/h
2310 30-12-2019 00:25:00 -1.7 C 4.09 g/m*3 -1.7 C 0 km/h
2311 30-12-2019 00:30:00 -1.7 C 4.09 g/m*3 -1.7 C 0 km/h
2312 30-12-2019 00:35:00 -1.7 C 4.09 g/m*3 -1.7 C 0 km/h
2313 30-12-2019 00:40:00 -1.7 C 4.09 g/m*3 -1.7 C 0 km/h
2314 30-12-2019 00:45:00 -1.8 C 4.06 g/m*3 -1.8 C 0 km/h
2315 30-12-2019 00:50:00 -1.7 C 4.09 g/m*3 -1.7 C 0 km/h
2316 30-12-2019 00:55:00 -1.7 C 4.09 g/m*3 -1.7 C 0 km/h
2317 30-12-2019 01:00:00 -1.7 C 4.09 g/m*3 -1.7 C 0 km/h
2318 30-12-2019 01:05:00 -1.8 C 4.06 g/m*3 -1.8 C 0 km/h
2319 30-12-2019 01:10:00 -1.8 C 4.06 g/m*3 -1.8 C 0 km/h
2320 30-12-2019 01:15:00 -1.8 C 4.06 g/m*3 -1.8 C 0 km/h
2321 30-12-2019 01:20:00 -1.8 C 4.06 g/m*3 -1.8 C 0 km/h
2322 30-12-2019 01:25:00 -1.7 C 4.09 g/m*3 -1.7 C 0 km/h
2323 30-12-2019 01:30:00 -1.8 C 4.06 g/m*3 -1.8 C 0 km/h
2324 30-12-2019 01:35:00 -1.8 C 4.06 g/m*3 -1.8 C 0 km/h
2325 30-12-2019 01:40:00 -1.9 C 4.03 g/m*3 -1.9 C 0 km/h
Sensor: Nr:Datum:Temp:Abs-Feuchte:Windchill:Wind:
Aussen-T/F 2326 30-12-2019 01:45:00 -1.9 C 4.03 g/m*3 -1.9 C 0 km/h
2327 30-12-2019 01:50:00 -1.9 C 4.03 g/m*3 -1.9 C 0 km/h
2328 30-12-2019 01:55:00 -2 C 4 g/m*3 -2 C 0 km/h
2329 30-12-2019 02:00:00 -2 C 4 g/m*3 -2 C 0 km/h
2330 30-12-2019 02:05:00 -2 C 4 g/m*3 -2 C 0 km/h
2331 30-12-2019 02:10:00 -2 C 4.05 g/m*3 -2 C 0 km/h
2332 30-12-2019 02:15:00 -1.9 C 4.08 g/m*3 -1.9 C 0 km/h
2333 30-12-2019 02:20:00 -1.9 C 4.08 g/m*3 -1.9 C 0 km/h
2334 30-12-2019 02:25:00 -1.9 C 4.08 g/m*3 -1.9 C 0 km/h
2335 30-12-2019 02:30:00 -2 C 4.05 g/m*3 -2 C 0 km/h
2336 30-12-2019 02:35:00 -2 C 4 g/m*3 -2 C 0 km/h
2337 30-12-2019 02:40:00 -2 C 4 g/m*3 -2 C 0 km/h
2338 30-12-2019 02:45:00 -2 C 4 g/m*3 -2 C 0 km/h
2339 30-12-2019 02:50:00 -2.1 C 3.98 g/m*3 -2.1 C 0 km/h
2340 30-12-2019 02:55:00 -2.1 C 4.02 g/m*3 -2.1 C 0 km/h
2341 30-12-2019 03:00:00 -2.1 C 4.02 g/m*3 -2.1 C 0 km/h
2342 30-12-2019 03:05:00 -2.1 C 4.02 g/m*3 -2.1 C 0 km/h
2343 30-12-2019 03:10:00 -2.1 C 4.02 g/m*3 -2.1 C 0 km/h
2344 30-12-2019 03:15:00 -2.1 C 4.02 g/m*3 -2.1 C 0 km/h
2345 30-12-2019 03:20:00 -2.1 C 4.02 g/m*3 -2.1 C 0 km/h
2346 30-12-2019 03:25:00 -1.9 C 4.08 g/m*3 -1.9 C 0 km/h
2347 30-12-2019 03:30:00 -1.9 C 4.08 g/m*3 -1.9 C 0 km/h
2348 30-12-2019 03:35:00 -1.9 C 4.08 g/m*3 -1.9 C 0 km/h
2349 30-12-2019 03:40:00 -1.9 C 4.08 g/m*3 -1.9 C 0 km/h
2350 30-12-2019 03:45:00 -1.9 C 4.08 g/m*3 -1.9 C 0 km/h
Sensor: Nr:Datum:Temp:Abs-Feuchte:Windchill:Wind:
Aussen-T/F 2351 30-12-2019 03:50:00 -2.1 C 4.02 g/m*3 -2.1 C 0 km/h
2352 30-12-2019 03:55:00 -2.2 C 3.99 g/m*3 -2.2 C 0 km/h
2353 30-12-2019 04:00:00 -2.2 C 3.99 g/m*3 -2.2 C 0 km/h
2354 30-12-2019 04:05:00 -2.2 C 3.99 g/m*3 -2.2 C 0 km/h
2355 30-12-2019 04:10:00 -2.3 C 3.96 g/m*3 -2.3 C 0 km/h
2356 30-12-2019 04:15:00 -2.3 C 3.96 g/m*3 -2.3 C 0 km/h
2357 30-12-2019 04:20:00 -2.3 C 3.96 g/m*3 -2.3 C 0 km/h
2358 30-12-2019 04:25:00 -2.4 C 3.93 g/m*3 -2.4 C 0 km/h
2359 30-12-2019 04:30:00 -2.4 C 3.93 g/m*3 -2.4 C 0 km/h
2360 30-12-2019 04:35:00 -2.4 C 3.93 g/m*3 -2.4 C 0 km/h
2361 30-12-2019 04:40:00 -2.4 C 3.93 g/m*3 -2.4 C 0 km/h
2362 30-12-2019 04:45:00 -2.5 C 3.91 g/m*3 -2.5 C 0 km/h
2363 30-12-2019 04:50:00 -2.6 C 3.88 g/m*3 -2.6 C 0 km/h
2364 30-12-2019 04:55:00 -2.6 C 3.88 g/m*3 -2.6 C 0 km/h
2365 30-12-2019 05:00:00 -2.6 C 3.88 g/m*3 -2.6 C 0 km/h
2366 30-12-2019 05:05:00 -2.5 C 3.91 g/m*3 -2.5 C 0 km/h
2367 30-12-2019 05:10:00 -2.5 C 3.91 g/m*3 -2.5 C 0 km/h
2368 30-12-2019 05:15:00 -2.5 C 3.91 g/m*3 -2.5 C 0 km/h
2369 30-12-2019 05:20:00 -2.5 C 3.91 g/m*3 -2.5 C 0 km/h
2370 30-12-2019 05:25:00 -2.6 C 3.88 g/m*3 -2.6 C 0 km/h
2371 30-12-2019 05:30:00 -2.6 C 3.88 g/m*3 -2.6 C 0 km/h
2372 30-12-2019 05:35:00 -2.6 C 3.88 g/m*3 -2.6 C 0 km/h
2373 30-12-2019 05:40:00 -2.7 C 3.85 g/m*3 -2.7 C 0 km/h
2374 30-12-2019 05:45:00 -2.7 C 3.85 g/m*3 -2.7 C 0 km/h
2375 30-12-2019 05:50:00 -2.7 C 3.85 g/m*3 -2.7 C 0 km/h
Sensor: Nr:Datum:Temp:Abs-Feuchte:Windchill:Wind:
Aussen-T/F 2376 30-12-2019 05:55:00 -2.6 C 3.88 g/m*3 -2.6 C 0 km/h
2377 30-12-2019 06:00:00 -2.6 C 3.88 g/m*3 -2.6 C 0 km/h
2378 30-12-2019 06:05:00 -2.6 C 3.88 g/m*3 -2.6 C 0 km/h
2379 30-12-2019 06:10:00 -2.6 C 3.88 g/m*3 -2.6 C 0 km/h
2380 30-12-2019 06:15:00 -2.6 C 3.88 g/m*3 -2.6 C 0 km/h
2381 30-12-2019 06:20:00 -2.7 C 3.85 g/m*3 -2.7 C 0 km/h
2382 30-12-2019 06:25:00 -2.7 C 3.85 g/m*3 -2.7 C 0 km/h
2383 30-12-2019 06:30:00 -2.7 C 3.85 g/m*3 -2.7 C 0 km/h
2384 30-12-2019 06:35:00 -2.7 C 3.85 g/m*3 -2.7 C 0 km/h
2385 30-12-2019 06:40:00 -2.8 C 3.82 g/m*3 -2.8 C 0 km/h
2386 30-12-2019 06:45:00 -2.7 C 3.85 g/m*3 -2.7 C 0 km/h
2387 30-12-2019 06:50:00 -2.7 C 3.85 g/m*3 -2.7 C 0 km/h
2388 30-12-2019 06:55:00 -2.7 C 3.85 g/m*3 -2.7 C 0 km/h
2389 30-12-2019 07:00:00 -2.7 C 3.85 g/m*3 -2.7 C 0 km/h
2390 30-12-2019 07:05:00 -2.6 C 3.88 g/m*3 -2.6 C 0 km/h
2391 30-12-2019 07:10:00 -2.6 C 3.88 g/m*3 -2.6 C 0 km/h
2392 30-12-2019 07:15:00 -2.7 C 3.85 g/m*3 -2.7 C 0 km/h
2393 30-12-2019 07:20:00 -2.7 C 3.85 g/m*3 -2.7 C 0 km/h
2394 30-12-2019 07:25:00 -2.8 C 3.82 g/m*3 -2.8 C 0 km/h
2395 30-12-2019 07:30:00 -2.9 C 3.8 g/m*3 -2.9 C 0 km/h
2396 30-12-2019 07:35:00 -2.9 C 3.8 g/m*3 -2.9 C 0 km/h
2397 30-12-2019 07:40:00 -2.9 C 3.8 g/m*3 -2.9 C 0 km/h
2398 30-12-2019 07:45:00 -2.9 C 3.8 g/m*3 -2.9 C 0 km/h
2399 30-12-2019 07:50:00 -2.9 C 3.8 g/m*3 -2.9 C 0 km/h
2400 30-12-2019 07:55:00 -2.9 C 3.8 g/m*3 -2.9 C 0 km/h
Sensor: Nr:Datum:Temp:Abs-Feuchte:Windchill:Wind:
Aussen-T/F 2401 30-12-2019 08:00:00 -2.9 C 3.8 g/m*3 -2.9 C 0 km/h
2402 30-12-2019 08:05:00 -3 C 3.77 g/m*3 -3 C 0 km/h
2403 30-12-2019 08:10:00 -3 C 3.77 g/m*3 -3 C 0 km/h
2404 30-12-2019 08:15:00 -3.1 C 3.74 g/m*3 -3.1 C 0 km/h
2405 30-12-2019 08:20:00 -3.1 C 3.74 g/m*3 -3.1 C 0 km/h
2406 30-12-2019 08:25:00 -3.1 C 3.74 g/m*3 -3.1 C 0 km/h
2407 30-12-2019 08:30:00 -3.1 C 3.74 g/m*3 -3.1 C 0 km/h
2408 30-12-2019 08:35:00 -3.1 C 3.74 g/m*3 -3.1 C 0 km/h
2409 30-12-2019 08:40:00 -3.1 C 3.74 g/m*3 -3.1 C 0 km/h
2410 30-12-2019 08:45:00 -3.1 C 3.74 g/m*3 -3.1 C 0 km/h
2411 30-12-2019 08:50:00 -3.1 C 3.74 g/m*3 -3.1 C 0 km/h
2412 30-12-2019 08:55:00 -3.1 C 3.74 g/m*3 -3.1 C 0 km/h
2413 30-12-2019 09:00:00 -3 C 3.77 g/m*3 -3 C 0 km/h
2414 30-12-2019 09:05:00 -2.9 C 3.8 g/m*3 -2.9 C 0 km/h
2415 30-12-2019 09:10:00 -2.9 C 3.8 g/m*3 -2.9 C 0 km/h
2416 30-12-2019 09:15:00 -2.8 C 3.82 g/m*3 -2.8 C 0 km/h
2417 30-12-2019 09:20:00 -2.7 C 3.85 g/m*3 -2.7 C 0 km/h
2418 30-12-2019 09:25:00 -2.7 C 3.85 g/m*3 -2.7 C 0 km/h
2419 30-12-2019 09:30:00 -2.6 C 3.88 g/m*3 -2.6 C 0 km/h
2420 30-12-2019 09:35:00 -2.6 C 3.88 g/m*3 -2.6 C 0 km/h
2421 30-12-2019 09:40:00 -2.6 C 3.88 g/m*3 -2.6 C 0 km/h
2422 30-12-2019 09:45:00 -2.6 C 3.88 g/m*3 -2.6 C 0 km/h
2423 30-12-2019 09:50:00 -2.6 C 3.88 g/m*3 -2.6 C 0 km/h
2424 30-12-2019 09:55:00 -2.5 C 3.91 g/m*3 -2.5 C 0 km/h
2425 30-12-2019 10:00:00 -2.5 C 3.91 g/m*3 -2.5 C 0 km/h
Sensor: Nr:Datum:Temp:Abs-Feuchte:Windchill:Wind:
Aussen-T/F 2426 30-12-2019 10:05:00 -2.4 C 3.93 g/m*3 -2.4 C 0 km/h
2427 30-12-2019 10:10:00 -2.4 C 3.93 g/m*3 -2.4 C 0 km/h
2428 30-12-2019 10:15:00 -2.3 C 3.96 g/m*3 -2.3 C 0 km/h
2429 30-12-2019 10:20:00 -2.3 C 3.96 g/m*3 -2.3 C 0 km/h
2430 30-12-2019 10:25:00 -2.3 C 3.96 g/m*3 -2.3 C 0 km/h
2431 30-12-2019 10:30:00 -2.2 C 4.03 g/m*3 -2.2 C 0 km/h
2432 30-12-2019 10:35:00 -2.2 C 4.03 g/m*3 -2.2 C 0 km/h
2433 30-12-2019 10:40:00 -2.1 C 4.06 g/m*3 -2.1 C 0 km/h
2434 30-12-2019 10:45:00 -2.1 C 4.06 g/m*3 -2.1 C 0 km/h
2435 30-12-2019 10:50:00 -2 C 4.05 g/m*3 -2 C 0 km/h
2436 30-12-2019 10:55:00 -1.9 C 4.08 g/m*3 -1.9 C 0 km/h
2437 30-12-2019 11:00:00 -1.9 C 4.08 g/m*3 -1.9 C 0 km/h
2438 30-12-2019 11:05:00 -1.8 C 4.15 g/m*3 -1.8 C 0 km/h
2439 30-12-2019 11:10:00 -1.8 C 4.15 g/m*3 -1.8 C 0 km/h
2440 30-12-2019 11:15:00 -1.8 C 4.15 g/m*3 -1.8 C 0 km/h
2441 30-12-2019 11:20:00 -1.7 C 4.18 g/m*3 -1.7 C 0 km/h
2442 30-12-2019 11:25:00 -1.7 C 4.18 g/m*3 -1.7 C 0 km/h
2443 30-12-2019 11:30:00 -1.6 C 4.21 g/m*3 -1.6 C 0 km/h
2444 30-12-2019 11:35:00 -1.6 C 4.21 g/m*3 -1.6 C 0 km/h
2445 30-12-2019 11:40:00 -1.5 C 4.23 g/m*3 -1.5 C 0 km/h
2446 30-12-2019 11:45:00 -1.4 C 4.26 g/m*3 -1.4 C 0 km/h
2447 30-12-2019 11:50:00 -1.3 C 4.29 g/m*3 -1.3 C 0 km/h
2448 30-12-2019 11:55:00 -1.3 C 4.29 g/m*3 -1.3 C 0 km/h
2449 30-12-2019 12:00:00 -1.2 C 4.32 g/m*3 -1.2 C 0 km/h
2450 30-12-2019 12:05:00 -1.1 C 4.35 g/m*3 -1.1 C 1.6 km/h
Sensor: Nr:Datum:Temp:Abs-Feuchte:Windchill:Wind:
Aussen-T/F 2451 30-12-2019 12:10:00 -1.1 C 4.35 g/m*3 -1.1 C 0 km/h
2452 30-12-2019 12:15:00 -0.9 C 4.42 g/m*3 -0.9 C 0 km/h
2453 30-12-2019 12:20:00 -0.8 C 4.45 g/m*3 -0.8 C 0 km/h
2454 30-12-2019 12:25:00 -0.7 C 4.48 g/m*3 -0.7 C 0 km/h
2455 30-12-2019 12:30:00 -0.7 C 4.48 g/m*3 -0.7 C 0 km/h
2456 30-12-2019 12:35:00 -0.6 C 4.51 g/m*3 -0.6 C 0 km/h
2457 30-12-2019 12:40:00 -0.6 C 4.51 g/m*3 -0.6 C 0 km/h
2458 30-12-2019 12:45:00 -0.4 C 4.57 g/m*3 -0.4 C 0 km/h
2459 30-12-2019 12:50:00 -0.3 C 4.6 g/m*3 -0.3 C 0 km/h
2460 30-12-2019 12:55:00 -0.3 C 4.6 g/m*3 -0.3 C 0 km/h
2461 30-12-2019 13:00:00 -0.2 C 4.64 g/m*3 -0.2 C 0 km/h
2462 30-12-2019 13:05:00 -0.1 C 4.67 g/m*3 -0.1 C 0 km/h
2463 30-12-2019 13:10:00 -0.1 C 4.67 g/m*3 -0.1 C 0 km/h
2464 30-12-2019 13:15:00 0.1 C 4.73 g/m*3 0.1 C 0 km/h
2465 30-12-2019 13:20:00 0.1 C 4.73 g/m*3 0.1 C 0 km/h
2466 30-12-2019 13:25:00 0.2 C 4.77 g/m*3 0.2 C 0 km/h
2467 30-12-2019 13:30:00 0.3 C 4.8 g/m*3 0.3 C 0 km/h
2468 30-12-2019 13:35:00 0.3 C 4.8 g/m*3 0.3 C 0 km/h
2469 30-12-2019 13:40:00 0.3 C 4.8 g/m*3 0.3 C 1.6 km/h
2470 30-12-2019 13:45:00 0.4 C 4.83 g/m*3 0.4 C 0 km/h
2471 30-12-2019 13:50:00 0.5 C 4.81 g/m*3 0.5 C 0 km/h
2472 30-12-2019 13:55:00 0.6 C 4.9 g/m*3 0.6 C 0 km/h
2473 30-12-2019 14:00:00 0.6 C 4.85 g/m*3 0.6 C 0 km/h
2474 30-12-2019 14:05:00 0.7 C 4.88 g/m*3 0.7 C 0 km/h
2475 30-12-2019 14:10:00 0.7 C 4.88 g/m*3 0.7 C 0 km/h
Sensor: Nr:Datum:Temp:Abs-Feuchte:Windchill:Wind:
Aussen-T/F 2476 30-12-2019 14:15:00 0.7 C 4.88 g/m*3 0.7 C 0 km/h
2477 30-12-2019 14:20:00 0.8 C 4.91 g/m*3 0.8 C 0 km/h
2478 30-12-2019 14:25:00 0.8 C 4.91 g/m*3 0.8 C 0 km/h
2479 30-12-2019 14:30:00 0.8 C 4.91 g/m*3 0.8 C 0 km/h
2480 30-12-2019 14:35:00 0.9 C 4.95 g/m*3 0.9 C 0 km/h
2481 30-12-2019 14:40:00 1 C 4.98 g/m*3 1 C 4.8 km/h
2482 30-12-2019 14:45:00 1.1 C 4.96 g/m*3 1.1 C 4.8 km/h
2483 30-12-2019 14:50:00 1.2 C 5 g/m*3 1.2 C 3.2 km/h
2484 30-12-2019 14:55:00 1.2 C 5 g/m*3 1.2 C 0 km/h
2485 30-12-2019 15:00:00 1.2 C 5 g/m*3 1.2 C 0 km/h
2486 30-12-2019 15:05:00 1.2 C 5 g/m*3 1.2 C 3.2 km/h
2487 30-12-2019 15:10:00 1.3 C 5.03 g/m*3 1.3 C 3.2 km/h
2488 30-12-2019 15:15:00 1.4 C 5.07 g/m*3 1.4 C 3.2 km/h
2489 30-12-2019 15:20:00 1.4 C 5.07 g/m*3 1.4 C 0 km/h
2490 30-12-2019 15:25:00 1.5 C 5.1 g/m*3 1.5 C 0 km/h
2491 30-12-2019 15:30:00 1.5 C 5.05 g/m*3 1.5 C 0 km/h
2492 30-12-2019 15:35:00 1.6 C 5.08 g/m*3 1.6 C 0 km/h
2493 30-12-2019 15:40:00 1.7 C 5.12 g/m*3 1.7 C 0 km/h
2494 30-12-2019 15:45:00 1.7 C 5.12 g/m*3 1.7 C 0 km/h
2495 30-12-2019 15:50:00 1.8 C 5.1 g/m*3 1.8 C 4.8 km/h
2496 30-12-2019 15:55:00 1.8 C 5.1 g/m*3 1.8 C 4.8 km/h
2497 30-12-2019 16:00:00 1.9 C 5.13 g/m*3 1.9 C 4.8 km/h
2498 30-12-2019 16:05:00 1.9 C 5.13 g/m*3 1.9 C 3.2 km/h
2499 30-12-2019 16:10:00 2 C 5.17 g/m*3 2 C 3.2 km/h
2500 30-12-2019 16:15:00 2.1 C 5.2 g/m*3 2.1 C 4.8 km/h
Sensor: Nr:Datum:Temp:Abs-Feuchte:Windchill:Wind:
Aussen-T/F 2501 30-12-2019 16:20:00 2.1 C 5.2 g/m*3 2.1 C 4.8 km/h
2502 30-12-2019 16:25:00 2.1 C 5.2 g/m*3 2.1 C 0 km/h
2503 30-12-2019 16:30:00 2.1 C 5.2 g/m*3 2.1 C 0 km/h
2504 30-12-2019 16:35:00 2.1 C 5.2 g/m*3 2.1 C 0 km/h
2505 30-12-2019 16:40:00 2.1 C 5.2 g/m*3 2.1 C 0 km/h
2506 30-12-2019 16:45:00 2.1 C 5.2 g/m*3 2.1 C 0 km/h
2507 30-12-2019 16:50:00 1.9 C 5.13 g/m*3 1.9 C 0 km/h
2508 30-12-2019 16:55:00 1.9 C 5.13 g/m*3 1.9 C 0 km/h
2509 30-12-2019 17:00:00 1.9 C 5.13 g/m*3 1.9 C 0 km/h
2510 30-12-2019 17:05:00 1.8 C 5.1 g/m*3 1.8 C 0 km/h
2511 30-12-2019 17:10:00 1.8 C 5.1 g/m*3 1.8 C 0 km/h
2512 30-12-2019 17:15:00 1.7 C 5.06 g/m*3 1.7 C 0 km/h
2513 30-12-2019 17:20:00 1.7 C 5.06 g/m*3 1.7 C 0 km/h
2514 30-12-2019 17:25:00 1.6 C 5.03 g/m*3 1.6 C 0 km/h
2515 30-12-2019 17:30:00 1.6 C 5.03 g/m*3 1.6 C 0 km/h
2516 30-12-2019 17:35:00 1.6 C 5.03 g/m*3 1.6 C 0 km/h
2517 30-12-2019 17:40:00 1.6 C 5.03 g/m*3 1.6 C 0 km/h
2518 30-12-2019 17:45:00 1.6 C 5.08 g/m*3 1.6 C 0 km/h
2519 30-12-2019 17:50:00 1.5 C 4.99 g/m*3 1.5 C 0 km/h
2520 30-12-2019 17:55:00 1.4 C 4.96 g/m*3 1.4 C 0 km/h
2521 30-12-2019 18:00:00 1.4 C 4.96 g/m*3 1.4 C 0 km/h
2522 30-12-2019 18:05:00 1.3 C 4.93 g/m*3 1.3 C 0 km/h
2523 30-12-2019 18:10:00 1.2 C 4.84 g/m*3 1.2 C 0 km/h
2524 30-12-2019 18:15:00 1.2 C 4.84 g/m*3 1.2 C 0 km/h
2525 30-12-2019 18:20:00 1.1 C 4.81 g/m*3 1.1 C 0 km/h
Sensor: Nr:Datum:Temp:Abs-Feuchte:Windchill:Wind:
Aussen-T/F 2526 30-12-2019 18:25:00 0.9 C 4.74 g/m*3 0.9 C 0 km/h
2527 30-12-2019 18:30:00 0.8 C 4.71 g/m*3 0.8 C 0 km/h
2528 30-12-2019 18:35:00 0.7 C 4.68 g/m*3 0.7 C 0 km/h
2529 30-12-2019 18:40:00 0.6 C 4.65 g/m*3 0.6 C 0 km/h
2530 30-12-2019 18:45:00 0.6 C 4.65 g/m*3 0.6 C 0 km/h
2531 30-12-2019 18:50:00 0.6 C 4.7 g/m*3 0.6 C 0 km/h
2532 30-12-2019 18:55:00 0.5 C 4.61 g/m*3 0.5 C 0 km/h
2533 30-12-2019 19:00:00 0.4 C 4.58 g/m*3 0.4 C 0 km/h
2534 30-12-2019 19:05:00 0.3 C 4.55 g/m*3 0.3 C 0 km/h
2535 30-12-2019 19:10:00 0.3 C 4.55 g/m*3 0.3 C 0 km/h
2536 30-12-2019 19:15:00 0.3 C 4.55 g/m*3 0.3 C 0 km/h
2537 30-12-2019 19:20:00 0.2 C 4.52 g/m*3 0.2 C 0 km/h
2538 30-12-2019 19:25:00 0.2 C 4.52 g/m*3 0.2 C 0 km/h
2539 30-12-2019 19:30:00 0.1 C 4.49 g/m*3 0.1 C 0 km/h
2540 30-12-2019 19:35:00 0.1 C 4.49 g/m*3 0.1 C 0 km/h
2541 30-12-2019 19:40:00 0.2 C 4.52 g/m*3 0.2 C 4.8 km/h
2542 30-12-2019 19:45:00 0.3 C 4.6 g/m*3 0.3 C 3.2 km/h
2543 30-12-2019 19:50:00 0.4 C 4.58 g/m*3 0.4 C 4.8 km/h
2544 30-12-2019 19:55:00 0.6 C 4.65 g/m*3 0.6 C 1.6 km/h
2545 30-12-2019 20:00:00 0.7 C 4.63 g/m*3 0.7 C 4.8 km/h
2546 30-12-2019 20:05:00 0.8 C 4.61 g/m*3 0.8 C 4.8 km/h
2547 30-12-2019 20:10:00 0.7 C 4.53 g/m*3 0.7 C 0 km/h
2548 30-12-2019 20:15:00 0.5 C 4.46 g/m*3 0.5 C 0 km/h
2549 30-12-2019 20:20:00 0.3 C 4.4 g/m*3 0.3 C 0 km/h
2550 30-12-2019 20:25:00 0.2 C 4.42 g/m*3 0.2 C 0 km/h
Sensor: Nr:Datum:Temp:Abs-Feuchte:Windchill:Wind:
Aussen-T/F 2551 30-12-2019 20:30:00 0.1 C 4.39 g/m*3 0.1 C 3.2 km/h
2552 30-12-2019 20:35:00 0 C 4.36 g/m*3 0 C 0 km/h
2553 30-12-2019 20:40:00 -0.2 C 4.3 g/m*3 -0.2 C 0 km/h
2554 30-12-2019 20:45:00 -0.3 C 4.32 g/m*3 -0.3 C 0 km/h
2555 30-12-2019 20:50:00 -0.3 C 4.32 g/m*3 -0.3 C 3.2 km/h
2556 30-12-2019 20:55:00 -0.3 C 4.37 g/m*3 -0.3 C 0 km/h
2557 30-12-2019 21:00:00 -0.3 C 4.37 g/m*3 -0.3 C 0 km/h
2558 30-12-2019 21:05:00 -0.4 C 4.29 g/m*3 -0.4 C 0 km/h
2559 30-12-2019 21:10:00 -0.4 C 4.34 g/m*3 -0.4 C 4.8 km/h
2560 30-12-2019 21:15:00 -0.3 C 4.41 g/m*3 -0.3 C 4.8 km/h
2561 30-12-2019 21:20:00 -0.3 C 4.37 g/m*3 -0.3 C 3.2 km/h
2562 30-12-2019 21:25:00 -0.3 C 4.37 g/m*3 -0.3 C 3.2 km/h
2563 30-12-2019 21:30:00 -0.1 C 4.47 g/m*3 -0.1 C 3.2 km/h
2564 30-12-2019 21:35:00 0 C 4.51 g/m*3 0 C 1.6 km/h
2565 30-12-2019 21:40:00 0 C 4.46 g/m*3 0 C 4.8 km/h
2566 30-12-2019 21:45:00 -0.1 C 4.38 g/m*3 -0.1 C 4.8 km/h
2567 30-12-2019 21:50:00 0 C 4.46 g/m*3 0 C 4.8 km/h
2568 30-12-2019 21:55:00 0.1 C 4.49 g/m*3 0.1 C 1.6 km/h
2569 30-12-2019 22:00:00 0.1 C 4.49 g/m*3 0.1 C 1.6 km/h
2570 30-12-2019 22:05:00 0.1 C 4.44 g/m*3 0.1 C 1.6 km/h
2571 30-12-2019 22:10:00 0 C 4.41 g/m*3 0 C 1.6 km/h
2572 30-12-2019 22:15:00 0 C 4.36 g/m*3 0 C 0 km/h
2573 30-12-2019 22:20:00 -0.1 C 4.33 g/m*3 -0.1 C 1.6 km/h
2574 30-12-2019 22:25:00 -0.2 C 4.3 g/m*3 -0.2 C 3.2 km/h
2575 30-12-2019 22:30:00 -0.3 C 4.27 g/m*3 -0.3 C 0 km/h
Sensor: Nr:Datum:Temp:Abs-Feuchte:Windchill:Wind:
Aussen-T/F 2576 30-12-2019 22:35:00 -0.4 C 4.24 g/m*3 -0.4 C 3.2 km/h
2577 30-12-2019 22:40:00 -0.5 C 4.26 g/m*3 -0.5 C 3.2 km/h
2578 30-12-2019 22:45:00 -0.4 C 4.29 g/m*3 -0.4 C 3.2 km/h
2579 30-12-2019 22:50:00 -0.5 C 4.26 g/m*3 -0.5 C 1.6 km/h
2580 30-12-2019 22:55:00 -0.6 C 4.23 g/m*3 -0.6 C 1.6 km/h
2581 30-12-2019 23:00:00 -0.6 C 4.23 g/m*3 -0.6 C 0 km/h
2582 30-12-2019 23:05:00 -0.7 C 4.2 g/m*3 -0.7 C 1.6 km/h
2583 30-12-2019 23:10:00 -0.6 C 4.28 g/m*3 -0.6 C 1.6 km/h
2584 30-12-2019 23:15:00 -0.5 C 4.31 g/m*3 -0.5 C 1.6 km/h
2585 30-12-2019 23:20:00 -0.3 C 4.37 g/m*3 -0.3 C 1.6 km/h
2586 30-12-2019 23:25:00 -0.2 C 4.4 g/m*3 -0.2 C 1.6 km/h
2587 30-12-2019 23:30:00 -0.1 C 4.43 g/m*3 -0.1 C 4.8 km/h
2588 30-12-2019 23:35:00 0.1 C 4.44 g/m*3 0.1 C 3.2 km/h
2589 30-12-2019 23:40:00 0.2 C 4.47 g/m*3 0.2 C 1.6 km/h
2590 30-12-2019 23:45:00 0.2 C 4.42 g/m*3 0.2 C 1.6 km/h
2591 30-12-2019 23:50:00 0.2 C 4.42 g/m*3 0.2 C 0 km/h
2592 30-12-2019 23:55:00 0.2 C 4.42 g/m*3 0.2 C 1.6 km/h
2593 31-12-2019 00:00:00 0.2 C 4.42 g/m*3 0.2 C 1.6 km/h
2594 31-12-2019 00:05:00 0.2 C 4.37 g/m*3 0.2 C 1.6 km/h
2595 31-12-2019 00:10:00 0 C 4.36 g/m*3 0 C 0 km/h
2596 31-12-2019 00:15:00 -0.1 C 4.33 g/m*3 -0.1 C 0 km/h
2597 31-12-2019 00:20:00 -0.1 C 4.33 g/m*3 -0.1 C 0 km/h
2598 31-12-2019 00:25:00 -0.1 C 4.38 g/m*3 -0.1 C 0 km/h
2599 31-12-2019 00:30:00 -0.1 C 4.38 g/m*3 -0.1 C 3.2 km/h
2600 31-12-2019 00:35:00 -0.1 C 4.38 g/m*3 -0.1 C 1.6 km/h
Sensor: Nr:Datum:Temp:Abs-Feuchte:Windchill:Wind:
Aussen-T/F 2601 31-12-2019 00:40:00 -0.1 C 4.38 g/m*3 -0.1 C 1.6 km/h
2602 31-12-2019 00:45:00 -0.1 C 4.38 g/m*3 -0.1 C 0 km/h
2603 31-12-2019 00:50:00 -0.2 C 4.35 g/m*3 -0.2 C 3.2 km/h
2604 31-12-2019 00:55:00 -0.1 C 4.43 g/m*3 -0.1 C 1.6 km/h
2605 31-12-2019 01:00:00 -0.1 C 4.43 g/m*3 -0.1 C 3.2 km/h
2606 31-12-2019 01:05:00 -0.1 C 4.38 g/m*3 -0.1 C 3.2 km/h
2607 31-12-2019 01:10:00 -0.1 C 4.43 g/m*3 -0.1 C 0 km/h
2608 31-12-2019 01:15:00 -0.1 C 4.43 g/m*3 -0.1 C 0 km/h
2609 31-12-2019 01:20:00 0.1 C 4.49 g/m*3 0.1 C 4.8 km/h
2610 31-12-2019 01:25:00 0.1 C 4.44 g/m*3 0.1 C 0 km/h
2611 31-12-2019 01:30:00 0 C 4.41 g/m*3 0 C 0 km/h
2612 31-12-2019 01:35:00 -0.1 C 4.38 g/m*3 -0.1 C 0 km/h
2613 31-12-2019 01:40:00 -0.3 C 4.32 g/m*3 -0.3 C 0 km/h
2614 31-12-2019 01:45:00 -0.4 C 4.29 g/m*3 -0.4 C 0 km/h
2615 31-12-2019 01:50:00 -0.4 C 4.34 g/m*3 -0.4 C 4.8 km/h
2616 31-12-2019 01:55:00 -0.5 C 4.31 g/m*3 -0.5 C 0 km/h
2617 31-12-2019 02:00:00 -0.7 C 4.25 g/m*3 -0.7 C 0 km/h
2618 31-12-2019 02:05:00 -0.7 C 4.25 g/m*3 -0.7 C 3.2 km/h
2619 31-12-2019 02:10:00 -0.8 C 4.22 g/m*3 -0.8 C 0 km/h
2620 31-12-2019 02:15:00 -0.9 C 4.19 g/m*3 -0.9 C 0 km/h
2621 31-12-2019 02:20:00 -1 C 4.16 g/m*3 -1 C 0 km/h
2622 31-12-2019 02:25:00 -1.1 C 4.17 g/m*3 -1.1 C 0 km/h
2623 31-12-2019 02:30:00 -1.2 C 4.15 g/m*3 -1.2 C 0 km/h
2624 31-12-2019 02:35:00 -1.2 C 4.15 g/m*3 -1.2 C 0 km/h
2625 31-12-2019 02:40:00 -1.3 C 4.12 g/m*3 -1.3 C 0 km/h
Sensor: Nr:Datum:Temp:Abs-Feuchte:Windchill:Wind:
Aussen-T/F 2626 31-12-2019 02:45:00 -1.3 C 4.12 g/m*3 -1.3 C 0 km/h
2627 31-12-2019 02:50:00 -1.2 C 4.19 g/m*3 -1.2 C 3.2 km/h
2628 31-12-2019 02:55:00 -1 C 4.25 g/m*3 -1 C 1.6 km/h
2629 31-12-2019 03:00:00 -0.8 C 4.31 g/m*3 -0.8 C 0 km/h
2630 31-12-2019 03:05:00 -0.7 C 4.34 g/m*3 -0.7 C 0 km/h
2631 31-12-2019 03:10:00 -0.7 C 4.34 g/m*3 -0.7 C 0 km/h
2632 31-12-2019 03:15:00 -0.7 C 4.34 g/m*3 -0.7 C 1.6 km/h
2633 31-12-2019 03:20:00 -0.7 C 4.34 g/m*3 -0.7 C 3.2 km/h
2634 31-12-2019 03:25:00 -0.8 C 4.31 g/m*3 -0.8 C 1.6 km/h
2635 31-12-2019 03:30:00 -0.9 C 4.28 g/m*3 -0.9 C 1.6 km/h
2636 31-12-2019 03:35:00 -0.9 C 4.28 g/m*3 -0.9 C 0 km/h
2637 31-12-2019 03:40:00 -1 C 4.25 g/m*3 -1 C 0 km/h
2638 31-12-2019 03:45:00 -1.1 C 4.17 g/m*3 -1.1 C 0 km/h
2639 31-12-2019 03:50:00 -1.2 C 4.19 g/m*3 -1.2 C 0 km/h
2640 31-12-2019 03:55:00 -1.3 C 4.16 g/m*3 -1.3 C 0 km/h
2641 31-12-2019 04:00:00 -1.3 C 4.16 g/m*3 -1.3 C 3.2 km/h
2642 31-12-2019 04:05:00 -1.3 C 4.16 g/m*3 -1.3 C 0 km/h
2643 31-12-2019 04:10:00 -1.3 C 4.16 g/m*3 -1.3 C 0 km/h
2644 31-12-2019 04:15:00 -1.3 C 4.16 g/m*3 -1.3 C 0 km/h
2645 31-12-2019 04:20:00 -1.4 C 4.13 g/m*3 -1.4 C 0 km/h
2646 31-12-2019 04:25:00 -1.6 C 4.07 g/m*3 -1.6 C 0 km/h
2647 31-12-2019 04:30:00 -1.7 C 4.05 g/m*3 -1.7 C 0 km/h
2648 31-12-2019 04:35:00 -1.7 C 4.05 g/m*3 -1.7 C 0 km/h
2649 31-12-2019 04:40:00 -1.7 C 4.05 g/m*3 -1.7 C 0 km/h
2650 31-12-2019 04:45:00 -1.7 C 4.05 g/m*3 -1.7 C 0 km/h
Sensor: Nr:Datum:Temp:Abs-Feuchte:Windchill:Wind:
Aussen-T/F 2651 31-12-2019 04:50:00 -1.7 C 4.05 g/m*3 -1.7 C 0 km/h
2652 31-12-2019 04:55:00 -1.7 C 4.05 g/m*3 -1.7 C 1.6 km/h
2653 31-12-2019 05:00:00 -1.7 C 4.09 g/m*3 -1.7 C 0 km/h
2654 31-12-2019 05:05:00 -1.7 C 4.05 g/m*3 -1.7 C 0 km/h
2655 31-12-2019 05:10:00 -1.8 C 4.02 g/m*3 -1.8 C 0 km/h
2656 31-12-2019 05:15:00 -1.8 C 4.02 g/m*3 -1.8 C 0 km/h
2657 31-12-2019 05:20:00 -1.8 C 4.06 g/m*3 -1.8 C 0 km/h
2658 31-12-2019 05:25:00 -1.8 C 4.06 g/m*3 -1.8 C 0 km/h
2659 31-12-2019 05:30:00 -1.7 C 4.09 g/m*3 -1.7 C 0 km/h
2660 31-12-2019 05:35:00 -1.7 C 4.09 g/m*3 -1.7 C 0 km/h
2661 31-12-2019 05:40:00 -1.7 C 4.09 g/m*3 -1.7 C 0 km/h
2662 31-12-2019 05:45:00 -1.6 C 4.12 g/m*3 -1.6 C 0 km/h
2663 31-12-2019 05:50:00 -1.6 C 4.12 g/m*3 -1.6 C 0 km/h
2664 31-12-2019 05:55:00 -1.6 C 4.12 g/m*3 -1.6 C 3.2 km/h
2665 31-12-2019 06:00:00 -1.6 C 4.12 g/m*3 -1.6 C 3.2 km/h
2666 31-12-2019 06:05:00 -1.7 C 4.09 g/m*3 -1.7 C 0 km/h
2667 31-12-2019 06:10:00 -1.7 C 4.09 g/m*3 -1.7 C 0 km/h
2668 31-12-2019 06:15:00 -1.8 C 4.06 g/m*3 -1.8 C 0 km/h
2669 31-12-2019 06:20:00 -1.8 C 4.06 g/m*3 -1.8 C 0 km/h
2670 31-12-2019 06:25:00 -1.8 C 4.06 g/m*3 -1.8 C 0 km/h
2671 31-12-2019 06:30:00 -1.8 C 4.06 g/m*3 -1.8 C 0 km/h
2672 31-12-2019 06:35:00 -1.8 C 4.06 g/m*3 -1.8 C 0 km/h
2673 31-12-2019 06:40:00 -1.9 C 4.03 g/m*3 -1.9 C 0 km/h
2674 31-12-2019 06:45:00 -1.9 C 4.03 g/m*3 -1.9 C 0 km/h
2675 31-12-2019 06:50:00 -1.9 C 4.03 g/m*3 -1.9 C 0 km/h
Sensor: Nr:Datum:Temp:Abs-Feuchte:Windchill:Wind:
Aussen-T/F 2676 31-12-2019 06:55:00 -1.8 C 4.06 g/m*3 -1.8 C 0 km/h
2677 31-12-2019 07:00:00 -1.8 C 4.06 g/m*3 -1.8 C 0 km/h
2678 31-12-2019 07:05:00 -1.8 C 4.06 g/m*3 -1.8 C 0 km/h
2679 31-12-2019 07:10:00 -1.8 C 4.06 g/m*3 -1.8 C 0 km/h
2680 31-12-2019 07:15:00 -1.7 C 4.09 g/m*3 -1.7 C 0 km/h
2681 31-12-2019 07:20:00 -1.7 C 4.13 g/m*3 -1.7 C 0 km/h
2682 31-12-2019 07:25:00 -1.7 C 4.13 g/m*3 -1.7 C 0 km/h
2683 31-12-2019 07:30:00 -1.7 C 4.09 g/m*3 -1.7 C 0 km/h
2684 31-12-2019 07:35:00 -1.8 C 4.06 g/m*3 -1.8 C 0 km/h
2685 31-12-2019 07:40:00 -1.8 C 4.1 g/m*3 -1.8 C 0 km/h
2686 31-12-2019 07:45:00 -1.7 C 4.13 g/m*3 -1.7 C 0 km/h
2687 31-12-2019 07:50:00 -1.6 C 4.16 g/m*3 -1.6 C 0 km/h
2688 31-12-2019 07:55:00 -1.4 C 4.22 g/m*3 -1.4 C 0 km/h
2689 31-12-2019 08:00:00 -1.3 C 4.25 g/m*3 -1.3 C 0 km/h
2690 31-12-2019 08:05:00 -1.2 C 4.28 g/m*3 -1.2 C 3.2 km/h
2691 31-12-2019 08:10:00 -1.2 C 4.28 g/m*3 -1.2 C 3.2 km/h
2692 31-12-2019 08:15:00 -1.1 C 4.31 g/m*3 -1.1 C 0 km/h
2693 31-12-2019 08:20:00 -0.9 C 4.37 g/m*3 -0.9 C 0 km/h
2694 31-12-2019 08:25:00 -0.8 C 4.4 g/m*3 -0.8 C 1.6 km/h
2695 31-12-2019 08:30:00 -0.7 C 4.43 g/m*3 -0.7 C 1.6 km/h
2696 31-12-2019 08:35:00 -0.4 C 4.52 g/m*3 -2.64 C 6.4 km/h
2697 31-12-2019 08:40:00 -0.3 C 4.6 g/m*3 -0.3 C 1.6 km/h
2698 31-12-2019 08:45:00 -0.2 C 4.59 g/m*3 -0.2 C 0 km/h
2699 31-12-2019 08:50:00 -0.2 C 4.59 g/m*3 -0.2 C 0 km/h
2700 31-12-2019 08:55:00 -0.2 C 4.59 g/m*3 -0.2 C 4.8 km/h
Sensor: Nr:Datum:Temp:Abs-Feuchte:Windchill:Wind:
Aussen-T/F 2701 31-12-2019 09:00:00 -0.2 C 4.59 g/m*3 -0.2 C 3.2 km/h
2702 31-12-2019 09:05:00 -0.2 C 4.59 g/m*3 -0.2 C 0 km/h
2703 31-12-2019 09:10:00 -0.1 C 4.62 g/m*3 -0.1 C 0 km/h
2704 31-12-2019 09:15:00 -0.1 C 4.62 g/m*3 -0.1 C 0 km/h
2705 31-12-2019 09:20:00 -0.1 C 4.62 g/m*3 -0.1 C 1.6 km/h
2706 31-12-2019 09:25:00 -0.1 C 4.62 g/m*3 -0.1 C 1.6 km/h
2707 31-12-2019 09:30:00 -0.1 C 4.62 g/m*3 -0.1 C 0 km/h
2708 31-12-2019 09:35:00 -0.1 C 4.62 g/m*3 -0.1 C 0 km/h
2709 31-12-2019 09:40:00 -0.1 C 4.62 g/m*3 -0.1 C 0 km/h
2710 31-12-2019 09:45:00 -0.1 C 4.62 g/m*3 -0.1 C 0 km/h
2711 31-12-2019 09:50:00 0 C 4.65 g/m*3 0 C 0 km/h
2712 31-12-2019 09:55:00 0 C 4.65 g/m*3 0 C 0 km/h
2713 31-12-2019 10:00:00 0.1 C 4.68 g/m*3 0.1 C 0 km/h
2714 31-12-2019 10:05:00 0.2 C 4.72 g/m*3 0.2 C 0 km/h
2715 31-12-2019 10:10:00 0.2 C 4.72 g/m*3 0.2 C 1.6 km/h
2716 31-12-2019 10:15:00 0.3 C 4.75 g/m*3 0.3 C 0 km/h
2717 31-12-2019 10:20:00 0.3 C 4.75 g/m*3 0.3 C 0 km/h
2718 31-12-2019 10:25:00 0.4 C 4.78 g/m*3 0.4 C 0 km/h
2719 31-12-2019 10:30:00 0.5 C 4.81 g/m*3 0.5 C 0 km/h
2720 31-12-2019 10:35:00 0.6 C 4.85 g/m*3 0.6 C 0 km/h
2721 31-12-2019 10:40:00 0.7 C 4.83 g/m*3 0.7 C 1.6 km/h
2722 31-12-2019 10:45:00 0.7 C 4.83 g/m*3 0.7 C 0 km/h
2723 31-12-2019 10:50:00 0.8 C 4.86 g/m*3 0.8 C 0 km/h
2724 31-12-2019 10:55:00 0.8 C 4.86 g/m*3 0.8 C 0 km/h
2725 31-12-2019 11:00:00 0.9 C 4.9 g/m*3 0.9 C 0 km/h
Sensor: Nr:Datum:Temp:Abs-Feuchte:Windchill:Wind:
Aussen-T/F 2726 31-12-2019 11:05:00 0.9 C 4.9 g/m*3 0.9 C 0 km/h
2727 31-12-2019 11:10:00 1 C 4.93 g/m*3 1 C 0 km/h
2728 31-12-2019 11:15:00 1.1 C 4.91 g/m*3 1.1 C 0 km/h
2729 31-12-2019 11:20:00 1.1 C 4.91 g/m*3 1.1 C 0 km/h
2730 31-12-2019 11:25:00 1.2 C 4.95 g/m*3 1.2 C 0 km/h
2731 31-12-2019 11:30:00 1.2 C 4.95 g/m*3 1.2 C 0 km/h
2732 31-12-2019 11:35:00 1.3 C 4.98 g/m*3 1.3 C 0 km/h
2733 31-12-2019 11:40:00 1.3 C 4.98 g/m*3 1.3 C 1.6 km/h
2734 31-12-2019 11:45:00 1.4 C 5.01 g/m*3 1.4 C 0 km/h
2735 31-12-2019 11:50:00 1.5 C 4.99 g/m*3 1.5 C 0 km/h
2736 31-12-2019 11:55:00 1.6 C 5.03 g/m*3 1.6 C 0 km/h
2737 31-12-2019 12:00:00 1.7 C 5.12 g/m*3 1.7 C 0 km/h
2738 31-12-2019 12:05:00 1.8 C 5.1 g/m*3 -0.1 C 6.4 km/h
2739 31-12-2019 12:10:00 2 C 5.17 g/m*3 2 C 1.6 km/h
2740 31-12-2019 12:15:00 2.1 C 5.2 g/m*3 2.1 C 0 km/h
2741 31-12-2019 12:20:00 2.3 C 5.27 g/m*3 2.3 C 0 km/h
2742 31-12-2019 12:25:00 2.3 C 5.27 g/m*3 2.3 C 1.6 km/h
2743 31-12-2019 12:30:00 2.4 C 5.25 g/m*3 2.4 C 0 km/h
2744 31-12-2019 12:35:00 2.4 C 5.25 g/m*3 2.4 C 0 km/h
2745 31-12-2019 12:40:00 2.5 C 5.29 g/m*3 2.5 C 0 km/h
2746 31-12-2019 12:45:00 2.6 C 5.32 g/m*3 2.6 C 1.6 km/h
2747 31-12-2019 12:50:00 2.6 C 5.27 g/m*3 2.6 C 3.2 km/h
2748 31-12-2019 12:55:00 2.6 C 5.21 g/m*3 2.6 C 1.6 km/h
2749 31-12-2019 13:00:00 2.6 C 5.21 g/m*3 2.6 C 1.6 km/h
2750 31-12-2019 13:05:00 2.6 C 5.21 g/m*3 2.6 C 0 km/h
Sensor: Nr:Datum:Temp:Abs-Feuchte:Windchill:Wind:
Aussen-T/F 2751 31-12-2019 13:10:00 2.7 C 5.19 g/m*3 2.7 C 0 km/h
2752 31-12-2019 13:15:00 2.7 C 5.19 g/m*3 2.7 C 0 km/h
2753 31-12-2019 13:20:00 2.7 C 5.19 g/m*3 2.7 C 0 km/h
2754 31-12-2019 13:25:00 2.8 C 5.22 g/m*3 2.8 C 0 km/h
2755 31-12-2019 13:30:00 2.8 C 5.22 g/m*3 2.8 C 0 km/h
2756 31-12-2019 13:35:00 2.9 C 5.26 g/m*3 2.9 C 0 km/h
2757 31-12-2019 13:40:00 3 C 5.29 g/m*3 3 C 0 km/h
2758 31-12-2019 13:45:00 3.1 C 5.33 g/m*3 3.1 C 0 km/h
2759 31-12-2019 13:50:00 3.1 C 5.27 g/m*3 3.1 C 0 km/h
2760 31-12-2019 13:55:00 3.1 C 5.27 g/m*3 3.1 C 0 km/h
2761 31-12-2019 14:00:00 3.1 C 5.27 g/m*3 3.1 C 0 km/h
2762 31-12-2019 14:05:00 3.1 C 5.21 g/m*3 3.1 C 0 km/h
2763 31-12-2019 14:10:00 3.2 C 5.3 g/m*3 3.2 C 0 km/h
2764 31-12-2019 14:15:00 3.2 C 5.3 g/m*3 3.2 C 0 km/h
2765 31-12-2019 14:20:00 3.2 C 5.24 g/m*3 3.2 C 0 km/h
2766 31-12-2019 14:25:00 3.2 C 5.3 g/m*3 3.2 C 0 km/h
2767 31-12-2019 14:30:00 3.3 C 5.34 g/m*3 3.3 C 0 km/h
2768 31-12-2019 14:35:00 3.3 C 5.34 g/m*3 3.3 C 0 km/h
2769 31-12-2019 14:40:00 3.4 C 5.37 g/m*3 3.4 C 0 km/h
2770 31-12-2019 14:45:00 3.4 C 5.37 g/m*3 3.4 C 0 km/h
2771 31-12-2019 14:50:00 3.4 C 5.37 g/m*3 3.4 C 0 km/h
2772 31-12-2019 14:55:00 3.4 C 5.31 g/m*3 3.4 C 0 km/h
2773 31-12-2019 15:00:00 3.4 C 5.31 g/m*3 3.4 C 0 km/h
2774 31-12-2019 15:05:00 3.4 C 5.31 g/m*3 3.4 C 0 km/h
2775 31-12-2019 15:10:00 3.4 C 5.31 g/m*3 3.4 C 0 km/h
Sensor: Nr:Datum:Temp:Abs-Feuchte:Windchill:Wind:
Aussen-T/F 2776 31-12-2019 15:15:00 3.4 C 5.31 g/m*3 3.4 C 0 km/h
2777 31-12-2019 15:20:00 3.4 C 5.37 g/m*3 3.4 C 0 km/h
2778 31-12-2019 15:25:00 3.5 C 5.41 g/m*3 3.5 C 0 km/h
2779 31-12-2019 15:30:00 3.5 C 5.35 g/m*3 3.5 C 0 km/h
2780 31-12-2019 15:35:00 3.5 C 5.35 g/m*3 3.5 C 0 km/h
2781 31-12-2019 15:40:00 3.5 C 5.35 g/m*3 3.5 C 0 km/h
2782 31-12-2019 15:45:00 3.6 C 5.45 g/m*3 3.6 C 0 km/h
2783 31-12-2019 15:50:00 3.6 C 5.45 g/m*3 3.6 C 0 km/h
2784 31-12-2019 15:55:00 3.6 C 5.45 g/m*3 3.6 C 0 km/h
2785 31-12-2019 16:00:00 3.5 C 5.41 g/m*3 3.5 C 0 km/h
2786 31-12-2019 16:05:00 3.4 C 5.44 g/m*3 3.4 C 0 km/h
2787 31-12-2019 16:10:00 3.2 C 5.3 g/m*3 3.2 C 0 km/h
2788 31-12-2019 16:15:00 2.9 C 5.2 g/m*3 2.9 C 0 km/h
2789 31-12-2019 16:20:00 2.6 C 5.09 g/m*3 2.6 C 0 km/h
2790 31-12-2019 16:25:00 2.3 C 4.99 g/m*3 2.3 C 0 km/h
2791 31-12-2019 16:30:00 2 C 4.95 g/m*3 2 C 0 km/h
2792 31-12-2019 16:35:00 1.8 C 4.93 g/m*3 1.8 C 0 km/h
2793 31-12-2019 16:40:00 1.6 C 4.87 g/m*3 1.6 C 0 km/h
2794 31-12-2019 16:45:00 1.4 C 4.85 g/m*3 1.4 C 0 km/h
2795 31-12-2019 16:50:00 1.3 C 4.82 g/m*3 1.3 C 0 km/h
2796 31-12-2019 16:55:00 1.2 C 4.84 g/m*3 1.2 C 0 km/h
2797 31-12-2019 17:00:00 1.1 C 4.81 g/m*3 1.1 C 0 km/h
2798 31-12-2019 17:05:00 0.9 C 4.74 g/m*3 0.9 C 0 km/h
2799 31-12-2019 17:10:00 0.8 C 4.71 g/m*3 0.8 C 0 km/h
2800 31-12-2019 17:15:00 0.8 C 4.71 g/m*3 0.8 C 0 km/h
Sensor: Nr:Datum:Temp:Abs-Feuchte:Windchill:Wind:
Aussen-T/F 2801 31-12-2019 17:20:00 0.7 C 4.68 g/m*3 0.7 C 0 km/h
2802 31-12-2019 17:25:00 0.7 C 4.73 g/m*3 0.7 C 0 km/h
2803 31-12-2019 17:30:00 0.6 C 4.7 g/m*3 0.6 C 0 km/h
2804 31-12-2019 17:35:00 0.6 C 4.7 g/m*3 0.6 C 0 km/h
2805 31-12-2019 17:40:00 0.5 C 4.66 g/m*3 0.5 C 0 km/h
2806 31-12-2019 17:45:00 0.4 C 4.63 g/m*3 0.4 C 0 km/h
2807 31-12-2019 17:50:00 0.4 C 4.63 g/m*3 0.4 C 0 km/h
2808 31-12-2019 17:55:00 0.4 C 4.63 g/m*3 0.4 C 0 km/h
2809 31-12-2019 18:00:00 0.3 C 4.65 g/m*3 0.3 C 0 km/h
2810 31-12-2019 18:05:00 0.3 C 4.65 g/m*3 0.3 C 0 km/h
2811 31-12-2019 18:10:00 0.2 C 4.57 g/m*3 0.2 C 0 km/h
2812 31-12-2019 18:15:00 0.2 C 4.62 g/m*3 0.2 C 0 km/h
2813 31-12-2019 18:20:00 0.2 C 4.62 g/m*3 0.2 C 0 km/h
2814 31-12-2019 18:25:00 0.2 C 4.62 g/m*3 0.2 C 0 km/h
2815 31-12-2019 18:30:00 0.3 C 4.65 g/m*3 0.3 C 0 km/h
2816 31-12-2019 18:35:00 0.3 C 4.7 g/m*3 0.3 C 0 km/h
2817 31-12-2019 18:40:00 0.3 C 4.7 g/m*3 0.3 C 0 km/h
2818 31-12-2019 18:45:00 0.4 C 4.73 g/m*3 0.4 C 0 km/h
2819 31-12-2019 18:50:00 0.5 C 4.76 g/m*3 0.5 C 0 km/h
2820 31-12-2019 18:55:00 0.6 C 4.8 g/m*3 0.6 C 0 km/h
2821 31-12-2019 19:00:00 0.6 C 4.8 g/m*3 0.6 C 0 km/h
2822 31-12-2019 19:05:00 0.7 C 4.83 g/m*3 0.7 C 0 km/h
2823 31-12-2019 19:10:00 0.7 C 4.83 g/m*3 0.7 C 0 km/h
2824 31-12-2019 19:15:00 0.7 C 4.83 g/m*3 0.7 C 0 km/h
2825 31-12-2019 19:20:00 0.8 C 4.86 g/m*3 0.8 C 0 km/h
Sensor: Nr:Datum:Temp:Abs-Feuchte:Windchill:Wind:
Aussen-T/F 2826 31-12-2019 19:25:00 0.8 C 4.86 g/m*3 0.8 C 0 km/h
2827 31-12-2019 19:30:00 0.9 C 4.9 g/m*3 0.9 C 0 km/h
2828 31-12-2019 19:35:00 0.9 C 4.9 g/m*3 0.9 C 0 km/h
2829 31-12-2019 19:40:00 1 C 4.93 g/m*3 1 C 0 km/h
2830 31-12-2019 19:45:00 1.1 C 5.02 g/m*3 1.1 C 0 km/h
2831 31-12-2019 19:50:00 1.1 C 4.96 g/m*3 1.1 C 0 km/h
2832 31-12-2019 19:55:00 1.2 C 5 g/m*3 1.2 C 0 km/h
2833 31-12-2019 20:00:00 1.2 C 5 g/m*3 1.2 C 0 km/h
2834 31-12-2019 20:05:00 1.2 C 5 g/m*3 1.2 C 0 km/h
2835 31-12-2019 20:10:00 1.3 C 5.09 g/m*3 1.3 C 0 km/h
2836 31-12-2019 20:15:00 1.3 C 5.09 g/m*3 1.3 C 0 km/h
2837 31-12-2019 20:20:00 1.3 C 5.09 g/m*3 1.3 C 0 km/h
2838 31-12-2019 20:25:00 1.3 C 5.03 g/m*3 1.3 C 0 km/h
2839 31-12-2019 20:30:00 1.3 C 5.03 g/m*3 1.3 C 0 km/h
2840 31-12-2019 20:35:00 1.3 C 5.03 g/m*3 1.3 C 0 km/h
2841 31-12-2019 20:40:00 1.3 C 5.03 g/m*3 1.3 C 0 km/h
2842 31-12-2019 20:45:00 1.3 C 5.03 g/m*3 1.3 C 0 km/h
2843 31-12-2019 20:50:00 1.2 C 5 g/m*3 1.2 C 0 km/h
2844 31-12-2019 20:55:00 1.2 C 5 g/m*3 1.2 C 0 km/h
2845 31-12-2019 21:00:00 1.2 C 5 g/m*3 1.2 C 0 km/h
2846 31-12-2019 21:05:00 1.2 C 5 g/m*3 1.2 C 0 km/h
2847 31-12-2019 21:10:00 1.2 C 5 g/m*3 1.2 C 0 km/h
2848 31-12-2019 21:15:00 1.2 C 5 g/m*3 1.2 C 0 km/h
2849 31-12-2019 21:20:00 1.2 C 5 g/m*3 1.2 C 0 km/h
2850 31-12-2019 21:25:00 1.2 C 5 g/m*3 1.2 C 0 km/h
Sensor: Nr:Datum:Temp:Abs-Feuchte:Windchill:Wind:
Aussen-T/F 2851 31-12-2019 21:30:00 1.2 C 5 g/m*3 1.2 C 0 km/h
2852 31-12-2019 21:35:00 1.2 C 5 g/m*3 1.2 C 1.6 km/h
2853 31-12-2019 21:40:00 1.3 C 5.03 g/m*3 1.3 C 0 km/h
2854 31-12-2019 21:45:00 1.3 C 5.03 g/m*3 1.3 C 0 km/h
2855 31-12-2019 21:50:00 1.3 C 5.03 g/m*3 1.3 C 0 km/h
2856 31-12-2019 21:55:00 1.3 C 5.03 g/m*3 1.3 C 0 km/h
2857 31-12-2019 22:00:00 1.3 C 5.03 g/m*3 1.3 C 1.6 km/h
2858 31-12-2019 22:05:00 1.3 C 5.03 g/m*3 1.3 C 0 km/h
2859 31-12-2019 22:10:00 1.3 C 5.03 g/m*3 1.3 C 0 km/h
2860 31-12-2019 22:15:00 1.3 C 5.03 g/m*3 1.3 C 0 km/h
2861 31-12-2019 22:20:00 1.3 C 5.03 g/m*3 1.3 C 0 km/h
2862 31-12-2019 22:25:00 1.3 C 5.03 g/m*3 1.3 C 0 km/h
2863 31-12-2019 22:30:00 1.2 C 5 g/m*3 1.2 C 0 km/h
2864 31-12-2019 22:35:00 1.1 C 4.96 g/m*3 1.1 C 0 km/h
2865 31-12-2019 22:40:00 1.1 C 4.96 g/m*3 1.1 C 0 km/h
2866 31-12-2019 22:45:00 1.1 C 4.96 g/m*3 1.1 C 0 km/h
2867 31-12-2019 22:50:00 1 C 4.93 g/m*3 1 C 0 km/h
2868 31-12-2019 22:55:00 0.9 C 4.9 g/m*3 0.9 C 0 km/h
2869 31-12-2019 23:00:00 0.9 C 4.9 g/m*3 0.9 C 0 km/h
2870 31-12-2019 23:05:00 0.8 C 4.86 g/m*3 0.8 C 0 km/h
2871 31-12-2019 23:10:00 0.8 C 4.86 g/m*3 0.8 C 0 km/h
2872 31-12-2019 23:15:00 0.8 C 4.86 g/m*3 0.8 C 0 km/h
2873 31-12-2019 23:20:00 0.8 C 4.86 g/m*3 0.8 C 0 km/h
2874 31-12-2019 23:25:00 0.8 C 4.86 g/m*3 0.8 C 0 km/h
2875 31-12-2019 23:30:00 0.9 C 4.9 g/m*3 0.9 C 0 km/h
Sensor: Nr:Datum:Temp:Abs-Feuchte:Windchill:Wind:
Aussen-T/F 2876 31-12-2019 23:35:00 0.9 C 4.95 g/m*3 0.9 C 0 km/h
2877 31-12-2019 23:40:00 0.9 C 4.95 g/m*3 0.9 C 0 km/h
2878 31-12-2019 23:45:00 1 C 4.98 g/m*3 1 C 0 km/h
2879 31-12-2019 23:50:00 1.1 C 5.02 g/m*3 1.1 C 0 km/h
2880 31-12-2019 23:55:00 1.2 C 5.05 g/m*3 1.2 C 0 km/h
2881 01-01-2020 00:00:00 1.2 C 5.05 g/m*3 1.2 C 0 km/h
2882 01-01-2020 00:05:00 1.2 C 5.05 g/m*3 1.2 C 0 km/h
2883 01-01-2020 00:10:00 1.2 C 5.05 g/m*3 1.2 C 0 km/h
2884 01-01-2020 00:15:00 1.2 C 5.05 g/m*3 1.2 C 0 km/h
2885 01-01-2020 00:20:00 1.2 C 5.05 g/m*3 1.2 C 0 km/h
2886 01-01-2020 00:25:00 1.2 C 5.05 g/m*3 1.2 C 0 km/h
2887 01-01-2020 00:30:00 1.1 C 5.02 g/m*3 1.1 C 0 km/h
2888 01-01-2020 00:35:00 0.9 C 4.9 g/m*3 0.9 C 0 km/h
2889 01-01-2020 00:40:00 0.8 C 4.86 g/m*3 0.8 C 1.6 km/h
2890 01-01-2020 00:45:00 0.7 C 4.83 g/m*3 0.7 C 1.6 km/h
2891 01-01-2020 00:50:00 0.6 C 4.8 g/m*3 0.6 C 1.6 km/h
2892 01-01-2020 00:55:00 0.5 C 4.76 g/m*3 0.5 C 0 km/h
2893 01-01-2020 01:00:00 0.4 C 4.73 g/m*3 0.4 C 3.2 km/h
2894 01-01-2020 01:05:00 0.3 C 4.7 g/m*3 0.3 C 1.6 km/h
2895 01-01-2020 01:10:00 0.3 C 4.7 g/m*3 0.3 C 0 km/h
2896 01-01-2020 01:15:00 0.3 C 4.75 g/m*3 0.3 C 0 km/h
2897 01-01-2020 01:20:00 0.3 C 4.75 g/m*3 0.3 C 0 km/h
2898 01-01-2020 01:25:00 0.4 C 4.78 g/m*3 0.4 C 0 km/h
2899 01-01-2020 01:30:00 0.4 C 4.78 g/m*3 0.4 C 0 km/h
2900 01-01-2020 01:35:00 0.5 C 4.81 g/m*3 0.5 C 0 km/h
Sensor: Nr:Datum:Temp:Abs-Feuchte:Windchill:Wind:
Aussen-T/F 2901 01-01-2020 01:40:00 0.4 C 4.78 g/m*3 0.4 C 0 km/h
2902 01-01-2020 01:45:00 0.4 C 4.78 g/m*3 0.4 C 0 km/h
2903 01-01-2020 01:50:00 0.3 C 4.75 g/m*3 0.3 C 0 km/h
2904 01-01-2020 01:55:00 0.2 C 4.72 g/m*3 0.2 C 0 km/h
2905 01-01-2020 02:00:00 0.1 C 4.68 g/m*3 0.1 C 0 km/h
2906 01-01-2020 02:05:00 0.1 C 4.68 g/m*3 0.1 C 0 km/h
2907 01-01-2020 02:10:00 0.2 C 4.72 g/m*3 0.2 C 0 km/h
2908 01-01-2020 02:15:00 0.2 C 4.72 g/m*3 0.2 C 0 km/h
2909 01-01-2020 02:20:00 0.4 C 4.78 g/m*3 0.4 C 0 km/h
2910 01-01-2020 02:25:00 0.5 C 4.81 g/m*3 0.5 C 0 km/h
2911 01-01-2020 02:30:00 0.6 C 4.85 g/m*3 0.6 C 0 km/h
2912 01-01-2020 02:35:00 0.7 C 4.88 g/m*3 0.7 C 0 km/h
2913 01-01-2020 02:40:00 0.8 C 4.91 g/m*3 0.8 C 0 km/h
2914 01-01-2020 02:45:00 0.8 C 4.91 g/m*3 0.8 C 0 km/h
2915 01-01-2020 02:50:00 0.8 C 4.91 g/m*3 0.8 C 0 km/h
2916 01-01-2020 02:55:00 0.9 C 4.95 g/m*3 0.9 C 0 km/h
2917 01-01-2020 03:00:00 0.9 C 4.95 g/m*3 0.9 C 0 km/h
2918 01-01-2020 03:05:00 1 C 4.98 g/m*3 1 C 0 km/h
2919 01-01-2020 03:10:00 1 C 4.98 g/m*3 1 C 0 km/h
2920 01-01-2020 03:15:00 1.1 C 5.02 g/m*3 1.1 C 0 km/h
2921 01-01-2020 03:20:00 1.1 C 5.02 g/m*3 1.1 C 0 km/h
2922 01-01-2020 03:25:00 1.1 C 5.02 g/m*3 1.1 C 0 km/h
2923 01-01-2020 03:30:00 1.1 C 5.02 g/m*3 1.1 C 0 km/h
2924 01-01-2020 03:35:00 1.1 C 5.02 g/m*3 1.1 C 0 km/h
2925 01-01-2020 03:40:00 1.1 C 5.02 g/m*3 1.1 C 0 km/h
Sensor: Nr:Datum:Temp:Abs-Feuchte:Windchill:Wind:
Aussen-T/F 2926 01-01-2020 03:45:00 1.1 C 5.02 g/m*3 1.1 C 0 km/h
2927 01-01-2020 03:50:00 1.1 C 5.02 g/m*3 1.1 C 0 km/h
2928 01-01-2020 03:55:00 1.1 C 5.02 g/m*3 1.1 C 0 km/h
2929 01-01-2020 04:00:00 1.1 C 5.02 g/m*3 1.1 C 0 km/h
2930 01-01-2020 04:05:00 1.1 C 5.02 g/m*3 1.1 C 0 km/h
2931 01-01-2020 04:10:00 1.1 C 5.02 g/m*3 1.1 C 0 km/h
2932 01-01-2020 04:15:00 1.1 C 5.02 g/m*3 1.1 C 0 km/h
2933 01-01-2020 04:20:00 1.1 C 5.02 g/m*3 1.1 C 0 km/h
2934 01-01-2020 04:25:00 1.1 C 5.02 g/m*3 1.1 C 0 km/h
2935 01-01-2020 04:30:00 1.2 C 5.05 g/m*3 1.2 C 0 km/h
2936 01-01-2020 04:35:00 1.2 C 5.05 g/m*3 1.2 C 0 km/h
2937 01-01-2020 04:40:00 1.2 C 5.05 g/m*3 1.2 C 0 km/h
2938 01-01-2020 04:45:00 1.2 C 5.05 g/m*3 1.2 C 1.6 km/h
2939 01-01-2020 04:50:00 1.2 C 5.05 g/m*3 1.2 C 0 km/h
2940 01-01-2020 04:55:00 1.2 C 5.05 g/m*3 1.2 C 0 km/h
2941 01-01-2020 05:00:00 1.2 C 5.05 g/m*3 1.2 C 0 km/h
2942 01-01-2020 05:05:00 1.2 C 5.05 g/m*3 1.2 C 0 km/h
2943 01-01-2020 05:10:00 1.2 C 5.05 g/m*3 1.2 C 0 km/h
2944 01-01-2020 05:15:00 1.2 C 5.05 g/m*3 1.2 C 0 km/h
2945 01-01-2020 05:20:00 1.2 C 5.05 g/m*3 1.2 C 0 km/h
2946 01-01-2020 05:25:00 1.2 C 5.05 g/m*3 1.2 C 0 km/h
2947 01-01-2020 05:30:00 1.3 C 5.09 g/m*3 1.3 C 0 km/h
2948 01-01-2020 05:35:00 1.3 C 5.09 g/m*3 1.3 C 0 km/h
2949 01-01-2020 05:40:00 1.3 C 5.09 g/m*3 1.3 C 0 km/h
2950 01-01-2020 05:45:00 1.3 C 5.09 g/m*3 1.3 C 0 km/h
Sensor: Nr:Datum:Temp:Abs-Feuchte:Windchill:Wind:
Aussen-T/F 2951 01-01-2020 05:50:00 1.3 C 5.09 g/m*3 1.3 C 0 km/h
2952 01-01-2020 05:55:00 1.3 C 5.09 g/m*3 1.3 C 0 km/h
2953 01-01-2020 06:00:00 1.3 C 5.09 g/m*3 1.3 C 0 km/h
2954 01-01-2020 06:05:00 1.2 C 5.05 g/m*3 1.2 C 0 km/h
2955 01-01-2020 06:10:00 1.2 C 5.05 g/m*3 1.2 C 0 km/h
2956 01-01-2020 06:15:00 1.2 C 5.05 g/m*3 1.2 C 0 km/h
2957 01-01-2020 06:20:00 1.2 C 5.05 g/m*3 1.2 C 0 km/h
2958 01-01-2020 06:25:00 1.3 C 5.09 g/m*3 1.3 C 0 km/h
2959 01-01-2020 06:30:00 1.3 C 5.09 g/m*3 1.3 C 3.2 km/h
2960 01-01-2020 06:35:00 1.3 C 5.09 g/m*3 1.3 C 3.2 km/h
2961 01-01-2020 06:40:00 1.3 C 5.09 g/m*3 1.3 C 0 km/h
2962 01-01-2020 06:45:00 1.3 C 5.09 g/m*3 1.3 C 0 km/h
2963 01-01-2020 06:50:00 1.3 C 5.09 g/m*3 1.3 C 0 km/h
2964 01-01-2020 06:55:00 1.3 C 5.09 g/m*3 1.3 C 0 km/h
2965 01-01-2020 07:00:00 1.3 C 5.09 g/m*3 1.3 C 0 km/h
2966 01-01-2020 07:05:00 1.3 C 5.09 g/m*3 1.3 C 0 km/h
2967 01-01-2020 07:10:00 1.3 C 5.09 g/m*3 1.3 C 0 km/h
2968 01-01-2020 07:15:00 1.3 C 5.09 g/m*3 1.3 C 0 km/h
2969 01-01-2020 07:20:00 1.3 C 5.09 g/m*3 1.3 C 0 km/h
2970 01-01-2020 07:25:00 1.3 C 5.09 g/m*3 1.3 C 0 km/h
2971 01-01-2020 07:30:00 1.3 C 5.09 g/m*3 1.3 C 0 km/h
2972 01-01-2020 07:35:00 1.3 C 5.09 g/m*3 1.3 C 0 km/h
2973 01-01-2020 07:40:00 1.3 C 5.09 g/m*3 1.3 C 0 km/h
2974 01-01-2020 07:45:00 1.3 C 5.09 g/m*3 1.3 C 0 km/h
2975 01-01-2020 07:50:00 1.3 C 5.09 g/m*3 1.3 C 0 km/h
Sensor: Nr:Datum:Temp:Abs-Feuchte:Windchill:Wind:
Aussen-T/F 2976 01-01-2020 07:55:00 1.3 C 5.09 g/m*3 1.3 C 0 km/h
2977 01-01-2020 08:00:00 1.3 C 5.09 g/m*3 1.3 C 0 km/h
2978 01-01-2020 08:05:00 1.4 C 5.12 g/m*3 1.4 C 0 km/h
2979 01-01-2020 08:10:00 1.4 C 5.12 g/m*3 1.4 C 0 km/h
2980 01-01-2020 08:15:00 1.4 C 5.12 g/m*3 1.4 C 0 km/h
2981 01-01-2020 08:20:00 1.4 C 5.12 g/m*3 1.4 C 0 km/h
2982 01-01-2020 08:25:00 1.4 C 5.12 g/m*3 1.4 C 0 km/h
2983 01-01-2020 08:30:00 1.4 C 5.12 g/m*3 1.4 C 0 km/h
2984 01-01-2020 08:35:00 1.4 C 5.12 g/m*3 1.4 C 0 km/h
2985 01-01-2020 08:40:00 1.5 C 5.16 g/m*3 1.5 C 0 km/h
2986 01-01-2020 08:45:00 1.5 C 5.16 g/m*3 1.5 C 0 km/h
2987 01-01-2020 08:50:00 1.5 C 5.16 g/m*3 1.5 C 0 km/h
2988 01-01-2020 08:55:00 1.5 C 5.16 g/m*3 1.5 C 0 km/h
2989 01-01-2020 09:00:00 1.6 C 5.19 g/m*3 1.6 C 0 km/h
2990 01-01-2020 09:05:00 1.6 C 5.19 g/m*3 1.6 C 0 km/h
2991 01-01-2020 09:10:00 1.6 C 5.19 g/m*3 1.6 C 0 km/h
2992 01-01-2020 09:15:00 1.7 C 5.23 g/m*3 1.7 C 0 km/h
2993 01-01-2020 09:20:00 1.7 C 5.23 g/m*3 1.7 C 0 km/h
2994 01-01-2020 09:25:00 1.8 C 5.26 g/m*3 1.8 C 0 km/h
2995 01-01-2020 09:30:00 1.8 C 5.26 g/m*3 1.8 C 0 km/h
2996 01-01-2020 09:35:00 1.9 C 5.3 g/m*3 1.9 C 0 km/h
2997 01-01-2020 09:40:00 1.9 C 5.3 g/m*3 1.9 C 0 km/h
2998 01-01-2020 09:45:00 1.9 C 5.3 g/m*3 1.9 C 0 km/h
2999 01-01-2020 09:50:00 2 C 5.33 g/m*3 2 C 0 km/h
3000 01-01-2020 09:55:00 2.1 C 5.37 g/m*3 2.1 C 0 km/h
Sensor: Nr:Datum:Temp:Abs-Feuchte:Windchill:Wind:
Aussen-T/F 3001 01-01-2020 10:00:00 2.1 C 5.37 g/m*3 2.1 C 0 km/h
3002 01-01-2020 10:05:00 2.2 C 5.41 g/m*3 2.2 C 0 km/h
3003 01-01-2020 10:10:00 2.3 C 5.44 g/m*3 2.3 C 4.8 km/h
3004 01-01-2020 10:15:00 2.4 C 5.48 g/m*3 2.4 C 4.8 km/h
3005 01-01-2020 10:20:00 2.4 C 5.42 g/m*3 0.59 C 6.4 km/h
3006 01-01-2020 10:25:00 2.5 C 5.46 g/m*3 0.71 C 6.4 km/h
3007 01-01-2020 10:30:00 2.6 C 5.5 g/m*3 0.82 C 6.4 km/h
3008 01-01-2020 10:35:00 2.7 C 5.48 g/m*3 2.7 C 4.8 km/h
3009 01-01-2020 10:40:00 2.7 C 5.48 g/m*3 2.7 C 4.8 km/h
3010 01-01-2020 10:45:00 2.8 C 5.51 g/m*3 2.8 C 4.8 km/h
3011 01-01-2020 10:50:00 2.8 C 5.51 g/m*3 1.05 C 6.4 km/h
3012 01-01-2020 10:55:00 2.9 C 5.49 g/m*3 2.9 C 3.2 km/h
3013 01-01-2020 11:00:00 2.9 C 5.49 g/m*3 1.17 C 6.4 km/h
3014 01-01-2020 11:05:00 2.9 C 5.49 g/m*3 2.9 C 4.8 km/h
3015 01-01-2020 11:10:00 3 C 5.47 g/m*3 3 C 4.8 km/h
3016 01-01-2020 11:15:00 3.1 C 5.51 g/m*3 1.4 C 6.4 km/h
3017 01-01-2020 11:20:00 3.1 C 5.51 g/m*3 1.4 C 6.4 km/h
3018 01-01-2020 11:25:00 3.1 C 5.51 g/m*3 0.87 C 8.1 km/h
3019 01-01-2020 11:30:00 3.2 C 5.48 g/m*3 1.51 C 6.4 km/h
3020 01-01-2020 11:35:00 3.2 C 5.48 g/m*3 3.2 C 4.8 km/h
3021 01-01-2020 11:40:00 3.2 C 5.48 g/m*3 3.2 C 4.8 km/h
3022 01-01-2020 11:45:00 3.2 C 5.48 g/m*3 3.2 C 4.8 km/h
3023 01-01-2020 11:50:00 3.3 C 5.52 g/m*3 3.3 C 3.2 km/h
3024 01-01-2020 11:55:00 3.3 C 5.52 g/m*3 1.63 C 6.4 km/h
3025 01-01-2020 12:00:00 3.3 C 5.52 g/m*3 3.3 C 4.8 km/h
Sensor: Nr:Datum:Temp:Abs-Feuchte:Windchill:Wind:
Aussen-T/F 3026 01-01-2020 12:05:00 3.4 C 5.5 g/m*3 3.4 C 3.2 km/h
3027 01-01-2020 12:10:00 3.4 C 5.5 g/m*3 3.4 C 3.2 km/h
3028 01-01-2020 12:15:00 3.4 C 5.5 g/m*3 3.4 C 3.2 km/h
3029 01-01-2020 12:20:00 3.4 C 5.5 g/m*3 3.4 C 3.2 km/h
3030 01-01-2020 12:25:00 3.4 C 5.5 g/m*3 1.75 C 6.4 km/h
3031 01-01-2020 12:30:00 3.4 C 5.5 g/m*3 3.4 C 1.6 km/h
3032 01-01-2020 12:35:00 3.4 C 5.5 g/m*3 3.4 C 3.2 km/h
3033 01-01-2020 12:40:00 3.4 C 5.5 g/m*3 3.4 C 1.6 km/h
3034 01-01-2020 12:45:00 3.4 C 5.5 g/m*3 3.4 C 0 km/h
3035 01-01-2020 12:50:00 3.3 C 5.46 g/m*3 3.3 C 0 km/h
3036 01-01-2020 12:55:00 3.3 C 5.46 g/m*3 3.3 C 0 km/h
3037 01-01-2020 13:00:00 3.2 C 5.42 g/m*3 3.2 C 0 km/h
3038 01-01-2020 13:05:00 3.1 C 5.39 g/m*3 3.1 C 0 km/h
3039 01-01-2020 13:10:00 2.9 C 5.32 g/m*3 2.9 C 0 km/h
3040 01-01-2020 13:15:00 2.8 C 5.28 g/m*3 2.8 C 0 km/h
3041 01-01-2020 13:20:00 2.8 C 5.34 g/m*3 2.8 C 0 km/h
3042 01-01-2020 13:25:00 2.7 C 5.3 g/m*3 2.7 C 1.6 km/h
3043 01-01-2020 13:30:00 2.6 C 5.27 g/m*3 2.6 C 1.6 km/h
3044 01-01-2020 13:35:00 2.6 C 5.32 g/m*3 2.6 C 0 km/h
3045 01-01-2020 13:40:00 2.5 C 5.29 g/m*3 2.5 C 0 km/h
3046 01-01-2020 13:45:00 2.5 C 5.29 g/m*3 2.5 C 1.6 km/h
3047 01-01-2020 13:50:00 2.4 C 5.25 g/m*3 2.4 C 1.6 km/h
3048 01-01-2020 13:55:00 2.4 C 5.31 g/m*3 2.4 C 0 km/h
3049 01-01-2020 14:00:00 2.4 C 5.31 g/m*3 2.4 C 0 km/h
3050 01-01-2020 14:05:00 2.4 C 5.31 g/m*3 2.4 C 0 km/h
Sensor: Nr:Datum:Temp:Abs-Feuchte:Windchill:Wind:
Aussen-T/F 3051 01-01-2020 14:10:00 2.4 C 5.31 g/m*3 2.4 C 1.6 km/h
3052 01-01-2020 14:15:00 2.4 C 5.31 g/m*3 2.4 C 0 km/h
3053 01-01-2020 14:20:00 2.4 C 5.31 g/m*3 2.4 C 0 km/h
3054 01-01-2020 14:25:00 2.4 C 5.37 g/m*3 2.4 C 0 km/h
3055 01-01-2020 14:30:00 2.3 C 5.33 g/m*3 2.3 C 0 km/h
3056 01-01-2020 14:35:00 2.4 C 5.37 g/m*3 2.4 C 0 km/h
3057 01-01-2020 14:40:00 2.3 C 5.33 g/m*3 2.3 C 0 km/h
3058 01-01-2020 14:45:00 2.3 C 5.33 g/m*3 2.3 C 0 km/h
3059 01-01-2020 14:50:00 2.3 C 5.33 g/m*3 2.3 C 0 km/h
3060 01-01-2020 14:55:00 2.3 C 5.33 g/m*3 2.3 C 0 km/h
3061 01-01-2020 15:00:00 2.2 C 5.29 g/m*3 2.2 C 0 km/h
3062 01-01-2020 15:05:00 2.2 C 5.29 g/m*3 2.2 C 0 km/h
3063 01-01-2020 15:10:00 2.2 C 5.29 g/m*3 2.2 C 0 km/h
3064 01-01-2020 15:15:00 2.2 C 5.29 g/m*3 2.2 C 0 km/h
3065 01-01-2020 15:20:00 2.2 C 5.35 g/m*3 2.2 C 1.6 km/h
3066 01-01-2020 15:25:00 2.3 C 5.39 g/m*3 2.3 C 3.2 km/h
3067 01-01-2020 15:30:00 2.4 C 5.42 g/m*3 2.4 C 4.8 km/h
3068 01-01-2020 15:35:00 2.5 C 5.4 g/m*3 2.5 C 1.6 km/h
3069 01-01-2020 15:40:00 2.4 C 5.37 g/m*3 2.4 C 0 km/h
3070 01-01-2020 15:45:00 2.3 C 5.33 g/m*3 2.3 C 0 km/h
3071 01-01-2020 15:50:00 2.1 C 5.2 g/m*3 2.1 C 0 km/h
3072 01-01-2020 15:55:00 2 C 5.22 g/m*3 2 C 0 km/h
3073 01-01-2020 16:00:00 1.9 C 5.19 g/m*3 1.9 C 0 km/h
3074 01-01-2020 16:05:00 1.8 C 5.1 g/m*3 1.8 C 0 km/h
3075 01-01-2020 16:10:00 1.7 C 5.12 g/m*3 1.7 C 0 km/h
Sensor: Nr:Datum:Temp:Abs-Feuchte:Windchill:Wind:
Aussen-T/F 3076 01-01-2020 16:15:00 1.6 C 5.08 g/m*3 1.6 C 0 km/h
3077 01-01-2020 16:20:00 1.5 C 5.05 g/m*3 1.5 C 0 km/h
3078 01-01-2020 16:25:00 1.4 C 5.01 g/m*3 1.4 C 0 km/h
3079 01-01-2020 16:30:00 1.3 C 4.98 g/m*3 1.3 C 0 km/h
3080 01-01-2020 16:35:00 1.2 C 4.95 g/m*3 1.2 C 0 km/h
3081 01-01-2020 16:40:00 1.1 C 4.91 g/m*3 1.1 C 0 km/h
3082 01-01-2020 16:45:00 0.9 C 4.85 g/m*3 0.9 C 0 km/h
3083 01-01-2020 16:50:00 0.8 C 4.81 g/m*3 0.8 C 0 km/h
3084 01-01-2020 16:55:00 0.8 C 4.81 g/m*3 0.8 C 0 km/h
3085 01-01-2020 17:00:00 0.7 C 4.78 g/m*3 0.7 C 0 km/h
3086 01-01-2020 17:05:00 0.6 C 4.8 g/m*3 0.6 C 0 km/h
3087 01-01-2020 17:10:00 0.5 C 4.71 g/m*3 0.5 C 0 km/h
3088 01-01-2020 17:15:00 0.4 C 4.73 g/m*3 0.4 C 0 km/h
3089 01-01-2020 17:20:00 0.3 C 4.7 g/m*3 0.3 C 0 km/h
3090 01-01-2020 17:25:00 0.3 C 4.7 g/m*3 0.3 C 0 km/h
3091 01-01-2020 17:30:00 0.2 C 4.67 g/m*3 0.2 C 0 km/h
3092 01-01-2020 17:35:00 0.1 C 4.63 g/m*3 0.1 C 0 km/h
3093 01-01-2020 17:40:00 0 C 4.6 g/m*3 0 C 0 km/h
3094 01-01-2020 17:45:00 -0.1 C 4.57 g/m*3 -0.1 C 0 km/h
3095 01-01-2020 17:50:00 -0.2 C 4.54 g/m*3 -0.2 C 0 km/h
3096 01-01-2020 17:55:00 -0.2 C 4.54 g/m*3 -0.2 C 0 km/h
3097 01-01-2020 18:00:00 -0.3 C 4.51 g/m*3 -0.3 C 0 km/h
3098 01-01-2020 18:05:00 -0.3 C 4.51 g/m*3 -0.3 C 0 km/h
3099 01-01-2020 18:10:00 -0.3 C 4.51 g/m*3 -0.3 C 0 km/h
3100 01-01-2020 18:15:00 -0.4 C 4.48 g/m*3 -0.4 C 0 km/h
Sensor: Nr:Datum:Temp:Abs-Feuchte:Windchill:Wind:
Aussen-T/F 3101 01-01-2020 18:20:00 -0.4 C 4.48 g/m*3 -0.4 C 0 km/h
3102 01-01-2020 18:25:00 -0.5 C 4.45 g/m*3 -0.5 C 0 km/h
3103 01-01-2020 18:30:00 -0.6 C 4.42 g/m*3 -0.6 C 0 km/h
3104 01-01-2020 18:35:00 -0.6 C 4.42 g/m*3 -0.6 C 0 km/h
3105 01-01-2020 18:40:00 -0.6 C 4.42 g/m*3 -0.6 C 0 km/h
3106 01-01-2020 18:45:00 -0.7 C 4.43 g/m*3 -0.7 C 0 km/h
3107 01-01-2020 18:50:00 -0.7 C 4.43 g/m*3 -0.7 C 0 km/h
3108 01-01-2020 18:55:00 -0.7 C 4.43 g/m*3 -0.7 C 0 km/h
3109 01-01-2020 19:00:00 -0.7 C 4.39 g/m*3 -0.7 C 0 km/h
3110 01-01-2020 19:05:00 -0.8 C 4.35 g/m*3 -0.8 C 0 km/h
3111 01-01-2020 19:10:00 -0.8 C 4.4 g/m*3 -0.8 C 0 km/h
3112 01-01-2020 19:15:00 -0.8 C 4.4 g/m*3 -0.8 C 0 km/h
3113 01-01-2020 19:20:00 -0.8 C 4.4 g/m*3 -0.8 C 0 km/h
3114 01-01-2020 19:25:00 -0.9 C 4.37 g/m*3 -0.9 C 0 km/h
3115 01-01-2020 19:30:00 -0.9 C 4.37 g/m*3 -0.9 C 0 km/h
3116 01-01-2020 19:35:00 -0.9 C 4.37 g/m*3 -0.9 C 0 km/h
3117 01-01-2020 19:40:00 -0.9 C 4.37 g/m*3 -0.9 C 0 km/h
3118 01-01-2020 19:45:00 -1 C 4.34 g/m*3 -1 C 0 km/h
3119 01-01-2020 19:50:00 -1 C 4.34 g/m*3 -1 C 0 km/h
3120 01-01-2020 19:55:00 -1.1 C 4.31 g/m*3 -1.1 C 0 km/h
3121 01-01-2020 20:00:00 -1.1 C 4.31 g/m*3 -1.1 C 0 km/h
3122 01-01-2020 20:05:00 -1.1 C 4.31 g/m*3 -1.1 C 0 km/h
3123 01-01-2020 20:10:00 -1.1 C 4.31 g/m*3 -1.1 C 0 km/h
3124 01-01-2020 20:15:00 -1.2 C 4.28 g/m*3 -1.2 C 0 km/h
3125 01-01-2020 20:20:00 -1.2 C 4.28 g/m*3 -1.2 C 0 km/h
Sensor: Nr:Datum:Temp:Abs-Feuchte:Windchill:Wind:
Aussen-T/F 3126 01-01-2020 20:25:00 -1.2 C 4.28 g/m*3 -1.2 C 0 km/h
3127 01-01-2020 20:30:00 -1.2 C 4.28 g/m*3 -1.2 C 0 km/h
3128 01-01-2020 20:35:00 -1.2 C 4.28 g/m*3 -1.2 C 0 km/h
3129 01-01-2020 20:40:00 -1.2 C 4.28 g/m*3 -1.2 C 0 km/h
3130 01-01-2020 20:45:00 -1.2 C 4.28 g/m*3 -1.2 C 0 km/h
3131 01-01-2020 20:50:00 -1.3 C 4.25 g/m*3 -1.3 C 0 km/h
3132 01-01-2020 20:55:00 -1.3 C 4.25 g/m*3 -1.3 C 0 km/h
3133 01-01-2020 21:00:00 -1.3 C 4.25 g/m*3 -1.3 C 0 km/h
3134 01-01-2020 21:05:00 -1.3 C 4.25 g/m*3 -1.3 C 0 km/h
3135 01-01-2020 21:10:00 -1.4 C 4.22 g/m*3 -1.4 C 0 km/h
3136 01-01-2020 21:15:00 -1.4 C 4.22 g/m*3 -1.4 C 0 km/h
3137 01-01-2020 21:20:00 -1.5 C 4.19 g/m*3 -1.5 C 0 km/h
3138 01-01-2020 21:25:00 -1.5 C 4.19 g/m*3 -1.5 C 0 km/h
3139 01-01-2020 21:30:00 -1.5 C 4.19 g/m*3 -1.5 C 0 km/h
3140 01-01-2020 21:35:00 -1.5 C 4.19 g/m*3 -1.5 C 0 km/h
3141 01-01-2020 21:40:00 -1.6 C 4.16 g/m*3 -1.6 C 0 km/h
3142 01-01-2020 21:45:00 -1.7 C 4.13 g/m*3 -1.7 C 0 km/h
3143 01-01-2020 21:50:00 -1.7 C 4.13 g/m*3 -1.7 C 0 km/h
3144 01-01-2020 21:55:00 -1.7 C 4.13 g/m*3 -1.7 C 0 km/h
3145 01-01-2020 22:00:00 -1.6 C 4.16 g/m*3 -1.6 C 0 km/h
3146 01-01-2020 22:05:00 -1.7 C 4.13 g/m*3 -1.7 C 0 km/h
3147 01-01-2020 22:10:00 -1.8 C 4.1 g/m*3 -1.8 C 0 km/h
3148 01-01-2020 22:15:00 -1.8 C 4.1 g/m*3 -1.8 C 0 km/h
3149 01-01-2020 22:20:00 -1.8 C 4.1 g/m*3 -1.8 C 0 km/h
3150 01-01-2020 22:25:00 -1.8 C 4.1 g/m*3 -1.8 C 0 km/h
Sensor: Nr:Datum:Temp:Abs-Feuchte:Windchill:Wind:
Aussen-T/F 3151 01-01-2020 22:30:00 -1.8 C 4.1 g/m*3 -1.8 C 0 km/h
3152 01-01-2020 22:35:00 -1.7 C 4.13 g/m*3 -1.7 C 0 km/h
3153 01-01-2020 22:40:00 -1.7 C 4.13 g/m*3 -1.7 C 0 km/h
3154 01-01-2020 22:45:00 -1.7 C 4.13 g/m*3 -1.7 C 0 km/h
3155 01-01-2020 22:50:00 -1.7 C 4.13 g/m*3 -1.7 C 0 km/h
3156 01-01-2020 22:55:00 -1.8 C 4.1 g/m*3 -1.8 C 0 km/h
3157 01-01-2020 23:00:00 -1.8 C 4.1 g/m*3 -1.8 C 0 km/h
3158 01-01-2020 23:05:00 -1.9 C 4.08 g/m*3 -1.9 C 0 km/h
3159 01-01-2020 23:10:00 -1.9 C 4.08 g/m*3 -1.9 C 0 km/h
3160 01-01-2020 23:15:00 -1.8 C 4.1 g/m*3 -1.8 C 0 km/h
3161 01-01-2020 23:20:00 -1.8 C 4.1 g/m*3 -1.8 C 0 km/h
3162 01-01-2020 23:25:00 -1.7 C 4.13 g/m*3 -1.7 C 0 km/h
3163 01-01-2020 23:30:00 -1.7 C 4.18 g/m*3 -1.7 C 0 km/h
3164 01-01-2020 23:35:00 -1.6 C 4.21 g/m*3 -1.6 C 0 km/h
3165 01-01-2020 23:40:00 -1.5 C 4.23 g/m*3 -1.5 C 0 km/h
3166 01-01-2020 23:45:00 -1.5 C 4.23 g/m*3 -1.5 C 0 km/h
3167 01-01-2020 23:50:00 -1.4 C 4.26 g/m*3 -1.4 C 0 km/h
3168 01-01-2020 23:55:00 -1.4 C 4.26 g/m*3 -1.4 C 0 km/h
3169 02-01-2020 00:00:00 -1.3 C 4.29 g/m*3 -1.3 C 0 km/h
3170 02-01-2020 00:05:00 -1.3 C 4.29 g/m*3 -1.3 C 0 km/h
3171 02-01-2020 00:10:00 -1.3 C 4.29 g/m*3 -1.3 C 0 km/h
3172 02-01-2020 00:15:00 -1.3 C 4.29 g/m*3 -1.3 C 0 km/h
3173 02-01-2020 00:20:00 -1.3 C 4.29 g/m*3 -1.3 C 0 km/h
3174 02-01-2020 00:25:00 -1.3 C 4.25 g/m*3 -1.3 C 0 km/h
3175 02-01-2020 00:30:00 -1.4 C 4.22 g/m*3 -1.4 C 0 km/h
Sensor: Nr:Datum:Temp:Abs-Feuchte:Windchill:Wind:
Aussen-T/F 3176 02-01-2020 00:35:00 -1.4 C 4.26 g/m*3 -1.4 C 0 km/h
3177 02-01-2020 00:40:00 -1.4 C 4.26 g/m*3 -1.4 C 0 km/h
3178 02-01-2020 00:45:00 -1.4 C 4.26 g/m*3 -1.4 C 0 km/h
3179 02-01-2020 00:50:00 -1.4 C 4.26 g/m*3 -1.4 C 0 km/h
3180 02-01-2020 00:55:00 -1.4 C 4.26 g/m*3 -1.4 C 0 km/h
3181 02-01-2020 01:00:00 -1.3 C 4.29 g/m*3 -1.3 C 0 km/h
3182 02-01-2020 01:05:00 -1.3 C 4.29 g/m*3 -1.3 C 0 km/h
3183 02-01-2020 01:10:00 -1.3 C 4.29 g/m*3 -1.3 C 0 km/h
3184 02-01-2020 01:15:00 -1.2 C 4.32 g/m*3 -1.2 C 0 km/h
3185 02-01-2020 01:20:00 -1.1 C 4.35 g/m*3 -1.1 C 0 km/h
3186 02-01-2020 01:25:00 -1.1 C 4.35 g/m*3 -1.1 C 0 km/h
3187 02-01-2020 01:30:00 -1.1 C 4.35 g/m*3 -1.1 C 0 km/h
3188 02-01-2020 01:35:00 -1.1 C 4.35 g/m*3 -1.1 C 0 km/h
3189 02-01-2020 01:40:00 -1.1 C 4.35 g/m*3 -1.1 C 0 km/h
3190 02-01-2020 01:45:00 -1 C 4.38 g/m*3 -1 C 0 km/h
3191 02-01-2020 01:50:00 -0.9 C 4.42 g/m*3 -0.9 C 0 km/h
3192 02-01-2020 01:55:00 -0.9 C 4.42 g/m*3 -0.9 C 0 km/h
3193 02-01-2020 02:00:00 -0.9 C 4.42 g/m*3 -0.9 C 0 km/h
3194 02-01-2020 02:05:00 -0.8 C 4.45 g/m*3 -0.8 C 0 km/h
3195 02-01-2020 02:10:00 -0.8 C 4.45 g/m*3 -0.8 C 0 km/h
3196 02-01-2020 02:15:00 -0.7 C 4.48 g/m*3 -0.7 C 0 km/h
3197 02-01-2020 02:20:00 -0.7 C 4.48 g/m*3 -0.7 C 0 km/h
3198 02-01-2020 02:25:00 -0.7 C 4.48 g/m*3 -0.7 C 0 km/h
3199 02-01-2020 02:30:00 -0.7 C 4.48 g/m*3 -0.7 C 0 km/h
3200 02-01-2020 02:35:00 -0.6 C 4.51 g/m*3 -0.6 C 0 km/h
Sensor: Nr:Datum:Temp:Abs-Feuchte:Windchill:Wind:
Aussen-T/F 3201 02-01-2020 02:40:00 -0.6 C 4.51 g/m*3 -0.6 C 0 km/h
3202 02-01-2020 02:45:00 -0.5 C 4.54 g/m*3 -0.5 C 0 km/h
3203 02-01-2020 02:50:00 -0.5 C 4.54 g/m*3 -0.5 C 0 km/h
3204 02-01-2020 02:55:00 -0.4 C 4.57 g/m*3 -0.4 C 0 km/h
3205 02-01-2020 03:00:00 -0.4 C 4.57 g/m*3 -0.4 C 0 km/h
3206 02-01-2020 03:05:00 -0.4 C 4.57 g/m*3 -0.4 C 0 km/h
3207 02-01-2020 03:10:00 -0.4 C 4.57 g/m*3 -0.4 C 0 km/h
3208 02-01-2020 03:15:00 -0.3 C 4.6 g/m*3 -0.3 C 0 km/h
3209 02-01-2020 03:20:00 -0.3 C 4.6 g/m*3 -0.3 C 0 km/h
3210 02-01-2020 03:25:00 -0.3 C 4.6 g/m*3 -0.3 C 0 km/h
3211 02-01-2020 03:30:00 -0.3 C 4.6 g/m*3 -0.3 C 0 km/h
3212 02-01-2020 03:35:00 -0.2 C 4.64 g/m*3 -0.2 C 0 km/h
3213 02-01-2020 03:40:00 -0.2 C 4.64 g/m*3 -0.2 C 0 km/h
3214 02-01-2020 03:45:00 -0.2 C 4.64 g/m*3 -0.2 C 0 km/h
3215 02-01-2020 03:50:00 -0.1 C 4.67 g/m*3 -0.1 C 0 km/h
3216 02-01-2020 03:55:00 -0.1 C 4.67 g/m*3 -0.1 C 0 km/h
3217 02-01-2020 04:00:00 0 C 4.7 g/m*3 0 C 0 km/h
3218 02-01-2020 04:05:00 0 C 4.7 g/m*3 0 C 0 km/h
3219 02-01-2020 04:10:00 0.1 C 4.73 g/m*3 0.1 C 1.6 km/h
3220 02-01-2020 04:15:00 0.2 C 4.77 g/m*3 0.2 C 3.2 km/h
3221 02-01-2020 04:20:00 0.2 C 4.77 g/m*3 0.2 C 1.6 km/h
3222 02-01-2020 04:25:00 0.2 C 4.77 g/m*3 0.2 C 1.6 km/h
3223 02-01-2020 04:30:00 0.2 C 4.77 g/m*3 0.2 C 1.6 km/h
3224 02-01-2020 04:35:00 0.3 C 4.8 g/m*3 0.3 C 0 km/h
3225 02-01-2020 04:40:00 0.2 C 4.77 g/m*3 0.2 C 0 km/h
Sensor: Nr:Datum:Temp:Abs-Feuchte:Windchill:Wind:
Aussen-T/F 3226 02-01-2020 04:45:00 0.2 C 4.77 g/m*3 0.2 C 0 km/h
3227 02-01-2020 04:50:00 0.2 C 4.77 g/m*3 0.2 C 0 km/h
3228 02-01-2020 04:55:00 0.2 C 4.77 g/m*3 0.2 C 0 km/h
3229 02-01-2020 05:00:00 0.2 C 4.77 g/m*3 0.2 C 4.8 km/h
3230 02-01-2020 05:05:00 0.2 C 4.77 g/m*3 0.2 C 4.8 km/h
3231 02-01-2020 05:10:00 0.2 C 4.77 g/m*3 0.2 C 4.8 km/h
3232 02-01-2020 05:15:00 0.2 C 4.77 g/m*3 0.2 C 3.2 km/h
3233 02-01-2020 05:20:00 0.2 C 4.77 g/m*3 0.2 C 4.8 km/h